Darstellungsparameter: Aktuell verwendete Einstellungen:
Skalierung der Graphiken ... ?
xyx+y,   Skalierungsfaktor:      Skalierung: Modus: x, Faktor: 1
Darstellungszeitraum ... ?
Vom - - bis: - -   Zeitraum: 21.06.2019 - 20.09.2019
Min/Max/Avg-Anzeige ... ?
Zeige MMA aktuell
Zeige MMA Monat
Zeige MMA alles
Zeige --A aktuell
Zeige --A Monat
Zeige --A alles
Keine MMA-Anzeige
MMA:
Minimum Maximum Average (ber die Originaldaten)
MMA-Basis: 21.06.2019 - 20.09.2019
Quicknavigation für Darstellung... ?
Tage:      1T, 2T, 3T, 5T -1T -2T -3T -5T +1T +2T +3T +5T
Wochen: 1W, 2W, 3W -1W -2W -3W +1W +2W +3W
Monate: 1M, 3M, 6M -1M -3M -6M +1M +3M +6M
Jahre:    1J, 3J, 5J, 10J -1J -3J -5J -10J +1J +3J +5J +10J
Nutze für die Darstellung ... ?
Originaldaten oder Mittelwerte auf ...
Stundenbasis Tagesbasis Wochenbasis
Monatsbasis Jahresbasis      Datenbasis: Original-Daten
Darstellen als:
Statistik (Auto) Statistik J:M      Darstellung:
Zur Graphik,    zurück zur Übersicht aller Sensoren.
 
Tabellarische Datenbersicht: ?
 
Sensor: Nr:Datum:Temp:Feuchte:Taupunkt:
Aussen-T/F 1 21-06-2019 00:00:00 15.4 C 93 % 14.27 C
2 21-06-2019 00:05:00 15.5 C 94 % 14.54 C
3 21-06-2019 00:10:00 15.6 C 94 % 14.64 C
4 21-06-2019 00:15:00 15.6 C 94 % 14.64 C
5 21-06-2019 00:20:00 15.7 C 94 % 14.74 C
6 21-06-2019 00:25:00 15.7 C 94 % 14.74 C
7 21-06-2019 00:30:00 15.7 C 94 % 14.74 C
8 21-06-2019 00:35:00 15.6 C 93 % 14.47 C
9 21-06-2019 00:40:00 15.4 C 93 % 14.27 C
10 21-06-2019 00:45:00 15.3 C 93 % 14.18 C
11 21-06-2019 00:50:00 15.3 C 93 % 14.18 C
12 21-06-2019 00:55:00 15.2 C 93 % 14.08 C
13 21-06-2019 01:00:00 15.2 C 93 % 14.08 C
14 21-06-2019 01:05:00 15.1 C 93 % 13.98 C
15 21-06-2019 01:10:00 15.1 C 93 % 13.98 C
16 21-06-2019 01:15:00 15.1 C 93 % 13.98 C
17 21-06-2019 01:20:00 15 C 93 % 13.88 C
18 21-06-2019 01:25:00 14.9 C 93 % 13.78 C
19 21-06-2019 01:30:00 14.9 C 93 % 13.78 C
20 21-06-2019 01:35:00 14.8 C 93 % 13.68 C
21 21-06-2019 01:40:00 14.7 C 93 % 13.58 C
22 21-06-2019 01:45:00 14.7 C 93 % 13.58 C
23 21-06-2019 01:50:00 14.6 C 93 % 13.48 C
24 21-06-2019 01:55:00 14.6 C 93 % 13.48 C
25 21-06-2019 02:00:00 14.7 C 94 % 13.74 C
Sensor: Nr:Datum:Temp:Feuchte:Taupunkt:
Aussen-T/F 26 21-06-2019 02:05:00 14.7 C 94 % 13.74 C
27 21-06-2019 02:10:00 14.7 C 94 % 13.74 C
28 21-06-2019 02:15:00 14.7 C 94 % 13.74 C
29 21-06-2019 02:20:00 14.7 C 94 % 13.74 C
30 21-06-2019 02:25:00 14.7 C 94 % 13.74 C
31 21-06-2019 02:30:00 14.8 C 94 % 13.84 C
32 21-06-2019 02:35:00 14.8 C 94 % 13.84 C
33 21-06-2019 02:40:00 14.8 C 95 % 14.01 C
34 21-06-2019 02:45:00 14.9 C 95 % 14.11 C
35 21-06-2019 02:50:00 14.9 C 95 % 14.11 C
36 21-06-2019 02:55:00 15 C 95 % 14.21 C
37 21-06-2019 03:00:00 15 C 95 % 14.21 C
38 21-06-2019 03:05:00 15 C 94 % 14.04 C
39 21-06-2019 03:10:00 15 C 94 % 14.04 C
40 21-06-2019 03:15:00 15 C 94 % 14.04 C
41 21-06-2019 03:20:00 15.1 C 95 % 14.31 C
42 21-06-2019 03:25:00 15.1 C 95 % 14.31 C
43 21-06-2019 03:30:00 15.1 C 94 % 14.14 C
44 21-06-2019 03:35:00 15.1 C 94 % 14.14 C
45 21-06-2019 03:40:00 15.1 C 94 % 14.14 C
46 21-06-2019 03:45:00 15.1 C 94 % 14.14 C
47 21-06-2019 03:50:00 15.1 C 94 % 14.14 C
48 21-06-2019 03:55:00 15.1 C 94 % 14.14 C
49 21-06-2019 04:00:00 15 C 94 % 14.04 C
50 21-06-2019 04:05:00 15 C 95 % 14.21 C
Sensor: Nr:Datum:Temp:Feuchte:Taupunkt:
Aussen-T/F 51 21-06-2019 04:10:00 15.1 C 95 % 14.31 C
52 21-06-2019 04:15:00 15.1 C 94 % 14.14 C
53 21-06-2019 04:20:00 15.1 C 94 % 14.14 C
54 21-06-2019 04:25:00 15 C 94 % 14.04 C
55 21-06-2019 04:30:00 15 C 94 % 14.04 C
56 21-06-2019 04:35:00 14.9 C 94 % 13.94 C
57 21-06-2019 04:40:00 14.8 C 94 % 13.84 C
58 21-06-2019 04:45:00 14.7 C 94 % 13.74 C
59 21-06-2019 04:50:00 14.7 C 94 % 13.74 C
60 21-06-2019 04:55:00 14.6 C 94 % 13.65 C
61 21-06-2019 05:00:00 14.6 C 94 % 13.65 C
62 21-06-2019 05:05:00 14.5 C 94 % 13.55 C
63 21-06-2019 05:10:00 14.4 C 94 % 13.45 C
64 21-06-2019 05:15:00 14.3 C 93 % 13.18 C
65 21-06-2019 05:20:00 14.3 C 94 % 13.35 C
66 21-06-2019 05:25:00 14.3 C 94 % 13.35 C
67 21-06-2019 05:30:00 14.3 C 94 % 13.35 C
68 21-06-2019 05:35:00 14.3 C 94 % 13.35 C
69 21-06-2019 05:40:00 14.3 C 94 % 13.35 C
70 21-06-2019 05:45:00 14.2 C 94 % 13.25 C
71 21-06-2019 05:50:00 14.2 C 94 % 13.25 C
72 21-06-2019 05:55:00 14.2 C 94 % 13.25 C
73 21-06-2019 06:00:00 14.2 C 94 % 13.25 C
74 21-06-2019 06:05:00 14.2 C 94 % 13.25 C
75 21-06-2019 06:10:00 14.2 C 94 % 13.25 C
Sensor: Nr:Datum:Temp:Feuchte:Taupunkt:
Aussen-T/F 76 21-06-2019 06:15:00 14.2 C 94 % 13.25 C
77 21-06-2019 06:20:00 14.2 C 94 % 13.25 C
78 21-06-2019 06:25:00 14.2 C 93 % 13.08 C
79 21-06-2019 06:30:00 14.2 C 93 % 13.08 C
80 21-06-2019 06:35:00 14.1 C 93 % 12.99 C
81 21-06-2019 06:40:00 14.1 C 93 % 12.99 C
82 21-06-2019 06:45:00 14.1 C 93 % 12.99 C
83 21-06-2019 06:50:00 14.2 C 93 % 13.08 C
84 21-06-2019 06:55:00 14.2 C 93 % 13.08 C
85 21-06-2019 07:00:00 14.3 C 93 % 13.18 C
86 21-06-2019 07:05:00 14.4 C 94 % 13.45 C
87 21-06-2019 07:10:00 14.6 C 94 % 13.65 C
88 21-06-2019 07:15:00 14.6 C 93 % 13.48 C
89 21-06-2019 07:20:00 14.7 C 93 % 13.58 C
90 21-06-2019 07:25:00 14.7 C 93 % 13.58 C
91 21-06-2019 07:30:00 14.6 C 92 % 13.32 C
92 21-06-2019 07:35:00 14.6 C 92 % 13.32 C
93 21-06-2019 07:40:00 14.6 C 92 % 13.32 C
94 21-06-2019 07:45:00 14.7 C 92 % 13.41 C
95 21-06-2019 07:50:00 14.9 C 92 % 13.61 C
96 21-06-2019 07:55:00 14.9 C 92 % 13.61 C
97 21-06-2019 08:00:00 15.1 C 90 % 13.47 C
98 21-06-2019 08:05:00 15.2 C 90 % 13.57 C
99 21-06-2019 08:10:00 15.3 C 85 % 12.79 C
100 21-06-2019 08:15:00 15.5 C 82 % 12.44 C
Sensor: Nr:Datum:Temp:Feuchte:Taupunkt:
Aussen-T/F 101 21-06-2019 08:20:00 15.8 C 79 % 12.17 C
102 21-06-2019 08:25:00 16 C 78 % 12.17 C
103 21-06-2019 08:30:00 16.2 C 77 % 12.17 C
104 21-06-2019 08:35:00 16.3 C 76 % 12.07 C
105 21-06-2019 08:40:00 16.3 C 74 % 11.66 C
106 21-06-2019 08:45:00 16.3 C 74 % 11.66 C
107 21-06-2019 08:50:00 16.3 C 73 % 11.46 C
108 21-06-2019 08:55:00 16.3 C 75 % 11.86 C
109 21-06-2019 09:00:00 16.3 C 74 % 11.66 C
110 21-06-2019 09:05:00 16.3 C 74 % 11.66 C
111 21-06-2019 09:10:00 16.4 C 75 % 11.96 C
112 21-06-2019 09:15:00 16.5 C 74 % 11.85 C
113 21-06-2019 09:20:00 16.6 C 74 % 11.95 C
114 21-06-2019 09:25:00 16.7 C 74 % 12.05 C
115 21-06-2019 09:30:00 16.7 C 74 % 12.05 C
116 21-06-2019 09:35:00 16.8 C 72 % 11.73 C
117 21-06-2019 09:40:00 16.9 C 72 % 11.82 C
118 21-06-2019 09:45:00 17 C 72 % 11.92 C
119 21-06-2019 09:50:00 17.1 C 72 % 12.02 C
120 21-06-2019 09:55:00 17.1 C 72 % 12.02 C
121 21-06-2019 10:00:00 17.2 C 73 % 12.32 C
122 21-06-2019 10:05:00 17.3 C 70 % 11.78 C
123 21-06-2019 10:10:00 17.4 C 69 % 11.66 C
124 21-06-2019 10:15:00 17.7 C 68 % 11.72 C
125 21-06-2019 10:20:00 17.9 C 68 % 11.91 C
Sensor: Nr:Datum:Temp:Feuchte:Taupunkt:
Aussen-T/F 126 21-06-2019 10:25:00 18.1 C 68 % 12.11 C
127 21-06-2019 10:30:00 18.4 C 66 % 11.94 C
128 21-06-2019 10:35:00 18.7 C 66 % 12.22 C
129 21-06-2019 10:40:00 19 C 63 % 11.8 C
130 21-06-2019 10:45:00 19.1 C 64 % 12.14 C
131 21-06-2019 10:50:00 19.3 C 62 % 11.84 C
132 21-06-2019 10:55:00 19.3 C 61 % 11.6 C
133 21-06-2019 11:00:00 19.2 C 63 % 11.99 C
134 21-06-2019 11:05:00 19.3 C 61 % 11.6 C
135 21-06-2019 11:10:00 19.4 C 65 % 12.66 C
136 21-06-2019 11:15:00 19.4 C 61 % 11.69 C
137 21-06-2019 11:20:00 19.4 C 60 % 11.44 C
138 21-06-2019 11:25:00 19.3 C 62 % 11.84 C
139 21-06-2019 11:30:00 19.2 C 61 % 11.5 C
140 21-06-2019 11:35:00 19.4 C 61 % 11.69 C
141 21-06-2019 11:40:00 19.6 C 60 % 11.63 C
142 21-06-2019 11:45:00 19.8 C 59 % 11.56 C
143 21-06-2019 11:50:00 19.7 C 60 % 11.72 C
144 21-06-2019 11:55:00 19.7 C 59 % 11.47 C
145 21-06-2019 12:00:00 19.7 C 63 % 12.46 C
146 21-06-2019 12:05:00 19.8 C 62 % 12.31 C
147 21-06-2019 12:10:00 19.9 C 58 % 11.4 C
148 21-06-2019 12:15:00 20.2 C 58 % 11.68 C
149 21-06-2019 12:20:00 20.2 C 56 % 11.15 C
150 21-06-2019 12:25:00 20.2 C 57 % 11.42 C
Sensor: Nr:Datum:Temp:Feuchte:Taupunkt:
Aussen-T/F 151 21-06-2019 12:30:00 20 C 58 % 11.49 C
152 21-06-2019 12:35:00 19.9 C 58 % 11.4 C
153 21-06-2019 12:40:00 20.1 C 58 % 11.58 C
154 21-06-2019 12:45:00 20.2 C 58 % 11.68 C
155 21-06-2019 12:50:00 20.4 C 57 % 11.6 C
156 21-06-2019 12:55:00 20.7 C 56 % 11.61 C
157 21-06-2019 13:00:00 21.1 C 54 % 11.44 C
158 21-06-2019 13:05:00 21.3 C 53 % 11.34 C
159 21-06-2019 13:10:00 21.2 C 54 % 11.53 C
160 21-06-2019 13:15:00 21 C 54 % 11.34 C
161 21-06-2019 13:20:00 21 C 53 % 11.06 C
162 21-06-2019 13:25:00 21.1 C 52 % 10.87 C
163 21-06-2019 13:30:00 21.1 C 55 % 11.71 C
164 21-06-2019 13:35:00 21.2 C 52 % 10.96 C
165 21-06-2019 13:40:00 21.3 C 53 % 11.34 C
166 21-06-2019 13:45:00 21.5 C 52 % 11.24 C
167 21-06-2019 13:50:00 21.8 C 50 % 10.92 C
168 21-06-2019 13:55:00 22 C 50 % 11.11 C
169 21-06-2019 14:00:00 22.1 C 48 % 10.58 C
170 21-06-2019 14:05:00 21.9 C 48 % 10.4 C
171 21-06-2019 14:10:00 21.9 C 48 % 10.4 C
172 21-06-2019 14:15:00 21.8 C 48 % 10.31 C
173 21-06-2019 14:20:00 21.8 C 49 % 10.62 C
174 21-06-2019 14:25:00 21.8 C 49 % 10.62 C
175 21-06-2019 14:30:00 21.8 C 45 % 9.35 C
Sensor: Nr:Datum:Temp:Feuchte:Taupunkt:
Aussen-T/F 176 21-06-2019 14:35:00 21.9 C 45 % 9.44 C
177 21-06-2019 14:40:00 22.1 C 46 % 9.95 C
178 21-06-2019 14:45:00 22.4 C 47 % 10.54 C
179 21-06-2019 14:50:00 22.5 C 48 % 10.95 C
180 21-06-2019 14:55:00 22.4 C 48 % 10.86 C
181 21-06-2019 15:00:00 22.3 C 47 % 10.45 C
182 21-06-2019 15:05:00 22.2 C 47 % 10.36 C
183 21-06-2019 15:10:00 22.1 C 48 % 10.58 C
184 21-06-2019 15:15:00 22.2 C 47 % 10.36 C
185 21-06-2019 15:20:00 22.2 C 48 % 10.67 C
186 21-06-2019 15:25:00 22.6 C 46 % 10.4 C
187 21-06-2019 15:30:00 22.9 C 47 % 11 C
188 21-06-2019 15:35:00 22.8 C 45 % 10.25 C
189 21-06-2019 15:40:00 22.8 C 44 % 9.92 C
190 21-06-2019 15:45:00 22.8 C 44 % 9.92 C
191 21-06-2019 15:50:00 22.9 C 46 % 10.67 C
192 21-06-2019 15:55:00 23.4 C 46 % 11.13 C
193 21-06-2019 16:00:00 23.8 C 43 % 10.48 C
194 21-06-2019 16:05:00 23.9 C 40 % 9.49 C
195 21-06-2019 16:10:00 23.7 C 41 % 9.68 C
196 21-06-2019 16:15:00 23.6 C 44 % 10.64 C
197 21-06-2019 16:20:00 23.7 C 41 % 9.68 C
198 21-06-2019 16:25:00 23.5 C 43 % 10.21 C
199 21-06-2019 16:30:00 23.2 C 47 % 11.27 C
200 21-06-2019 16:35:00 23.2 C 46 % 10.95 C
Sensor: Nr:Datum:Temp:Feuchte:Taupunkt:
Aussen-T/F 201 21-06-2019 16:40:00 23.4 C 45 % 10.8 C
202 21-06-2019 16:45:00 23.8 C 44 % 10.82 C
203 21-06-2019 16:50:00 23.8 C 43 % 10.48 C
204 21-06-2019 16:55:00 24.1 C 42 % 10.39 C
205 21-06-2019 17:00:00 24.5 C 43 % 11.11 C
206 21-06-2019 17:05:00 24.7 C 43 % 11.29 C
207 21-06-2019 17:10:00 25.1 C 41 % 10.93 C
208 21-06-2019 17:15:00 25.1 C 38 % 9.79 C
209 21-06-2019 17:20:00 25.1 C 40 % 10.56 C
210 21-06-2019 17:25:00 25 C 40 % 10.47 C
211 21-06-2019 17:30:00 25.1 C 39 % 10.18 C
212 21-06-2019 17:35:00 25 C 39 % 10.09 C
213 21-06-2019 17:40:00 25.3 C 39 % 10.36 C
214 21-06-2019 17:45:00 25.4 C 38 % 10.06 C
215 21-06-2019 17:50:00 25.6 C 37 % 9.84 C
216 21-06-2019 17:55:00 25.6 C 37 % 9.84 C
217 21-06-2019 18:00:00 25.7 C 38 % 10.32 C
218 21-06-2019 18:05:00 25.8 C 38 % 10.41 C
219 21-06-2019 18:10:00 25.7 C 37 % 9.92 C
220 21-06-2019 18:15:00 25.6 C 38 % 10.23 C
221 21-06-2019 18:20:00 25.4 C 39 % 10.45 C
222 21-06-2019 18:25:00 25.1 C 40 % 10.56 C
223 21-06-2019 18:30:00 24.8 C 40 % 10.29 C
224 21-06-2019 18:35:00 24.7 C 40 % 10.2 C
225 21-06-2019 18:40:00 24.5 C 40 % 10.02 C
Sensor: Nr:Datum:Temp:Feuchte:Taupunkt:
Aussen-T/F 226 21-06-2019 18:45:00 24.3 C 41 % 10.21 C
227 21-06-2019 18:50:00 24.1 C 41 % 10.03 C
228 21-06-2019 18:55:00 23.8 C 42 % 10.12 C
229 21-06-2019 19:00:00 23.8 C 42 % 10.12 C
230 21-06-2019 19:05:00 24.1 C 42 % 10.39 C
231 21-06-2019 19:10:00 24.2 C 41 % 10.12 C
232 21-06-2019 19:15:00 24.2 C 41 % 10.12 C
233 21-06-2019 19:20:00 24 C 43 % 10.66 C
234 21-06-2019 19:25:00 23.8 C 42 % 10.12 C
235 21-06-2019 19:30:00 23.7 C 42 % 10.03 C
236 21-06-2019 19:35:00 23.4 C 43 % 10.12 C
237 21-06-2019 19:40:00 23.3 C 45 % 10.71 C
238 21-06-2019 19:45:00 23.2 C 44 % 10.28 C
239 21-06-2019 19:50:00 23.1 C 44 % 10.19 C
240 21-06-2019 19:55:00 22.8 C 45 % 10.25 C
241 21-06-2019 20:00:00 22.8 C 45 % 10.25 C
242 21-06-2019 20:05:00 22.7 C 45 % 10.16 C
243 21-06-2019 20:10:00 22.6 C 45 % 10.07 C
244 21-06-2019 20:15:00 22.4 C 46 % 10.22 C
245 21-06-2019 20:20:00 22.5 C 47 % 10.63 C
246 21-06-2019 20:25:00 22.4 C 46 % 10.22 C
247 21-06-2019 20:30:00 22.3 C 46 % 10.13 C
248 21-06-2019 20:35:00 22.1 C 46 % 9.95 C
249 21-06-2019 20:40:00 21.9 C 49 % 10.71 C
250 21-06-2019 20:45:00 21.7 C 48 % 10.22 C
Sensor: Nr:Datum:Temp:Feuchte:Taupunkt:
Aussen-T/F 251 21-06-2019 20:50:00 21.5 C 52 % 11.24 C
252 21-06-2019 20:55:00 20.9 C 51 % 10.39 C
253 21-06-2019 21:00:00 20.4 C 53 % 10.51 C
254 21-06-2019 21:05:00 20.2 C 53 % 10.32 C
255 21-06-2019 21:10:00 20.1 C 53 % 10.23 C
256 21-06-2019 21:15:00 20 C 53 % 10.14 C
257 21-06-2019 21:20:00 19.9 C 54 % 10.32 C
258 21-06-2019 21:25:00 19.8 C 57 % 11.04 C
259 21-06-2019 21:30:00 19.6 C 58 % 11.12 C
260 21-06-2019 21:35:00 19.2 C 60 % 11.25 C
261 21-06-2019 21:40:00 18.8 C 59 % 10.63 C
262 21-06-2019 21:45:00 18.5 C 61 % 10.84 C
263 21-06-2019 21:50:00 18.2 C 62 % 10.81 C
264 21-06-2019 21:55:00 17.8 C 63 % 10.67 C
265 21-06-2019 22:00:00 17.6 C 64 % 10.72 C
266 21-06-2019 22:05:00 17.3 C 64 % 10.43 C
267 21-06-2019 22:10:00 17.1 C 65 % 10.47 C
268 21-06-2019 22:15:00 16.9 C 65 % 10.28 C
269 21-06-2019 22:20:00 16.8 C 66 % 10.42 C
270 21-06-2019 22:25:00 16.7 C 66 % 10.32 C
271 21-06-2019 22:30:00 16.5 C 67 % 10.36 C
272 21-06-2019 22:35:00 16.3 C 67 % 10.17 C
273 21-06-2019 22:40:00 16.2 C 68 % 10.29 C
274 21-06-2019 22:45:00 16.1 C 68 % 10.2 C
275 21-06-2019 22:50:00 15.9 C 68 % 10.01 C
Sensor: Nr:Datum:Temp:Feuchte:Taupunkt:
Aussen-T/F 276 21-06-2019 22:55:00 15.8 C 69 % 10.13 C
277 21-06-2019 23:00:00 15.8 C 70 % 10.34 C
278 21-06-2019 23:05:00 15.7 C 70 % 10.25 C
279 21-06-2019 23:10:00 15.6 C 71 % 10.37 C
280 21-06-2019 23:15:00 15.5 C 72 % 10.48 C
281 21-06-2019 23:20:00 15.4 C 72 % 10.38 C
282 21-06-2019 23:25:00 15.3 C 72 % 10.29 C
283 21-06-2019 23:30:00 15.2 C 73 % 10.4 C
284 21-06-2019 23:35:00 15.1 C 73 % 10.3 C
285 21-06-2019 23:40:00 14.9 C 73 % 10.11 C
286 21-06-2019 23:45:00 14.9 C 74 % 10.31 C
287 21-06-2019 23:50:00 14.8 C 75 % 10.42 C
288 21-06-2019 23:55:00 14.6 C 75 % 10.22 C
289 22-06-2019 00:00:00 14.4 C 76 % 10.23 C
290 22-06-2019 00:05:00 14.3 C 77 % 10.33 C
291 22-06-2019 00:10:00 14.2 C 78 % 10.42 C
292 22-06-2019 00:15:00 14 C 78 % 10.23 C
293 22-06-2019 00:20:00 13.8 C 79 % 10.22 C
294 22-06-2019 00:25:00 13.7 C 79 % 10.13 C
295 22-06-2019 00:30:00 13.6 C 79 % 10.03 C
296 22-06-2019 00:35:00 13.5 C 80 % 10.12 C
297 22-06-2019 00:40:00 13.4 C 80 % 10.02 C
298 22-06-2019 00:45:00 13.3 C 80 % 9.93 C
299 22-06-2019 00:50:00 13.2 C 81 % 10.01 C
300 22-06-2019 00:55:00 13.2 C 81 % 10.01 C
Sensor: Nr:Datum:Temp:Feuchte:Taupunkt:
Aussen-T/F 301 22-06-2019 01:00:00 13.1 C 82 % 10.1 C
302 22-06-2019 01:05:00 13.1 C 82 % 10.1 C
303 22-06-2019 01:10:00 13.1 C 82 % 10.1 C
304 22-06-2019 01:15:00 13.1 C 82 % 10.1 C
305 22-06-2019 01:20:00 13.1 C 82 % 10.1 C
306 22-06-2019 01:25:00 13.1 C 82 % 10.1 C
307 22-06-2019 01:30:00 13.1 C 82 % 10.1 C
308 22-06-2019 01:35:00 13.1 C 82 % 10.1 C
309 22-06-2019 01:40:00 13 C 82 % 10 C
310 22-06-2019 01:45:00 12.9 C 83 % 10.09 C
311 22-06-2019 01:50:00 12.8 C 83 % 9.99 C
312 22-06-2019 01:55:00 12.7 C 83 % 9.89 C
313 22-06-2019 02:00:00 12.6 C 84 % 9.97 C
314 22-06-2019 02:05:00 12.4 C 84 % 9.78 C
315 22-06-2019 02:10:00 12.3 C 85 % 9.85 C
316 22-06-2019 02:15:00 12.3 C 85 % 9.85 C
317 22-06-2019 02:20:00 12.2 C 85 % 9.76 C
318 22-06-2019 02:25:00 12.2 C 86 % 9.93 C
319 22-06-2019 02:30:00 12.1 C 86 % 9.83 C
320 22-06-2019 02:35:00 12 C 86 % 9.73 C
321 22-06-2019 02:40:00 11.9 C 86 % 9.64 C
322 22-06-2019 02:45:00 11.8 C 87 % 9.71 C
323 22-06-2019 02:50:00 11.8 C 87 % 9.71 C
324 22-06-2019 02:55:00 11.7 C 87 % 9.61 C
325 22-06-2019 03:00:00 11.7 C 88 % 9.78 C
Sensor: Nr:Datum:Temp:Feuchte:Taupunkt:
Aussen-T/F 326 22-06-2019 03:05:00 11.7 C 88 % 9.78 C
327 22-06-2019 03:10:00 11.6 C 88 % 9.68 C
328 22-06-2019 03:15:00 11.6 C 88 % 9.68 C
329 22-06-2019 03:20:00 11.6 C 88 % 9.68 C
330 22-06-2019 03:25:00 11.5 C 88 % 9.58 C
331 22-06-2019 03:30:00 11.4 C 89 % 9.65 C
332 22-06-2019 03:35:00 11.4 C 89 % 9.65 C
333 22-06-2019 03:40:00 11.4 C 89 % 9.65 C
334 22-06-2019 03:45:00 11.4 C 89 % 9.65 C
335 22-06-2019 03:50:00 11.4 C 89 % 9.65 C
336 22-06-2019 03:55:00 11.3 C 89 % 9.55 C
337 22-06-2019 04:00:00 11.3 C 90 % 9.72 C
338 22-06-2019 04:05:00 11.3 C 90 % 9.72 C
339 22-06-2019 04:10:00 11.3 C 90 % 9.72 C
340 22-06-2019 04:15:00 11.2 C 90 % 9.62 C
341 22-06-2019 04:20:00 11.1 C 90 % 9.52 C
342 22-06-2019 04:25:00 11.1 C 90 % 9.52 C
343 22-06-2019 04:30:00 11 C 90 % 9.42 C
344 22-06-2019 04:35:00 11 C 91 % 9.59 C
345 22-06-2019 04:40:00 10.9 C 91 % 9.49 C
346 22-06-2019 04:45:00 10.9 C 91 % 9.49 C
347 22-06-2019 04:50:00 10.8 C 91 % 9.39 C
348 22-06-2019 04:55:00 10.8 C 91 % 9.39 C
349 22-06-2019 05:00:00 10.8 C 91 % 9.39 C
350 22-06-2019 05:05:00 10.8 C 91 % 9.39 C
Sensor: Nr:Datum:Temp:Feuchte:Taupunkt:
Aussen-T/F 351 22-06-2019 05:10:00 10.7 C 91 % 9.29 C
352 22-06-2019 05:15:00 10.7 C 92 % 9.45 C
353 22-06-2019 05:20:00 10.7 C 92 % 9.45 C
354 22-06-2019 05:25:00 10.7 C 92 % 9.45 C
355 22-06-2019 05:30:00 10.7 C 92 % 9.45 C
356 22-06-2019 05:35:00 10.7 C 92 % 9.45 C
357 22-06-2019 05:40:00 10.6 C 92 % 9.36 C
358 22-06-2019 05:45:00 10.6 C 92 % 9.36 C
359 22-06-2019 05:50:00 10.5 C 92 % 9.26 C
360 22-06-2019 05:55:00 10.6 C 92 % 9.36 C
361 22-06-2019 06:00:00 10.6 C 92 % 9.36 C
362 22-06-2019 06:05:00 10.6 C 93 % 9.52 C
363 22-06-2019 06:10:00 10.6 C 93 % 9.52 C
364 22-06-2019 06:15:00 10.6 C 93 % 9.52 C
365 22-06-2019 06:20:00 10.7 C 93 % 9.62 C
366 22-06-2019 06:25:00 10.7 C 93 % 9.62 C
367 22-06-2019 06:30:00 10.7 C 93 % 9.62 C
368 22-06-2019 06:35:00 10.7 C 93 % 9.62 C
369 22-06-2019 06:40:00 10.8 C 93 % 9.71 C
370 22-06-2019 06:45:00 10.8 C 93 % 9.71 C
371 22-06-2019 06:50:00 10.8 C 93 % 9.71 C
372 22-06-2019 06:55:00 10.9 C 94 % 9.97 C
373 22-06-2019 07:00:00 11 C 94 % 10.07 C
374 22-06-2019 07:05:00 11.1 C 94 % 10.17 C
375 22-06-2019 07:10:00 11.2 C 94 % 10.27 C
Sensor: Nr:Datum:Temp:Feuchte:Taupunkt:
Aussen-T/F 376 22-06-2019 07:15:00 11.4 C 94 % 10.47 C
377 22-06-2019 07:20:00 11.6 C 94 % 10.67 C
378 22-06-2019 07:25:00 11.7 C 94 % 10.77 C
379 22-06-2019 07:30:00 11.8 C 95 % 11.03 C
380 22-06-2019 07:35:00 12 C 94 % 11.07 C
381 22-06-2019 07:40:00 12.2 C 95 % 11.42 C
382 22-06-2019 07:45:00 12.3 C 94 % 11.36 C
383 22-06-2019 07:50:00 12.6 C 95 % 11.82 C
384 22-06-2019 07:55:00 12.8 C 95 % 12.02 C
385 22-06-2019 08:00:00 12.9 C 94 % 11.96 C
386 22-06-2019 08:05:00 13 C 93 % 11.9 C
387 22-06-2019 08:10:00 13.2 C 93 % 12.09 C
388 22-06-2019 08:15:00 13.4 C 92 % 12.13 C
389 22-06-2019 08:20:00 13.7 C 92 % 12.42 C
390 22-06-2019 08:25:00 13.8 C 91 % 12.36 C
391 22-06-2019 08:30:00 13.9 C 90 % 12.29 C
392 22-06-2019 08:35:00 14.2 C 89 % 12.41 C
393 22-06-2019 08:40:00 14.3 C 90 % 12.68 C
394 22-06-2019 08:45:00 14.4 C 88 % 12.44 C
395 22-06-2019 08:50:00 14.6 C 88 % 12.64 C
396 22-06-2019 08:55:00 14.7 C 87 % 12.56 C
397 22-06-2019 09:00:00 14.9 C 87 % 12.76 C
398 22-06-2019 09:05:00 15.1 C 86 % 12.78 C
399 22-06-2019 09:10:00 15.3 C 84 % 12.61 C
400 22-06-2019 09:15:00 15.6 C 85 % 13.09 C
Sensor: Nr:Datum:Temp:Feuchte:Taupunkt:
Aussen-T/F 401 22-06-2019 09:20:00 15.8 C 81 % 12.55 C
402 22-06-2019 09:25:00 16.2 C 79 % 12.56 C
403 22-06-2019 09:30:00 16.4 C 77 % 12.36 C
404 22-06-2019 09:35:00 16.6 C 77 % 12.55 C
405 22-06-2019 09:40:00 16.9 C 78 % 13.04 C
406 22-06-2019 09:45:00 17.2 C 76 % 12.94 C
407 22-06-2019 09:50:00 17.5 C 75 % 13.02 C
408 22-06-2019 09:55:00 17.8 C 73 % 12.9 C
409 22-06-2019 10:00:00 18.1 C 72 % 12.98 C
410 22-06-2019 10:05:00 18.4 C 69 % 12.61 C
411 22-06-2019 10:10:00 18.7 C 69 % 12.9 C
412 22-06-2019 10:15:00 18.9 C 68 % 12.87 C
413 22-06-2019 10:20:00 19.2 C 68 % 13.15 C
414 22-06-2019 10:25:00 19.4 C 67 % 13.12 C
415 22-06-2019 10:30:00 19.7 C 68 % 13.63 C
416 22-06-2019 10:35:00 20 C 67 % 13.69 C
417 22-06-2019 10:40:00 20.2 C 65 % 13.41 C
418 22-06-2019 10:45:00 20.3 C 65 % 13.51 C
419 22-06-2019 10:50:00 20.4 C 64 % 13.37 C
420 22-06-2019 10:55:00 20.4 C 64 % 13.37 C
421 22-06-2019 11:00:00 20.6 C 64 % 13.55 C
422 22-06-2019 11:05:00 20.8 C 63 % 13.5 C
423 22-06-2019 11:10:00 20.9 C 63 % 13.6 C
424 22-06-2019 11:15:00 20.9 C 63 % 13.6 C
425 22-06-2019 11:20:00 21.1 C 62 % 13.54 C
Sensor: Nr:Datum:Temp:Feuchte:Taupunkt:
Aussen-T/F 426 22-06-2019 11:25:00 21.2 C 62 % 13.63 C
427 22-06-2019 11:30:00 21.2 C 62 % 13.63 C
428 22-06-2019 11:35:00 21.3 C 61 % 13.48 C
429 22-06-2019 11:40:00 21.4 C 62 % 13.82 C
430 22-06-2019 11:45:00 21.6 C 61 % 13.76 C
431 22-06-2019 11:50:00 21.8 C 61 % 13.95 C
432 22-06-2019 11:55:00 21.8 C 62 % 14.2 C
433 22-06-2019 12:00:00 22 C 61 % 14.14 C
434 22-06-2019 12:05:00 22.1 C 61 % 14.23 C
435 22-06-2019 12:10:00 22.3 C 60 % 14.16 C
436 22-06-2019 12:15:00 22.4 C 60 % 14.26 C
437 22-06-2019 12:20:00 22.5 C 60 % 14.35 C
438 22-06-2019 12:25:00 22.6 C 60 % 14.44 C
439 22-06-2019 12:30:00 22.6 C 60 % 14.44 C
440 22-06-2019 12:35:00 22.8 C 59 % 14.37 C
441 22-06-2019 12:40:00 22.9 C 59 % 14.47 C
442 22-06-2019 12:45:00 23.1 C 59 % 14.65 C
443 22-06-2019 12:50:00 23.3 C 59 % 14.84 C
444 22-06-2019 12:55:00 23.4 C 57 % 14.4 C
445 22-06-2019 13:00:00 23.5 C 58 % 14.76 C
446 22-06-2019 13:05:00 23.7 C 57 % 14.68 C
447 22-06-2019 13:10:00 23.7 C 58 % 14.95 C
448 22-06-2019 13:15:00 23.9 C 56 % 14.59 C
449 22-06-2019 13:20:00 24.1 C 57 % 15.05 C
450 22-06-2019 13:25:00 24.3 C 55 % 14.68 C
Sensor: Nr:Datum:Temp:Feuchte:Taupunkt:
Aussen-T/F 451 22-06-2019 13:30:00 24.3 C 55 % 14.68 C
452 22-06-2019 13:35:00 24.3 C 54 % 14.4 C
453 22-06-2019 13:40:00 24.4 C 55 % 14.78 C
454 22-06-2019 13:45:00 24.6 C 54 % 14.68 C
455 22-06-2019 13:50:00 24.7 C 54 % 14.77 C
456 22-06-2019 13:55:00 24.6 C 55 % 14.96 C
457 22-06-2019 14:00:00 24.6 C 54 % 14.68 C
458 22-06-2019 14:05:00 24.7 C 56 % 15.33 C
459 22-06-2019 14:10:00 24.9 C 54 % 14.95 C
460 22-06-2019 14:15:00 25.1 C 54 % 15.14 C
461 22-06-2019 14:20:00 25.1 C 53 % 14.85 C
462 22-06-2019 14:25:00 25.1 C 54 % 15.14 C
463 22-06-2019 14:30:00 25.2 C 53 % 14.94 C
464 22-06-2019 14:35:00 25.1 C 54 % 15.14 C
465 22-06-2019 14:40:00 25.1 C 54 % 15.14 C
466 22-06-2019 14:45:00 25.1 C 53 % 14.85 C
467 22-06-2019 14:50:00 25.1 C 54 % 15.14 C
468 22-06-2019 14:55:00 25.2 C 54 % 15.23 C
469 22-06-2019 15:00:00 25.3 C 52 % 14.74 C
470 22-06-2019 15:05:00 25.3 C 52 % 14.74 C
471 22-06-2019 15:10:00 25.3 C 51 % 14.44 C
472 22-06-2019 15:15:00 25.3 C 52 % 14.74 C
473 22-06-2019 15:20:00 25.6 C 49 % 14.1 C
474 22-06-2019 15:25:00 25.8 C 49 % 14.28 C
475 22-06-2019 15:30:00 25.8 C 47 % 13.64 C
Sensor: Nr:Datum:Temp:Feuchte:Taupunkt:
Aussen-T/F 476 22-06-2019 15:35:00 25.7 C 50 % 14.5 C
477 22-06-2019 15:40:00 25.7 C 50 % 14.5 C
478 22-06-2019 15:45:00 25.7 C 50 % 14.5 C
479 22-06-2019 15:50:00 25.8 C 48 % 13.96 C
480 22-06-2019 15:55:00 25.8 C 49 % 14.28 C
481 22-06-2019 16:00:00 25.8 C 46 % 13.31 C
482 22-06-2019 16:05:00 25.9 C 47 % 13.73 C
483 22-06-2019 16:10:00 26.1 C 48 % 14.23 C
484 22-06-2019 16:15:00 26.3 C 50 % 15.05 C
485 22-06-2019 16:20:00 26.6 C 47 % 14.36 C
486 22-06-2019 16:25:00 26.7 C 45 % 13.78 C
487 22-06-2019 16:30:00 26.8 C 47 % 14.55 C
488 22-06-2019 16:35:00 26.8 C 46 % 14.21 C
489 22-06-2019 16:40:00 26.8 C 47 % 14.55 C
490 22-06-2019 16:45:00 26.8 C 47 % 14.55 C
491 22-06-2019 16:50:00 26.8 C 49 % 15.19 C
492 22-06-2019 16:55:00 26.7 C 47 % 14.45 C
493 22-06-2019 17:00:00 26.6 C 47 % 14.36 C
494 22-06-2019 17:05:00 26.4 C 48 % 14.51 C
495 22-06-2019 17:10:00 26.3 C 48 % 14.42 C
496 22-06-2019 17:15:00 26.1 C 48 % 14.23 C
497 22-06-2019 17:20:00 25.9 C 49 % 14.37 C
498 22-06-2019 17:25:00 25.8 C 50 % 14.59 C
499 22-06-2019 17:30:00 25.9 C 50 % 14.68 C
500 22-06-2019 17:35:00 26 C 53 % 15.68 C
Sensor: Nr:Datum:Temp:Feuchte:Taupunkt:
Aussen-T/F 501 22-06-2019 17:40:00 26.1 C 49 % 14.55 C
502 22-06-2019 17:45:00 26.3 C 49 % 14.74 C
503 22-06-2019 17:50:00 26.7 C 47 % 14.45 C
504 22-06-2019 17:55:00 27.1 C 46 % 14.49 C
505 22-06-2019 18:00:00 27.2 C 46 % 14.58 C
506 22-06-2019 18:05:00 27.4 C 45 % 14.42 C
507 22-06-2019 18:10:00 27.4 C 45 % 14.42 C
508 22-06-2019 18:15:00 27.3 C 45 % 14.33 C
509 22-06-2019 18:20:00 27.4 C 42 % 13.35 C
510 22-06-2019 18:25:00 27.6 C 42 % 13.53 C
511 22-06-2019 18:30:00 27.7 C 42 % 13.62 C
512 22-06-2019 18:35:00 27.7 C 43 % 13.99 C
513 22-06-2019 18:40:00 27.7 C 43 % 13.99 C
514 22-06-2019 18:45:00 27.4 C 43 % 13.72 C
515 22-06-2019 18:50:00 27.3 C 43 % 13.63 C
516 22-06-2019 18:55:00 27.3 C 43 % 13.63 C
517 22-06-2019 19:00:00 27.4 C 43 % 13.72 C
518 22-06-2019 19:05:00 27.6 C 43 % 13.9 C
519 22-06-2019 19:10:00 27.4 C 44 % 14.07 C
520 22-06-2019 19:15:00 27.4 C 44 % 14.07 C
521 22-06-2019 19:20:00 27.6 C 44 % 14.25 C
522 22-06-2019 19:25:00 27.6 C 43 % 13.9 C
523 22-06-2019 19:30:00 27.6 C 44 % 14.25 C
524 22-06-2019 19:35:00 27.6 C 44 % 14.25 C
525 22-06-2019 19:40:00 27.6 C 45 % 14.6 C
Sensor: Nr:Datum:Temp:Feuchte:Taupunkt:
Aussen-T/F 526 22-06-2019 19:45:00 27.6 C 43 % 13.9 C
527 22-06-2019 19:50:00 27.5 C 44 % 14.16 C
528 22-06-2019 19:55:00 27.5 C 44 % 14.16 C
529 22-06-2019 20:00:00 27.4 C 45 % 14.42 C
530 22-06-2019 20:05:00 27.3 C 45 % 14.33 C
531 22-06-2019 20:10:00 27.2 C 45 % 14.24 C
532 22-06-2019 20:15:00 27.2 C 46 % 14.58 C
533 22-06-2019 20:20:00 27.2 C 47 % 14.91 C
534 22-06-2019 20:25:00 27.1 C 47 % 14.82 C
535 22-06-2019 20:30:00 26.9 C 48 % 14.96 C
536 22-06-2019 20:35:00 26.9 C 48 % 14.96 C
537 22-06-2019 20:40:00 26.8 C 49 % 15.19 C
538 22-06-2019 20:45:00 26.7 C 52 % 16.03 C
539 22-06-2019 20:50:00 26.6 C 52 % 15.94 C
540 22-06-2019 20:55:00 26.1 C 54 % 16.07 C
541 22-06-2019 21:00:00 25.4 C 55 % 15.7 C
542 22-06-2019 21:05:00 24.9 C 57 % 15.8 C
543 22-06-2019 21:10:00 24.5 C 59 % 15.96 C
544 22-06-2019 21:15:00 24.2 C 60 % 15.95 C
545 22-06-2019 21:20:00 23.9 C 63 % 16.43 C
546 22-06-2019 21:25:00 23.7 C 62 % 15.99 C
547 22-06-2019 21:30:00 23.4 C 63 % 15.96 C
548 22-06-2019 21:35:00 23.1 C 63 % 15.67 C
549 22-06-2019 21:40:00 22.7 C 65 % 15.78 C
550 22-06-2019 21:45:00 22.4 C 66 % 15.74 C
Sensor: Nr:Datum:Temp:Feuchte:Taupunkt:
Aussen-T/F 551 22-06-2019 21:50:00 22.2 C 67 % 15.78 C
552 22-06-2019 21:55:00 21.9 C 68 % 15.73 C
553 22-06-2019 22:00:00 21.6 C 69 % 15.67 C
554 22-06-2019 22:05:00 21.4 C 70 % 15.7 C
555 22-06-2019 22:10:00 21.1 C 70 % 15.42 C
556 22-06-2019 22:15:00 20.8 C 71 % 15.35 C
557 22-06-2019 22:20:00 20.5 C 72 % 15.28 C
558 22-06-2019 22:25:00 20.2 C 73 % 15.21 C
559 22-06-2019 22:30:00 20 C 74 % 15.23 C
560 22-06-2019 22:35:00 19.8 C 74 % 15.03 C
561 22-06-2019 22:40:00 19.7 C 75 % 15.15 C
562 22-06-2019 22:45:00 19.6 C 76 % 15.26 C
563 22-06-2019 22:50:00 19.5 C 76 % 15.16 C
564 22-06-2019 22:55:00 19.4 C 77 % 15.27 C
565 22-06-2019 23:00:00 19.3 C 77 % 15.17 C
566 22-06-2019 23:05:00 19.2 C 77 % 15.07 C
567 22-06-2019 23:10:00 19.1 C 78 % 15.18 C
568 22-06-2019 23:15:00 18.9 C 78 % 14.98 C
569 22-06-2019 23:20:00 18.7 C 79 % 14.99 C
570 22-06-2019 23:25:00 18.6 C 80 % 15.08 C
571 22-06-2019 23:30:00 18.5 C 80 % 14.99 C
572 22-06-2019 23:35:00 18.4 C 80 % 14.89 C
573 22-06-2019 23:40:00 18.3 C 80 % 14.79 C
574 22-06-2019 23:45:00 18.3 C 81 % 14.98 C
575 22-06-2019 23:50:00 18.2 C 81 % 14.89 C
Sensor: Nr:Datum:Temp:Feuchte:Taupunkt:
Aussen-T/F 576 22-06-2019 23:55:00 18.1 C 81 % 14.79 C
577 23-06-2019 00:00:00 18.1 C 82 % 14.98 C
578 23-06-2019 00:05:00 17.9 C 82 % 14.78 C
579 23-06-2019 00:10:00 17.8 C 82 % 14.69 C
580 23-06-2019 00:15:00 17.7 C 82 % 14.59 C
581 23-06-2019 00:20:00 17.6 C 83 % 14.68 C
582 23-06-2019 00:25:00 17.4 C 83 % 14.48 C
583 23-06-2019 00:30:00 17.3 C 84 % 14.57 C
584 23-06-2019 00:35:00 17.2 C 84 % 14.47 C
585 23-06-2019 00:40:00 17.1 C 84 % 14.38 C
586 23-06-2019 00:45:00 17 C 85 % 14.46 C
587 23-06-2019 00:50:00 16.9 C 85 % 14.36 C
588 23-06-2019 00:55:00 16.8 C 86 % 14.45 C
589 23-06-2019 01:00:00 16.7 C 86 % 14.35 C
590 23-06-2019 01:05:00 16.7 C 86 % 14.35 C
591 23-06-2019 01:10:00 16.6 C 86 % 14.25 C
592 23-06-2019 01:15:00 16.5 C 86 % 14.15 C
593 23-06-2019 01:20:00 16.4 C 87 % 14.23 C
594 23-06-2019 01:25:00 16.4 C 87 % 14.23 C
595 23-06-2019 01:30:00 16.3 C 87 % 14.13 C
596 23-06-2019 01:35:00 16.2 C 87 % 14.03 C
597 23-06-2019 01:40:00 16.2 C 87 % 14.03 C
598 23-06-2019 01:45:00 16.1 C 88 % 14.11 C
599 23-06-2019 01:50:00 16 C 88 % 14.01 C
600 23-06-2019 01:55:00 15.9 C 88 % 13.92 C
Sensor: Nr:Datum:Temp:Feuchte:Taupunkt:
Aussen-T/F 601 23-06-2019 02:00:00 15.9 C 89 % 14.09 C
602 23-06-2019 02:05:00 15.8 C 89 % 13.99 C
603 23-06-2019 02:10:00 15.8 C 89 % 13.99 C
604 23-06-2019 02:15:00 15.8 C 89 % 13.99 C
605 23-06-2019 02:20:00 15.7 C 89 % 13.89 C
606 23-06-2019 02:25:00 15.7 C 89 % 13.89 C
607 23-06-2019 02:30:00 15.7 C 89 % 13.89 C
608 23-06-2019 02:35:00 15.6 C 89 % 13.79 C
609 23-06-2019 02:40:00 15.5 C 89 % 13.7 C
610 23-06-2019 02:45:00 15.4 C 90 % 13.77 C
611 23-06-2019 02:50:00 15.4 C 90 % 13.77 C
612 23-06-2019 02:55:00 15.4 C 90 % 13.77 C
613 23-06-2019 03:00:00 15.3 C 90 % 13.67 C
614 23-06-2019 03:05:00 15.2 C 90 % 13.57 C
615 23-06-2019 03:10:00 15.2 C 90 % 13.57 C
616 23-06-2019 03:15:00 15.1 C 91 % 13.64 C
617 23-06-2019 03:20:00 15.1 C 91 % 13.64 C
618 23-06-2019 03:25:00 15 C 91 % 13.54 C
619 23-06-2019 03:30:00 14.9 C 91 % 13.44 C
620 23-06-2019 03:35:00 14.8 C 91 % 13.35 C
621 23-06-2019 03:40:00 14.8 C 91 % 13.35 C
622 23-06-2019 03:45:00 14.8 C 92 % 13.51 C
623 23-06-2019 03:50:00 14.8 C 92 % 13.51 C
624 23-06-2019 03:55:00 14.8 C 92 % 13.51 C
625 23-06-2019 04:00:00 14.7 C 92 % 13.41 C
Sensor: Nr:Datum:Temp:Feuchte:Taupunkt:
Aussen-T/F 626 23-06-2019 04:05:00 14.7 C 92 % 13.41 C
627 23-06-2019 04:10:00 14.7 C 92 % 13.41 C
628 23-06-2019 04:15:00 14.7 C 92 % 13.41 C
629 23-06-2019 04:20:00 14.7 C 92 % 13.41 C
630 23-06-2019 04:25:00 14.6 C 92 % 13.32 C
631 23-06-2019 04:30:00 14.6 C 92 % 13.32 C
632 23-06-2019 04:35:00 14.4 C 92 % 13.12 C
633 23-06-2019 04:40:00 14.4 C 92 % 13.12 C
634 23-06-2019 04:45:00 14.3 C 93 % 13.18 C
635 23-06-2019 04:50:00 14.3 C 93 % 13.18 C
636 23-06-2019 04:55:00 14.3 C 93 % 13.18 C
637 23-06-2019 05:00:00 14.3 C 93 % 13.18 C
638 23-06-2019 05:05:00 14.2 C 93 % 13.08 C
639 23-06-2019 05:10:00 14.1 C 93 % 12.99 C
640 23-06-2019 05:15:00 14.1 C 93 % 12.99 C
641 23-06-2019 05:20:00 14.1 C 93 % 12.99 C
642 23-06-2019 05:25:00 14.1 C 93 % 12.99 C
643 23-06-2019 05:30:00 14 C 93 % 12.89 C
644 23-06-2019 05:35:00 14 C 94 % 13.05 C
645 23-06-2019 05:40:00 14 C 93 % 12.89 C
646 23-06-2019 05:45:00 14 C 94 % 13.05 C
647 23-06-2019 05:50:00 14 C 94 % 13.05 C
648 23-06-2019 05:55:00 14 C 94 % 13.05 C
649 23-06-2019 06:00:00 14.1 C 94 % 13.15 C
650 23-06-2019 06:05:00 14.1 C 94 % 13.15 C
Sensor: Nr:Datum:Temp:Feuchte:Taupunkt:
Aussen-T/F 651 23-06-2019 06:10:00 14.1 C 94 % 13.15 C
652 23-06-2019 06:15:00 14.1 C 94 % 13.15 C
653 23-06-2019 06:20:00 14.2 C 94 % 13.25 C
654 23-06-2019 06:25:00 14.2 C 94 % 13.25 C
655 23-06-2019 06:30:00 14.3 C 95 % 13.51 C
656 23-06-2019 06:35:00 14.2 C 94 % 13.25 C
657 23-06-2019 06:40:00 14.3 C 94 % 13.35 C
658 23-06-2019 06:45:00 14.3 C 94 % 13.35 C
659 23-06-2019 06:50:00 14.3 C 95 % 13.51 C
660 23-06-2019 06:55:00 14.3 C 94 % 13.35 C
661 23-06-2019 07:00:00 14.4 C 94 % 13.45 C
662 23-06-2019 07:05:00 14.4 C 95 % 13.61 C
663 23-06-2019 07:10:00 14.5 C 95 % 13.71 C
664 23-06-2019 07:15:00 14.6 C 95 % 13.81 C
665 23-06-2019 07:20:00 14.6 C 95 % 13.81 C
666 23-06-2019 07:25:00 14.7 C 95 % 13.91 C
667 23-06-2019 07:30:00 14.7 C 95 % 13.91 C
668 23-06-2019 07:35:00 14.8 C 95 % 14.01 C
669 23-06-2019 07:40:00 14.9 C 95 % 14.11 C
670 23-06-2019 07:45:00 15 C 95 % 14.21 C
671 23-06-2019 07:50:00 15.1 C 95 % 14.31 C
672 23-06-2019 07:55:00 15.2 C 95 % 14.4 C
673 23-06-2019 08:00:00 15.3 C 95 % 14.5 C
674 23-06-2019 08:05:00 15.4 C 95 % 14.6 C
675 23-06-2019 08:10:00 15.6 C 95 % 14.8 C
Sensor: Nr:Datum:Temp:Feuchte:Taupunkt:
Aussen-T/F 676 23-06-2019 08:15:00 15.8 C 95 % 15 C
677 23-06-2019 08:20:00 15.9 C 95 % 15.1 C
678 23-06-2019 08:25:00 16 C 95 % 15.2 C
679 23-06-2019 08:30:00 16.2 C 95 % 15.4 C
680 23-06-2019 08:35:00 16.3 C 94 % 15.33 C
681 23-06-2019 08:40:00 16.4 C 94 % 15.43 C
682 23-06-2019 08:45:00 16.6 C 94 % 15.63 C
683 23-06-2019 08:50:00 16.7 C 94 % 15.73 C
684 23-06-2019 08:55:00 16.9 C 94 % 15.93 C
685 23-06-2019 09:00:00 17.2 C 93 % 16.06 C
686 23-06-2019 09:05:00 17.4 C 93 % 16.26 C
687 23-06-2019 09:10:00 17.6 C 92 % 16.28 C
688 23-06-2019 09:15:00 17.8 C 91 % 16.31 C
689 23-06-2019 09:20:00 18.1 C 90 % 16.43 C
690 23-06-2019 09:25:00 18.3 C 87 % 16.1 C
691 23-06-2019 09:30:00 18.8 C 87 % 16.59 C
692 23-06-2019 09:35:00 19.1 C 86 % 16.7 C
693 23-06-2019 09:40:00 19.4 C 82 % 16.25 C
694 23-06-2019 09:45:00 19.8 C 83 % 16.83 C
695 23-06-2019 09:50:00 20 C 78 % 16.05 C
696 23-06-2019 09:55:00 20.4 C 76 % 16.03 C
697 23-06-2019 10:00:00 20.8 C 74 % 16 C
698 23-06-2019 10:05:00 21.1 C 74 % 16.29 C
699 23-06-2019 10:10:00 21.5 C 72 % 16.24 C
700 23-06-2019 10:15:00 21.9 C 70 % 16.18 C
Sensor: Nr:Datum:Temp:Feuchte:Taupunkt:
Aussen-T/F 701 23-06-2019 10:20:00 22.3 C 70 % 16.56 C
702 23-06-2019 10:25:00 22.7 C 68 % 16.49 C
703 23-06-2019 10:30:00 23 C 68 % 16.78 C
704 23-06-2019 10:35:00 23.2 C 67 % 16.73 C
705 23-06-2019 10:40:00 23.3 C 67 % 16.83 C
706 23-06-2019 10:45:00 23.4 C 66 % 16.69 C
707 23-06-2019 10:50:00 23.5 C 66 % 16.78 C
708 23-06-2019 10:55:00 23.6 C 66 % 16.88 C
709 23-06-2019 11:00:00 23.7 C 66 % 16.97 C
710 23-06-2019 11:05:00 23.7 C 66 % 16.97 C
711 23-06-2019 11:10:00 23.8 C 65 % 16.83 C
712 23-06-2019 11:15:00 23.9 C 65 % 16.92 C
713 23-06-2019 11:20:00 24 C 65 % 17.01 C
714 23-06-2019 11:25:00 24.1 C 64 % 16.86 C
715 23-06-2019 11:30:00 24.1 C 64 % 16.86 C
716 23-06-2019 11:35:00 24.3 C 64 % 17.05 C
717 23-06-2019 11:40:00 24.4 C 63 % 16.9 C
718 23-06-2019 11:45:00 24.5 C 64 % 17.24 C
719 23-06-2019 11:50:00 24.6 C 63 % 17.09 C
720 23-06-2019 11:55:00 24.6 C 63 % 17.09 C
721 23-06-2019 12:00:00 24.7 C 64 % 17.43 C
722 23-06-2019 12:05:00 24.7 C 63 % 17.18 C
723 23-06-2019 12:10:00 24.8 C 62 % 17.02 C
724 23-06-2019 12:15:00 24.8 C 63 % 17.28 C
725 23-06-2019 12:20:00 24.9 C 62 % 17.12 C
Sensor: Nr:Datum:Temp:Feuchte:Taupunkt:
Aussen-T/F 726 23-06-2019 12:25:00 25.1 C 62 % 17.31 C
727 23-06-2019 12:30:00 25.2 C 62 % 17.4 C
728 23-06-2019 12:35:00 25.3 C 62 % 17.5 C
729 23-06-2019 12:40:00 25.4 C 60 % 17.07 C
730 23-06-2019 12:45:00 25.7 C 60 % 17.35 C
731 23-06-2019 12:50:00 25.9 C 60 % 17.54 C
732 23-06-2019 12:55:00 26.1 C 58 % 17.19 C
733 23-06-2019 13:00:00 26.1 C 59 % 17.46 C
734 23-06-2019 13:05:00 26.2 C 58 % 17.28 C
735 23-06-2019 13:10:00 26.2 C 59 % 17.55 C
736 23-06-2019 13:15:00 26.2 C 57 % 17.01 C
737 23-06-2019 13:20:00 26.2 C 57 % 17.01 C
738 23-06-2019 13:25:00 26.3 C 56 % 16.82 C
739 23-06-2019 13:30:00 26.6 C 55 % 16.82 C
740 23-06-2019 13:35:00 26.8 C 56 % 17.29 C
741 23-06-2019 13:40:00 26.9 C 55 % 17.09 C
742 23-06-2019 13:45:00 27.1 C 54 % 16.99 C
743 23-06-2019 13:50:00 27.2 C 53 % 16.79 C
744 23-06-2019 13:55:00 27.2 C 53 % 16.79 C
745 23-06-2019 14:00:00 27.2 C 53 % 16.79 C
746 23-06-2019 14:05:00 27.2 C 52 % 16.49 C
747 23-06-2019 14:10:00 27.3 C 53 % 16.88 C
748 23-06-2019 14:15:00 27.6 C 52 % 16.86 C
749 23-06-2019 14:20:00 27.7 C 53 % 17.25 C
750 23-06-2019 14:25:00 28.1 C 51 % 17.01 C
Sensor: Nr:Datum:Temp:Feuchte:Taupunkt:
Aussen-T/F 751 23-06-2019 14:30:00 28.2 C 51 % 17.1 C
752 23-06-2019 14:35:00 28.2 C 50 % 16.79 C
753 23-06-2019 14:40:00 28.3 C 49 % 16.56 C
754 23-06-2019 14:45:00 28.3 C 50 % 16.88 C
755 23-06-2019 14:50:00 28.1 C 49 % 16.38 C
756 23-06-2019 14:55:00 27.9 C 50 % 16.51 C
757 23-06-2019 15:00:00 27.7 C 50 % 16.33 C
758 23-06-2019 15:05:00 27.7 C 50 % 16.33 C
759 23-06-2019 15:10:00 27.9 C 50 % 16.51 C
760 23-06-2019 15:15:00 28.1 C 49 % 16.38 C
761 23-06-2019 15:20:00 28.1 C 50 % 16.7 C
762 23-06-2019 15:25:00 28.2 C 48 % 16.15 C
763 23-06-2019 15:30:00 28.3 C 48 % 16.24 C
764 23-06-2019 15:35:00 28.3 C 50 % 16.88 C
765 23-06-2019 15:40:00 29 C 48 % 16.88 C
766 23-06-2019 15:45:00 29.4 C 46 % 16.57 C
767 23-06-2019 15:50:00 29.9 C 46 % 17.02 C
768 23-06-2019 15:55:00 30.3 C 44 % 16.68 C
769 23-06-2019 16:00:00 30.4 C 42 % 16.04 C
770 23-06-2019 16:05:00 30.7 C 43 % 16.68 C
771 23-06-2019 16:10:00 30.7 C 42 % 16.31 C
772 23-06-2019 16:15:00 30.4 C 42 % 16.04 C
773 23-06-2019 16:20:00 30.1 C 43 % 16.14 C
774 23-06-2019 16:25:00 30.1 C 43 % 16.14 C
775 23-06-2019 16:30:00 30 C 44 % 16.41 C
Sensor: Nr:Datum:Temp:Feuchte:Taupunkt:
Aussen-T/F 776 23-06-2019 16:35:00 29.9 C 44 % 16.32 C
777 23-06-2019 16:40:00 29.9 C 44 % 16.32 C
778 23-06-2019 16:45:00 30.1 C 45 % 16.86 C
779 23-06-2019 16:50:00 30.2 C 43 % 16.23 C
780 23-06-2019 16:55:00 30.4 C 43 % 16.41 C
781 23-06-2019 17:00:00 30.7 C 43 % 16.68 C
782 23-06-2019 17:05:00 30.3 C 43 % 16.32 C
783 23-06-2019 17:10:00 29.9 C 45 % 16.68 C
784 23-06-2019 17:15:00 29.7 C 45 % 16.5 C
785 23-06-2019 17:20:00 29.9 C 44 % 16.32 C
786 23-06-2019 17:25:00 30.3 C 44 % 16.68 C
787 23-06-2019 17:30:00 30.7 C 43 % 16.68 C
788 23-06-2019 17:35:00 31.1 C 43 % 17.04 C
789 23-06-2019 17:40:00 31.2 C 42 % 16.76 C
790 23-06-2019 17:45:00 31.2 C 43 % 17.13 C
791 23-06-2019 17:50:00 31.2 C 42 % 16.76 C
792 23-06-2019 17:55:00 31 C 41 % 16.2 C
793 23-06-2019 18:00:00 30.5 C 45 % 17.22 C
794 23-06-2019 18:05:00 30.3 C 44 % 16.68 C
795 23-06-2019 18:10:00 30.3 C 43 % 16.32 C
796 23-06-2019 18:15:00 30.4 C 42 % 16.04 C
797 23-06-2019 18:20:00 30.7 C 43 % 16.68 C
798 23-06-2019 18:25:00 30.7 C 43 % 16.68 C
799 23-06-2019 18:30:00 30.7 C 48 % 18.43 C
800 23-06-2019 18:35:00 30.6 C 44 % 16.95 C
Sensor: Nr:Datum:Temp:Feuchte:Taupunkt:
Aussen-T/F 801 23-06-2019 18:40:00 30.3 C 43 % 16.32 C
802 23-06-2019 18:45:00 29.9 C 44 % 16.32 C
803 23-06-2019 18:50:00 29.6 C 45 % 16.41 C
804 23-06-2019 18:55:00 29.6 C 46 % 16.75 C
805 23-06-2019 19:00:00 29.6 C 47 % 17.09 C
806 23-06-2019 19:05:00 29.5 C 47 % 17 C
807 23-06-2019 19:10:00 29.3 C 46 % 16.48 C
808 23-06-2019 19:15:00 29.1 C 46 % 16.3 C
809 23-06-2019 19:20:00 28.9 C 47 % 16.45 C
810 23-06-2019 19:25:00 29 C 47 % 16.55 C
811 23-06-2019 19:30:00 29.1 C 48 % 16.97 C
812 23-06-2019 19:35:00 29.1 C 53 % 18.54 C
813 23-06-2019 19:40:00 29.1 C 54 % 18.84 C
814 23-06-2019 19:45:00 28.9 C 55 % 18.95 C
815 23-06-2019 19:50:00 28.6 C 57 % 19.24 C
816 23-06-2019 19:55:00 28.1 C 57 % 18.78 C
817 23-06-2019 20:00:00 27.6 C 57 % 18.31 C
818 23-06-2019 20:05:00 27.1 C 59 % 18.4 C
819 23-06-2019 20:10:00 26.7 C 60 % 18.29 C
820 23-06-2019 20:15:00 26.4 C 61 % 18.27 C
821 23-06-2019 20:20:00 26.2 C 62 % 18.34 C
822 23-06-2019 20:25:00 25.9 C 62 % 18.06 C
823 23-06-2019 20:30:00 25.7 C 62 % 17.87 C
824 23-06-2019 20:35:00 25.4 C 63 % 17.84 C
825 23-06-2019 20:40:00 25.2 C 64 % 17.9 C
Sensor: Nr:Datum:Temp:Feuchte:Taupunkt:
Aussen-T/F 826 23-06-2019 20:45:00 24.9 C 64 % 17.62 C
827 23-06-2019 20:50:00 24.7 C 65 % 17.68 C
828 23-06-2019 20:55:00 24.5 C 65 % 17.49 C
829 23-06-2019 21:00:00 24.3 C 65 % 17.3 C
830 23-06-2019 21:05:00 24.2 C 66 % 17.45 C
831 23-06-2019 21:10:00 24 C 67 % 17.49 C
832 23-06-2019 21:15:00 23.8 C 67 % 17.3 C
833 23-06-2019 21:20:00 23.6 C 67 % 17.11 C
834 23-06-2019 21:25:00 23.5 C 67 % 17.02 C
835 23-06-2019 21:30:00 23.3 C 68 % 17.06 C
836 23-06-2019 21:35:00 23.2 C 68 % 16.97 C
837 23-06-2019 21:40:00 23 C 69 % 17.01 C
838 23-06-2019 21:45:00 22.8 C 69 % 16.82 C
839 23-06-2019 21:50:00 22.6 C 69 % 16.62 C
840 23-06-2019 21:55:00 22.4 C 70 % 16.66 C
841 23-06-2019 22:00:00 22.3 C 70 % 16.56 C
842 23-06-2019 22:05:00 22.2 C 70 % 16.47 C
843 23-06-2019 22:10:00 22.1 C 71 % 16.6 C
844 23-06-2019 22:15:00 22 C 71 % 16.5 C
845 23-06-2019 22:20:00 21.9 C 72 % 16.62 C
846 23-06-2019 22:25:00 21.8 C 72 % 16.53 C
847 23-06-2019 22:30:00 21.7 C 72 % 16.43 C
848 23-06-2019 22:35:00 21.6 C 73 % 16.55 C
849 23-06-2019 22:40:00 21.4 C 73 % 16.36 C
850 23-06-2019 22:45:00 21.3 C 74 % 16.48 C
Sensor: Nr:Datum:Temp:Feuchte:Taupunkt:
Aussen-T/F 851 23-06-2019 22:50:00 21.2 C 75 % 16.59 C
852 23-06-2019 22:55:00 21 C 75 % 16.4 C
853 23-06-2019 23:00:00 20.9 C 75 % 16.3 C
854 23-06-2019 23:05:00 20.8 C 76 % 16.41 C
855 23-06-2019 23:10:00 20.7 C 76 % 16.32 C
856 23-06-2019 23:15:00 20.6 C 77 % 16.43 C
857 23-06-2019 23:20:00 20.4 C 77 % 16.23 C
858 23-06-2019 23:25:00 20.3 C 78 % 16.34 C
859 23-06-2019 23:30:00 20.2 C 78 % 16.24 C
860 23-06-2019 23:35:00 20.1 C 78 % 16.14 C
861 23-06-2019 23:40:00 19.9 C 79 % 16.15 C
862 23-06-2019 23:45:00 19.8 C 80 % 16.25 C
863 23-06-2019 23:50:00 19.7 C 80 % 16.15 C
864 23-06-2019 23:55:00 19.6 C 80 % 16.06 C
865 24-06-2019 00:00:00 19.5 C 81 % 16.15 C
866 24-06-2019 00:05:00 19.4 C 81 % 16.06 C
867 24-06-2019 00:10:00 19.3 C 81 % 15.96 C
868 24-06-2019 00:15:00 19.3 C 82 % 16.15 C
869 24-06-2019 00:20:00 19.2 C 82 % 16.05 C
870 24-06-2019 00:25:00 19.2 C 82 % 16.05 C
871 24-06-2019 00:30:00 19.1 C 82 % 15.96 C
872 24-06-2019 00:35:00 19 C 83 % 16.05 C
873 24-06-2019 00:40:00 18.9 C 83 % 15.95 C
874 24-06-2019 00:45:00 18.9 C 83 % 15.95 C
875 24-06-2019 00:50:00 18.8 C 83 % 15.85 C
Sensor: Nr:Datum:Temp:Feuchte:Taupunkt:
Aussen-T/F 876 24-06-2019 00:55:00 18.8 C 83 % 15.85 C
877 24-06-2019 01:00:00 18.7 C 84 % 15.94 C
878 24-06-2019 01:05:00 18.7 C 84 % 15.94 C
879 24-06-2019 01:10:00 18.7 C 84 % 15.94 C
880 24-06-2019 01:15:00 18.7 C 84 % 15.94 C
881 24-06-2019 01:20:00 18.6 C 84 % 15.84 C
882 24-06-2019 01:25:00 18.5 C 84 % 15.75 C
883 24-06-2019 01:30:00 18.4 C 84 % 15.65 C
884 24-06-2019 01:35:00 18.3 C 84 % 15.55 C
885 24-06-2019 01:40:00 18.3 C 85 % 15.74 C
886 24-06-2019 01:45:00 18.2 C 85 % 15.64 C
887 24-06-2019 01:50:00 18.1 C 85 % 15.54 C
888 24-06-2019 01:55:00 18 C 85 % 15.44 C
889 24-06-2019 02:00:00 17.9 C 86 % 15.53 C
890 24-06-2019 02:05:00 17.9 C 86 % 15.53 C
891 24-06-2019 02:10:00 17.8 C 86 % 15.43 C
892 24-06-2019 02:15:00 17.7 C 86 % 15.33 C
893 24-06-2019 02:20:00 17.7 C 87 % 15.51 C
894 24-06-2019 02:25:00 17.6 C 87 % 15.41 C
895 24-06-2019 02:30:00 17.5 C 87 % 15.31 C
896 24-06-2019 02:35:00 17.4 C 87 % 15.21 C
897 24-06-2019 02:40:00 17.3 C 88 % 15.29 C
898 24-06-2019 02:45:00 17.3 C 88 % 15.29 C
899 24-06-2019 02:50:00 17.2 C 88 % 15.2 C
900 24-06-2019 02:55:00 17.2 C 89 % 15.37 C
Sensor: Nr:Datum:Temp:Feuchte:Taupunkt:
Aussen-T/F 901 24-06-2019 03:00:00 17.2 C 88 % 15.2 C
902 24-06-2019 03:05:00 17.1 C 88 % 15.1 C
903 24-06-2019 03:10:00 17.1 C 89 % 15.27 C
904 24-06-2019 03:15:00 17.1 C 89 % 15.27 C
905 24-06-2019 03:20:00 17 C 89 % 15.17 C
906 24-06-2019 03:25:00 17 C 89 % 15.17 C
907 24-06-2019 03:30:00 16.9 C 89 % 15.08 C
908 24-06-2019 03:35:00 16.9 C 89 % 15.08 C
909 24-06-2019 03:40:00 16.9 C 89 % 15.08 C
910 24-06-2019 03:45:00 16.8 C 90 % 15.15 C
911 24-06-2019 03:50:00 16.8 C 90 % 15.15 C
912 24-06-2019 03:55:00 16.7 C 90 % 15.05 C
913 24-06-2019 04:00:00 16.7 C 90 % 15.05 C
914 24-06-2019 04:05:00 16.7 C 90 % 15.05 C
915 24-06-2019 04:10:00 16.7 C 90 % 15.05 C
916 24-06-2019 04:15:00 16.6 C 90 % 14.95 C
917 24-06-2019 04:20:00 16.6 C 91 % 15.13 C
918 24-06-2019 04:25:00 16.6 C 91 % 15.13 C
919 24-06-2019 04:30:00 16.6 C 91 % 15.13 C
920 24-06-2019 04:35:00 16.5 C 91 % 15.03 C
921 24-06-2019 04:40:00 16.4 C 91 % 14.93 C
922 24-06-2019 04:45:00 16.4 C 91 % 14.93 C
923 24-06-2019 04:50:00 16.4 C 91 % 14.93 C
924 24-06-2019 04:55:00 16.4 C 91 % 14.93 C
925 24-06-2019 05:00:00 16.4 C 92 % 15.1 C
Sensor: Nr:Datum:Temp:Feuchte:Taupunkt:
Aussen-T/F 926 24-06-2019 05:05:00 16.3 C 92 % 15 C
927 24-06-2019 05:10:00 16.3 C 92 % 15 C
928 24-06-2019 05:15:00 16.3 C 92 % 15 C
929 24-06-2019 05:20:00 16.4 C 92 % 15.1 C
930 24-06-2019 05:25:00 16.4 C 92 % 15.1 C
931 24-06-2019 05:30:00 16.5 C 93 % 15.36 C
932 24-06-2019 05:35:00 16.5 C 92 % 15.2 C
933 24-06-2019 05:40:00 16.5 C 92 % 15.2 C
934 24-06-2019 05:45:00 16.4 C 92 % 15.1 C
935 24-06-2019 05:50:00 16.4 C 92 % 15.1 C
936 24-06-2019 05:55:00 16.5 C 92 % 15.2 C
937 24-06-2019 06:00:00 16.5 C 92 % 15.2 C
938 24-06-2019 06:05:00 16.5 C 93 % 15.36 C
939 24-06-2019 06:10:00 16.6 C 93 % 15.46 C
940 24-06-2019 06:15:00 16.6 C 93 % 15.46 C
941 24-06-2019 06:20:00 16.7 C 93 % 15.56 C
942 24-06-2019 06:25:00 16.7 C 93 % 15.56 C
943 24-06-2019 06:30:00 16.7 C 93 % 15.56 C
944 24-06-2019 06:35:00 16.8 C 93 % 15.66 C
945 24-06-2019 06:40:00 16.8 C 93 % 15.66 C
946 24-06-2019 06:45:00 16.8 C 93 % 15.66 C
947 24-06-2019 06:50:00 16.9 C 93 % 15.76 C
948 24-06-2019 06:55:00 16.9 C 93 % 15.76 C
949 24-06-2019 07:00:00 17.1 C 93 % 15.96 C
950 24-06-2019 07:05:00 17.1 C 93 % 15.96 C
Sensor: Nr:Datum:Temp:Feuchte:Taupunkt:
Aussen-T/F 951 24-06-2019 07:10:00 17.2 C 93 % 16.06 C
952 24-06-2019 07:15:00 17.3 C 93 % 16.16 C
953 24-06-2019 07:20:00 17.3 C 93 % 16.16 C
954 24-06-2019 07:25:00 17.4 C 93 % 16.26 C
955 24-06-2019 07:30:00 17.5 C 93 % 16.36 C
956 24-06-2019 07:35:00 17.6 C 93 % 16.45 C
957 24-06-2019 07:40:00 17.6 C 93 % 16.45 C
958 24-06-2019 07:45:00 17.7 C 93 % 16.55 C
959 24-06-2019 07:50:00 17.8 C 93 % 16.65 C
960 24-06-2019 07:55:00 17.8 C 92 % 16.48 C
961 24-06-2019 08:00:00 17.9 C 92 % 16.58 C
962 24-06-2019 08:05:00 18 C 92 % 16.68 C
963 24-06-2019 08:10:00 18.1 C 92 % 16.78 C
964 24-06-2019 08:15:00 18.2 C 92 % 16.88 C
965 24-06-2019 08:20:00 18.3 C 92 % 16.98 C
966 24-06-2019 08:25:00 18.5 C 92 % 17.18 C
967 24-06-2019 08:30:00 18.6 C 92 % 17.27 C
968 24-06-2019 08:35:00 18.7 C 92 % 17.37 C
969 24-06-2019 08:40:00 18.8 C 92 % 17.47 C
970 24-06-2019 08:45:00 19 C 91 % 17.5 C
971 24-06-2019 08:50:00 19.2 C 91 % 17.69 C
972 24-06-2019 08:55:00 19.3 C 91 % 17.79 C
973 24-06-2019 09:00:00 19.6 C 91 % 18.09 C
974 24-06-2019 09:05:00 19.7 C 90 % 18.01 C
975 24-06-2019 09:10:00 19.9 C 90 % 18.21 C
Sensor: Nr:Datum:Temp:Feuchte:Taupunkt:
Aussen-T/F 976 24-06-2019 09:15:00 20.2 C 89 % 18.33 C
977 24-06-2019 09:20:00 20.4 C 88 % 18.34 C
978 24-06-2019 09:25:00 20.8 C 87 % 18.56 C
979 24-06-2019 09:30:00 21.3 C 84 % 18.49 C
980 24-06-2019 09:35:00 21.9 C 83 % 18.88 C
981 24-06-2019 09:40:00 22.3 C 81 % 18.88 C
982 24-06-2019 09:45:00 22.7 C 79 % 18.87 C
983 24-06-2019 09:50:00 23 C 77 % 18.75 C
984 24-06-2019 09:55:00 23.3 C 77 % 19.04 C
985 24-06-2019 10:00:00 23.5 C 77 % 19.23 C
986 24-06-2019 10:05:00 23.9 C 73 % 18.76 C
987 24-06-2019 10:10:00 24.3 C 73 % 19.15 C
988 24-06-2019 10:15:00 24.8 C 70 % 18.95 C
989 24-06-2019 10:20:00 25.3 C 67 % 18.73 C
990 24-06-2019 10:25:00 25.6 C 67 % 19.01 C
991 24-06-2019 10:30:00 25.9 C 64 % 18.57 C
992 24-06-2019 10:35:00 26.2 C 64 % 18.85 C
993 24-06-2019 10:40:00 26.3 C 62 % 18.44 C
994 24-06-2019 10:45:00 26.6 C 64 % 19.23 C
995 24-06-2019 10:50:00 26.6 C 62 % 18.72 C
996 24-06-2019 10:55:00 26.7 C 62 % 18.81 C
997 24-06-2019 11:00:00 26.7 C 61 % 18.55 C
998 24-06-2019 11:05:00 26.7 C 61 % 18.55 C
999 24-06-2019 11:10:00 26.7 C 60 % 18.29 C
1000 24-06-2019 11:15:00 26.8 C 61 % 18.65 C
Sensor: Nr:Datum:Temp:Feuchte:Taupunkt:
Aussen-T/F 1001 24-06-2019 11:20:00 26.7 C 60 % 18.29 C
1002 24-06-2019 11:25:00 26.9 C 59 % 18.21 C
1003 24-06-2019 11:30:00 27 C 59 % 18.3 C
1004 24-06-2019 11:35:00 27.1 C 59 % 18.4 C
1005 24-06-2019 11:40:00 27.2 C 59 % 18.49 C
1006 24-06-2019 11:45:00 27.2 C 60 % 18.76 C
1007 24-06-2019 11:50:00 27.2 C 58 % 18.22 C
1008 24-06-2019 11:55:00 27.3 C 59 % 18.58 C
1009 24-06-2019 12:00:00 27.5 C 58 % 18.5 C
1010 24-06-2019 12:05:00 27.6 C 57 % 18.31 C
1011 24-06-2019 12:10:00 27.6 C 57 % 18.31 C
1012 24-06-2019 12:15:00 27.6 C 55 % 17.74 C
1013 24-06-2019 12:20:00 27.7 C 56 % 18.12 C
1014 24-06-2019 12:25:00 27.8 C 56 % 18.22 C
1015 24-06-2019 12:30:00 27.9 C 55 % 18.02 C
1016 24-06-2019 12:35:00 27.9 C 56 % 18.31 C
1017 24-06-2019 12:40:00 28 C 55 % 18.11 C
1018 24-06-2019 12:45:00 28.2 C 54 % 18.01 C
1019 24-06-2019 12:50:00 28.3 C 54 % 18.1 C
1020 24-06-2019 12:55:00 28.5 C 53 % 17.99 C
1021 24-06-2019 13:00:00 28.6 C 53 % 18.08 C
1022 24-06-2019 13:05:00 28.7 C 53 % 18.17 C
1023 24-06-2019 13:10:00 28.8 C 52 % 17.96 C
1024 24-06-2019 13:15:00 28.9 C 53 % 18.36 C
1025 24-06-2019 13:20:00 28.9 C 53 % 18.36 C
Sensor: Nr:Datum:Temp:Feuchte:Taupunkt:
Aussen-T/F 1026 24-06-2019 13:25:00 29.1 C 51 % 17.93 C
1027 24-06-2019 13:30:00 29.1 C 51 % 17.93 C
1028 24-06-2019 13:35:00 29.2 C 51 % 18.02 C
1029 24-06-2019 13:40:00 29.3 C 53 % 18.73 C
1030 24-06-2019 13:45:00 29.4 C 51 % 18.2 C
1031 24-06-2019 13:50:00 29.3 C 52 % 18.42 C
1032 24-06-2019 13:55:00 29.4 C 51 % 18.2 C
1033 24-06-2019 14:00:00 29.6 C 51 % 18.39 C
1034 24-06-2019 14:05:00 29.7 C 49 % 17.84 C
1035 24-06-2019 14:10:00 29.7 C 50 % 18.16 C
1036 24-06-2019 14:15:00 29.7 C 52 % 18.79 C
1037 24-06-2019 14:20:00 29.8 C 50 % 18.25 C
1038 24-06-2019 14:25:00 30 C 49 % 18.12 C
1039 24-06-2019 14:30:00 30.2 C 49 % 18.3 C
1040 24-06-2019 14:35:00 30.3 C 51 % 19.03 C
1041 24-06-2019 14:40:00 30.4 C 49 % 18.48 C
1042 24-06-2019 14:45:00 30.5 C 48 % 18.24 C
1043 24-06-2019 14:50:00 30.6 C 50 % 18.99 C
1044 24-06-2019 14:55:00 30.7 C 50 % 19.08 C
1045 24-06-2019 15:00:00 30.9 C 48 % 18.61 C
1046 24-06-2019 15:05:00 30.7 C 48 % 18.43 C
1047 24-06-2019 15:10:00 30.7 C 49 % 18.75 C
1048 24-06-2019 15:15:00 30.8 C 48 % 18.52 C
1049 24-06-2019 15:20:00 31 C 49 % 19.03 C
1050 24-06-2019 15:25:00 31.2 C 47 % 18.54 C
Sensor: Nr:Datum:Temp:Feuchte:Taupunkt:
Aussen-T/F 1051 24-06-2019 15:30:00 31.3 C 46 % 18.29 C
1052 24-06-2019 15:35:00 31.6 C 48 % 19.24 C
1053 24-06-2019 15:40:00 31.9 C 45 % 18.48 C
1054 24-06-2019 15:45:00 32.2 C 45 % 18.75 C
1055 24-06-2019 15:50:00 32.1 C 44 % 18.3 C
1056 24-06-2019 15:55:00 32.2 C 45 % 18.75 C
1057 24-06-2019 16:00:00 32.5 C 45 % 19.02 C
1058 24-06-2019 16:05:00 33.1 C 44 % 19.2 C
1059 24-06-2019 16:10:00 33.4 C 43 % 19.11 C
1060 24-06-2019 16:15:00 33.4 C 43 % 19.11 C
1061 24-06-2019 16:20:00 33.4 C 43 % 19.11 C
1062 24-06-2019 16:25:00 32.9 C 43 % 18.66 C
1063 24-06-2019 16:30:00 32.7 C 43 % 18.48 C
1064 24-06-2019 16:35:00 32.5 C 44 % 18.66 C
1065 24-06-2019 16:40:00 32.1 C 45 % 18.66 C
1066 24-06-2019 16:45:00 32 C 45 % 18.57 C
1067 24-06-2019 16:50:00 32.2 C 46 % 19.11 C
1068 24-06-2019 16:55:00 32.6 C 44 % 18.75 C
1069 24-06-2019 17:00:00 32.8 C 45 % 19.3 C
1070 24-06-2019 17:05:00 32.7 C 46 % 19.56 C
1071 24-06-2019 17:10:00 32.8 C 44 % 18.93 C
1072 24-06-2019 17:15:00 32.8 C 46 % 19.65 C
1073 24-06-2019 17:20:00 33 C 45 % 19.48 C
1074 24-06-2019 17:25:00 33.1 C 44 % 19.2 C
1075 24-06-2019 17:30:00 33.3 C 45 % 19.75 C
Sensor: Nr:Datum:Temp:Feuchte:Taupunkt:
Aussen-T/F 1076 24-06-2019 17:35:00 33.3 C 43 % 19.02 C
1077 24-06-2019 17:40:00 33.2 C 43 % 18.93 C
1078 24-06-2019 17:45:00 32.9 C 45 % 19.39 C
1079 24-06-2019 17:50:00 32.8 C 45 % 19.3 C
1080 24-06-2019 17:55:00 32.9 C 44 % 19.02 C
1081 24-06-2019 18:00:00 33.2 C 44 % 19.29 C
1082 24-06-2019 18:05:00 33.3 C 42 % 18.64 C
1083 24-06-2019 18:10:00 33.2 C 43 % 18.93 C
1084 24-06-2019 18:15:00 33.1 C 45 % 19.57 C
1085 24-06-2019 18:20:00 33 C 45 % 19.48 C
1086 24-06-2019 18:25:00 33 C 46 % 19.83 C
1087 24-06-2019 18:30:00 33.2 C 44 % 19.29 C
1088 24-06-2019 18:35:00 33.2 C 43 % 18.93 C
1089 24-06-2019 18:40:00 33 C 44 % 19.11 C
1090 24-06-2019 18:45:00 32.9 C 44 % 19.02 C
1091 24-06-2019 18:50:00 33.1 C 44 % 19.2 C
1092 24-06-2019 18:55:00 33 C 44 % 19.11 C
1093 24-06-2019 19:00:00 33.1 C 44 % 19.2 C
1094 24-06-2019 19:05:00 33.1 C 45 % 19.57 C
1095 24-06-2019 19:10:00 33.1 C 44 % 19.2 C
1096 24-06-2019 19:15:00 33.1 C 44 % 19.2 C
1097 24-06-2019 19:20:00 33.1 C 44 % 19.2 C
1098 24-06-2019 19:25:00 32.8 C 44 % 18.93 C
1099 24-06-2019 19:30:00 32.3 C 44 % 18.48 C
1100 24-06-2019 19:35:00 31.9 C 47 % 19.18 C
Sensor: Nr:Datum:Temp:Feuchte:Taupunkt:
Aussen-T/F 1101 24-06-2019 19:40:00 31.7 C 47 % 19 C
1102 24-06-2019 19:45:00 31.6 C 47 % 18.91 C
1103 24-06-2019 19:50:00 31.4 C 48 % 19.06 C
1104 24-06-2019 19:55:00 31.3 C 48 % 18.97 C
1105 24-06-2019 20:00:00 31.2 C 49 % 19.21 C
1106 24-06-2019 20:05:00 31.1 C 49 % 19.12 C
1107 24-06-2019 20:10:00 31.1 C 49 % 19.12 C
1108 24-06-2019 20:15:00 31 C 49 % 19.03 C
1109 24-06-2019 20:20:00 31 C 49 % 19.03 C
1110 24-06-2019 20:25:00 30.9 C 49 % 18.94 C
1111 24-06-2019 20:30:00 30.8 C 49 % 18.85 C
1112 24-06-2019 20:35:00 30.6 C 50 % 18.99 C
1113 24-06-2019 20:40:00 30.4 C 51 % 19.12 C
1114 24-06-2019 20:45:00 30.3 C 52 % 19.34 C
1115 24-06-2019 20:50:00 29.9 C 54 % 19.58 C
1116 24-06-2019 20:55:00 29.4 C 56 % 19.7 C
1117 24-06-2019 21:00:00 29.2 C 59 % 20.36 C
1118 24-06-2019 21:05:00 28.8 C 59 % 19.99 C
1119 24-06-2019 21:10:00 28.3 C 60 % 19.79 C
1120 24-06-2019 21:15:00 27.8 C 62 % 19.85 C
1121 24-06-2019 21:20:00 27.3 C 62 % 19.38 C
1122 24-06-2019 21:25:00 26.8 C 64 % 19.42 C
1123 24-06-2019 21:30:00 26.4 C 64 % 19.04 C
1124 24-06-2019 21:35:00 26 C 66 % 19.15 C
1125 24-06-2019 21:40:00 25.7 C 66 % 18.87 C
Sensor: Nr:Datum:Temp:Feuchte:Taupunkt:
Aussen-T/F 1126 24-06-2019 21:45:00 25.4 C 67 % 18.82 C
1127 24-06-2019 21:50:00 25.2 C 68 % 18.87 C
1128 24-06-2019 21:55:00 24.9 C 68 % 18.59 C
1129 24-06-2019 22:00:00 24.7 C 69 % 18.63 C
1130 24-06-2019 22:05:00 24.6 C 69 % 18.53 C
1131 24-06-2019 22:10:00 24.4 C 70 % 18.57 C
1132 24-06-2019 22:15:00 24.3 C 70 % 18.48 C
1133 24-06-2019 22:20:00 24.1 C 71 % 18.51 C
1134 24-06-2019 22:25:00 24 C 71 % 18.42 C
1135 24-06-2019 22:30:00 23.9 C 71 % 18.32 C
1136 24-06-2019 22:35:00 23.8 C 71 % 18.22 C
1137 24-06-2019 22:40:00 23.7 C 71 % 18.13 C
1138 24-06-2019 22:45:00 23.6 C 73 % 18.48 C
1139 24-06-2019 22:50:00 23.5 C 73 % 18.38 C
1140 24-06-2019 22:55:00 23.3 C 73 % 18.19 C
1141 24-06-2019 23:00:00 23.2 C 73 % 18.09 C
1142 24-06-2019 23:05:00 23.1 C 73 % 17.99 C
1143 24-06-2019 23:10:00 22.9 C 73 % 17.8 C
1144 24-06-2019 23:15:00 22.9 C 73 % 17.8 C
1145 24-06-2019 23:20:00 22.8 C 74 % 17.92 C
1146 24-06-2019 23:25:00 22.7 C 74 % 17.83 C
1147 24-06-2019 23:30:00 22.7 C 74 % 17.83 C
1148 24-06-2019 23:35:00 22.6 C 75 % 17.94 C
1149 24-06-2019 23:40:00 22.4 C 74 % 17.54 C
1150 24-06-2019 23:45:00 22.4 C 75 % 17.75 C
Sensor: Nr:Datum:Temp:Feuchte:Taupunkt:
Aussen-T/F 1151 24-06-2019 23:50:00 22.3 C 75 % 17.65 C
1152 24-06-2019 23:55:00 22.2 C 75 % 17.56 C
1153 25-06-2019 00:00:00 22.1 C 76 % 17.67 C
1154 25-06-2019 00:05:00 21.9 C 76 % 17.48 C
1155 25-06-2019 00:10:00 21.8 C 76 % 17.38 C
1156 25-06-2019 00:15:00 21.6 C 77 % 17.39 C
1157 25-06-2019 00:20:00 21.4 C 77 % 17.2 C
1158 25-06-2019 00:25:00 21.3 C 77 % 17.1 C
1159 25-06-2019 00:30:00 21.3 C 78 % 17.31 C
1160 25-06-2019 00:35:00 21.2 C 78 % 17.21 C
1161 25-06-2019 00:40:00 21.2 C 78 % 17.21 C
1162 25-06-2019 00:45:00 21.1 C 79 % 17.32 C
1163 25-06-2019 00:50:00 21 C 79 % 17.22 C
1164 25-06-2019 00:55:00 20.9 C 79 % 17.12 C
1165 25-06-2019 01:00:00 20.8 C 80 % 17.22 C
1166 25-06-2019 01:05:00 20.7 C 80 % 17.13 C
1167 25-06-2019 01:10:00 20.7 C 80 % 17.13 C
1168 25-06-2019 01:15:00 20.6 C 80 % 17.03 C
1169 25-06-2019 01:20:00 20.6 C 81 % 17.22 C
1170 25-06-2019 01:25:00 20.5 C 81 % 17.13 C
1171 25-06-2019 01:30:00 20.4 C 81 % 17.03 C
1172 25-06-2019 01:35:00 20.3 C 81 % 16.93 C
1173 25-06-2019 01:40:00 20.3 C 81 % 16.93 C
1174 25-06-2019 01:45:00 20.2 C 81 % 16.84 C
1175 25-06-2019 01:50:00 20.1 C 82 % 16.93 C
Sensor: Nr:Datum:Temp:Feuchte:Taupunkt:
Aussen-T/F 1176 25-06-2019 01:55:00 19.9 C 82 % 16.74 C
1177 25-06-2019 02:00:00 19.8 C 82 % 16.64 C
1178 25-06-2019 02:05:00 19.8 C 83 % 16.83 C
1179 25-06-2019 02:10:00 19.7 C 83 % 16.73 C
1180 25-06-2019 02:15:00 19.6 C 83 % 16.63 C
1181 25-06-2019 02:20:00 19.4 C 84 % 16.63 C
1182 25-06-2019 02:25:00 19.3 C 84 % 16.53 C
1183 25-06-2019 02:30:00 19.3 C 84 % 16.53 C
1184 25-06-2019 02:35:00 19.2 C 84 % 16.43 C
1185 25-06-2019 02:40:00 19.2 C 84 % 16.43 C
1186 25-06-2019 02:45:00 19.1 C 84 % 16.33 C
1187 25-06-2019 02:50:00 19 C 84 % 16.24 C
1188 25-06-2019 02:55:00 18.9 C 84 % 16.14 C
1189 25-06-2019 03:00:00 18.8 C 85 % 16.23 C
1190 25-06-2019 03:05:00 18.7 C 85 % 16.13 C
1191 25-06-2019 03:10:00 18.7 C 85 % 16.13 C
1192 25-06-2019 03:15:00 18.6 C 85 % 16.03 C
1193 25-06-2019 03:20:00 18.6 C 85 % 16.03 C
1194 25-06-2019 03:25:00 18.6 C 86 % 16.21 C
1195 25-06-2019 03:30:00 18.4 C 85 % 15.83 C
1196 25-06-2019 03:35:00 18.4 C 86 % 16.02 C
1197 25-06-2019 03:40:00 18.3 C 86 % 15.92 C
1198 25-06-2019 03:45:00 18.2 C 86 % 15.82 C
1199 25-06-2019 03:50:00 18.2 C 86 % 15.82 C
1200 25-06-2019 03:55:00 18.1 C 87 % 15.9 C
Sensor: Nr:Datum:Temp:Feuchte:Taupunkt:
Aussen-T/F 1201 25-06-2019 04:00:00 18 C 87 % 15.8 C
1202 25-06-2019 04:05:00 17.9 C 87 % 15.71 C
1203 25-06-2019 04:10:00 17.9 C 88 % 15.88 C
1204 25-06-2019 04:15:00 17.9 C 88 % 15.88 C
1205 25-06-2019 04:20:00 17.9 C 88 % 15.88 C
1206 25-06-2019 04:25:00 17.9 C 88 % 15.88 C
1207 25-06-2019 04:30:00 17.8 C 88 % 15.79 C
1208 25-06-2019 04:35:00 17.8 C 88 % 15.79 C
1209 25-06-2019 04:40:00 17.8 C 88 % 15.79 C
1210 25-06-2019 04:45:00 17.7 C 89 % 15.86 C
1211 25-06-2019 04:50:00 17.7 C 89 % 15.86 C
1212 25-06-2019 04:55:00 17.6 C 89 % 15.77 C
1213 25-06-2019 05:00:00 17.7 C 89 % 15.86 C
1214 25-06-2019 05:05:00 17.7 C 89 % 15.86 C
1215 25-06-2019 05:10:00 17.7 C 89 % 15.86 C
1216 25-06-2019 05:15:00 17.6 C 89 % 15.77 C
1217 25-06-2019 05:20:00 17.6 C 89 % 15.77 C
1218 25-06-2019 05:25:00 17.5 C 89 % 15.67 C
1219 25-06-2019 05:30:00 17.4 C 89 % 15.57 C
1220 25-06-2019 05:35:00 17.4 C 89 % 15.57 C
1221 25-06-2019 05:40:00 17.4 C 90 % 15.74 C
1222 25-06-2019 05:45:00 17.4 C 90 % 15.74 C
1223 25-06-2019 05:50:00 17.4 C 90 % 15.74 C
1224 25-06-2019 05:55:00 17.4 C 91 % 15.92 C
1225 25-06-2019 06:00:00 17.5 C 91 % 16.01 C
Sensor: Nr:Datum:Temp:Feuchte:Taupunkt:
Aussen-T/F 1226 25-06-2019 06:05:00 17.6 C 91 % 16.11 C
1227 25-06-2019 06:10:00 17.6 C 91 % 16.11 C
1228 25-06-2019 06:15:00 17.6 C 91 % 16.11 C
1229 25-06-2019 06:20:00 17.7 C 91 % 16.21 C
1230 25-06-2019 06:25:00 17.8 C 91 % 16.31 C
1231 25-06-2019 06:30:00 17.8 C 91 % 16.31 C
1232 25-06-2019 06:35:00 17.9 C 91 % 16.41 C
1233 25-06-2019 06:40:00 17.9 C 91 % 16.41 C
1234 25-06-2019 06:45:00 17.9 C 91 % 16.41 C
1235 25-06-2019 06:50:00 17.9 C 90 % 16.24 C
1236 25-06-2019 06:55:00 18 C 90 % 16.34 C
1237 25-06-2019 07:00:00 18 C 90 % 16.34 C
1238 25-06-2019 07:05:00 18.1 C 90 % 16.43 C
1239 25-06-2019 07:10:00 18.1 C 91 % 16.61 C
1240 25-06-2019 07:15:00 18.2 C 91 % 16.71 C
1241 25-06-2019 07:20:00 18.3 C 91 % 16.81 C
1242 25-06-2019 07:25:00 18.3 C 91 % 16.81 C
1243 25-06-2019 07:30:00 18.4 C 91 % 16.9 C
1244 25-06-2019 07:35:00 18.5 C 91 % 17 C
1245 25-06-2019 07:40:00 18.7 C 91 % 17.2 C
1246 25-06-2019 07:45:00 18.8 C 91 % 17.3 C
1247 25-06-2019 07:50:00 18.9 C 90 % 17.22 C
1248 25-06-2019 07:55:00 19 C 90 % 17.32 C
1249 25-06-2019 08:00:00 19.2 C 90 % 17.52 C
1250 25-06-2019 08:05:00 19.3 C 90 % 17.62 C
Sensor: Nr:Datum:Temp:Feuchte:Taupunkt:
Aussen-T/F 1251 25-06-2019 08:10:00 19.4 C 90 % 17.72 C
1252 25-06-2019 08:15:00 19.6 C 89 % 17.74 C
1253 25-06-2019 08:20:00 19.8 C 89 % 17.93 C
1254 25-06-2019 08:25:00 20 C 89 % 18.13 C
1255 25-06-2019 08:30:00 20.2 C 88 % 18.15 C
1256 25-06-2019 08:35:00 20.4 C 88 % 18.34 C
1257 25-06-2019 08:40:00 20.6 C 88 % 18.54 C
1258 25-06-2019 08:45:00 20.7 C 87 % 18.46 C
1259 25-06-2019 08:50:00 20.9 C 87 % 18.65 C
1260 25-06-2019 08:55:00 21.1 C 87 % 18.85 C
1261 25-06-2019 09:00:00 21.2 C 87 % 18.95 C
1262 25-06-2019 09:05:00 21.4 C 87 % 19.15 C
1263 25-06-2019 09:10:00 21.6 C 85 % 18.97 C
1264 25-06-2019 09:15:00 21.7 C 85 % 19.07 C
1265 25-06-2019 09:20:00 21.9 C 85 % 19.26 C
1266 25-06-2019 09:25:00 22.1 C 82 % 18.88 C
1267 25-06-2019 09:30:00 22.4 C 84 % 19.56 C
1268 25-06-2019 09:35:00 22.7 C 83 % 19.66 C
1269 25-06-2019 09:40:00 23.2 C 80 % 19.56 C
1270 25-06-2019 09:45:00 23.7 C 76 % 19.22 C
1271 25-06-2019 09:50:00 24.2 C 73 % 19.05 C
1272 25-06-2019 09:55:00 24.7 C 74 % 19.75 C
1273 25-06-2019 10:00:00 25.1 C 71 % 19.47 C
1274 25-06-2019 10:05:00 25.4 C 69 % 19.3 C
1275 25-06-2019 10:10:00 25.7 C 68 % 19.35 C
Sensor: Nr:Datum:Temp:Feuchte:Taupunkt:
Aussen-T/F 1276 25-06-2019 10:15:00 25.9 C 68 % 19.54 C
1277 25-06-2019 10:20:00 26.2 C 69 % 20.06 C
1278 25-06-2019 10:25:00 26.4 C 66 % 19.53 C
1279 25-06-2019 10:30:00 26.7 C 64 % 19.32 C
1280 25-06-2019 10:35:00 26.9 C 62 % 19 C
1281 25-06-2019 10:40:00 27.1 C 64 % 19.7 C
1282 25-06-2019 10:45:00 27.3 C 62 % 19.38 C
1283 25-06-2019 10:50:00 27.5 C 64 % 20.08 C
1284 25-06-2019 10:55:00 27.4 C 62 % 19.47 C
1285 25-06-2019 11:00:00 27.3 C 62 % 19.38 C
1286 25-06-2019 11:05:00 27.3 C 63 % 19.63 C
1287 25-06-2019 11:10:00 27.4 C 61 % 19.21 C
1288 25-06-2019 11:15:00 27.8 C 60 % 19.32 C
1289 25-06-2019 11:20:00 28 C 59 % 19.24 C
1290 25-06-2019 11:25:00 28.1 C 59 % 19.33 C
1291 25-06-2019 11:30:00 28.2 C 58 % 19.15 C
1292 25-06-2019 11:35:00 28.3 C 58 % 19.24 C
1293 25-06-2019 11:40:00 28.6 C 58 % 19.52 C
1294 25-06-2019 11:45:00 28.5 C 58 % 19.43 C
1295 25-06-2019 11:50:00 28.5 C 58 % 19.43 C
1296 25-06-2019 11:55:00 28.7 C 57 % 19.34 C
1297 25-06-2019 12:00:00 28.8 C 57 % 19.43 C
1298 25-06-2019 12:05:00 29.1 C 57 % 19.71 C
1299 25-06-2019 12:10:00 29.1 C 57 % 19.71 C
1300 25-06-2019 12:15:00 29.1 C 57 % 19.71 C
Sensor: Nr:Datum:Temp:Feuchte:Taupunkt:
Aussen-T/F 1301 25-06-2019 12:20:00 29.2 C 56 % 19.52 C
1302 25-06-2019 12:25:00 29.3 C 56 % 19.61 C
1303 25-06-2019 12:30:00 29.6 C 55 % 19.6 C
1304 25-06-2019 12:35:00 29.7 C 55 % 19.69 C
1305 25-06-2019 12:40:00 29.9 C 55 % 19.88 C
1306 25-06-2019 12:45:00 30.1 C 54 % 19.76 C
1307 25-06-2019 12:50:00 30.2 C 55 % 20.15 C
1308 25-06-2019 12:55:00 30.1 C 56 % 20.35 C
1309 25-06-2019 13:00:00 30.2 C 55 % 20.15 C
1310 25-06-2019 13:05:00 30.3 C 54 % 19.95 C
1311 25-06-2019 13:10:00 30.6 C 53 % 19.92 C
1312 25-06-2019 13:15:00 30.8 C 53 % 20.11 C
1313 25-06-2019 13:20:00 31 C 52 % 19.98 C
1314 25-06-2019 13:25:00 31.1 C 52 % 20.08 C
1315 25-06-2019 13:30:00 31.2 C 53 % 20.48 C
1316 25-06-2019 13:35:00 31.3 C 51 % 19.95 C
1317 25-06-2019 13:40:00 31.4 C 52 % 20.35 C
1318 25-06-2019 13:45:00 31.7 C 49 % 19.67 C
1319 25-06-2019 13:50:00 31.8 C 50 % 20.08 C
1320 25-06-2019 13:55:00 31.8 C 50 % 20.08 C
1321 25-06-2019 14:00:00 31.9 C 49 % 19.85 C
1322 25-06-2019 14:05:00 32.2 C 49 % 20.12 C
1323 25-06-2019 14:10:00 32.3 C 47 % 19.54 C
1324 25-06-2019 14:15:00 32.4 C 47 % 19.63 C
1325 25-06-2019 14:20:00 32.5 C 49 % 20.4 C
Sensor: Nr:Datum:Temp:Feuchte:Taupunkt:
Aussen-T/F 1326 25-06-2019 14:25:00 32.6 C 47 % 19.81 C
1327 25-06-2019 14:30:00 32.8 C 46 % 19.65 C
1328 25-06-2019 14:35:00 32.9 C 47 % 20.09 C
1329 25-06-2019 14:40:00 33.1 C 45 % 19.57 C
1330 25-06-2019 14:45:00 33.3 C 45 % 19.75 C
1331 25-06-2019 14:50:00 33.4 C 47 % 20.54 C
1332 25-06-2019 14:55:00 33.7 C 45 % 20.11 C
1333 25-06-2019 15:00:00 33.9 C 44 % 19.92 C
1334 25-06-2019 15:05:00 34 C 46 % 20.73 C
1335 25-06-2019 15:10:00 34.2 C 42 % 19.44 C
1336 25-06-2019 15:15:00 34.4 C 42 % 19.62 C
1337 25-06-2019 15:20:00 34.8 C 44 % 20.73 C
1338 25-06-2019 15:25:00 34.8 C 41 % 19.59 C
1339 25-06-2019 15:30:00 34.9 C 43 % 20.45 C
1340 25-06-2019 15:35:00 35.2 C 41 % 19.95 C
1341 25-06-2019 15:40:00 35.4 C 42 % 20.52 C
1342 25-06-2019 15:45:00 35.7 C 40 % 19.99 C
1343 25-06-2019 15:50:00 35.9 C 38 % 19.35 C
1344 25-06-2019 15:55:00 35.8 C 38 % 19.26 C
1345 25-06-2019 16:00:00 35.9 C 39 % 19.76 C
1346 25-06-2019 16:05:00 36.4 C 38 % 19.79 C
1347 25-06-2019 16:10:00 36.2 C 40 % 20.44 C
1348 25-06-2019 16:15:00 36.1 C 39 % 19.94 C
1349 25-06-2019 16:20:00 36.3 C 40 % 20.53 C
1350 25-06-2019 16:25:00 36.6 C 37 % 19.53 C
Sensor: Nr:Datum:Temp:Feuchte:Taupunkt:
Aussen-T/F 1351 25-06-2019 16:30:00 36.8 C 36 % 19.27 C
1352 25-06-2019 16:35:00 36.7 C 38 % 20.05 C
1353 25-06-2019 16:40:00 36.4 C 38 % 19.79 C
1354 25-06-2019 16:45:00 36.4 C 40 % 20.62 C
1355 25-06-2019 16:50:00 36.7 C 37 % 19.62 C
1356 25-06-2019 16:55:00 37 C 35 % 18.99 C
1357 25-06-2019 17:00:00 37.4 C 38 % 20.67 C
1358 25-06-2019 17:05:00 37.7 C 33 % 18.66 C
1359 25-06-2019 17:10:00 37.7 C 32 % 18.17 C
1360 25-06-2019 17:15:00 37.7 C 32 % 18.17 C
1361 25-06-2019 17:20:00 37.7 C 31 % 17.66 C
1362 25-06-2019 17:25:00 37.6 C 31 % 17.58 C
1363 25-06-2019 17:30:00 37.6 C 31 % 17.58 C
1364 25-06-2019 17:35:00 37.6 C 33 % 18.57 C
1365 25-06-2019 17:40:00 37.7 C 32 % 18.17 C
1366 25-06-2019 17:45:00 37.9 C 33 % 18.83 C
1367 25-06-2019 17:50:00 37.9 C 35 % 19.78 C
1368 25-06-2019 17:55:00 37.8 C 34 % 19.22 C
1369 25-06-2019 18:00:00 37.6 C 32 % 18.08 C
1370 25-06-2019 18:05:00 37.3 C 33 % 18.31 C
1371 25-06-2019 18:10:00 37.2 C 34 % 18.7 C
1372 25-06-2019 18:15:00 37.1 C 33 % 18.14 C
1373 25-06-2019 18:20:00 37.2 C 34 % 18.7 C
1374 25-06-2019 18:25:00 37.3 C 33 % 18.31 C
1375 25-06-2019 18:30:00 37.3 C 36 % 19.71 C
Sensor: Nr:Datum:Temp:Feuchte:Taupunkt:
Aussen-T/F 1376 25-06-2019 18:35:00 36.8 C 36 % 19.27 C
1377 25-06-2019 18:40:00 36.4 C 40 % 20.62 C
1378 25-06-2019 18:45:00 36 C 42 % 21.05 C
1379 25-06-2019 18:50:00 35.5 C 43 % 20.99 C
1380 25-06-2019 18:55:00 34.9 C 45 % 21.19 C
1381 25-06-2019 19:00:00 34.3 C 47 % 21.36 C
1382 25-06-2019 19:05:00 34 C 50 % 22.1 C
1383 25-06-2019 19:10:00 33.9 C 48 % 21.34 C
1384 25-06-2019 19:15:00 33.9 C 50 % 22.01 C
1385 25-06-2019 19:20:00 34 C 51 % 22.42 C
1386 25-06-2019 19:25:00 34.2 C 48 % 21.61 C
1387 25-06-2019 19:30:00 34.3 C 49 % 22.04 C
1388 25-06-2019 19:35:00 34.4 C 47 % 21.45 C
1389 25-06-2019 19:40:00 34.5 C 49 % 22.22 C
1390 25-06-2019 19:45:00 34.5 C 47 % 21.54 C
1391 25-06-2019 19:50:00 34.4 C 48 % 21.79 C
1392 25-06-2019 19:55:00 34.3 C 48 % 21.7 C
1393 25-06-2019 20:00:00 34 C 50 % 22.1 C
1394 25-06-2019 20:05:00 33.7 C 49 % 21.49 C
1395 25-06-2019 20:10:00 33.3 C 50 % 21.46 C
1396 25-06-2019 20:15:00 32.9 C 50 % 21.09 C
1397 25-06-2019 20:20:00 32.4 C 50 % 20.63 C
1398 25-06-2019 20:25:00 31.9 C 52 % 20.81 C
1399 25-06-2019 20:30:00 31.4 C 52 % 20.35 C
1400 25-06-2019 20:35:00 31 C 53 % 20.29 C
Sensor: Nr:Datum:Temp:Feuchte:Taupunkt:
Aussen-T/F 1401 25-06-2019 20:40:00 30.6 C 54 % 20.23 C
1402 25-06-2019 20:45:00 30.3 C 54 % 19.95 C
1403 25-06-2019 20:50:00 30.1 C 56 % 20.35 C
1404 25-06-2019 20:55:00 29.8 C 56 % 20.07 C
1405 25-06-2019 21:00:00 29.6 C 57 % 20.17 C
1406 25-06-2019 21:05:00 29.3 C 57 % 19.89 C
1407 25-06-2019 21:10:00 29 C 57 % 19.62 C
1408 25-06-2019 21:15:00 28.7 C 58 % 19.62 C
1409 25-06-2019 21:20:00 28.4 C 58 % 19.34 C
1410 25-06-2019 21:25:00 28.1 C 59 % 19.33 C
1411 25-06-2019 21:30:00 27.8 C 59 % 19.05 C
1412 25-06-2019 21:35:00 27.6 C 59 % 18.86 C
1413 25-06-2019 21:40:00 27.3 C 60 % 18.85 C
1414 25-06-2019 21:45:00 27.1 C 61 % 18.93 C
1415 25-06-2019 21:50:00 26.8 C 61 % 18.65 C
1416 25-06-2019 21:55:00 26.6 C 61 % 18.46 C
1417 25-06-2019 22:00:00 26.4 C 61 % 18.27 C
1418 25-06-2019 22:05:00 26.2 C 62 % 18.34 C
1419 25-06-2019 22:10:00 26.1 C 63 % 18.5 C
1420 25-06-2019 22:15:00 25.9 C 63 % 18.31 C
1421 25-06-2019 22:20:00 25.8 C 64 % 18.47 C
1422 25-06-2019 22:25:00 25.7 C 64 % 18.38 C
1423 25-06-2019 22:30:00 25.6 C 64 % 18.28 C
1424 25-06-2019 22:35:00 25.4 C 65 % 18.34 C
1425 25-06-2019 22:40:00 25.3 C 65 % 18.25 C
Sensor: Nr:Datum:Temp:Feuchte:Taupunkt:
Aussen-T/F 1426 25-06-2019 22:45:00 25.2 C 65 % 18.15 C
1427 25-06-2019 22:50:00 24.9 C 66 % 18.11 C
1428 25-06-2019 22:55:00 24.8 C 66 % 18.01 C
1429 25-06-2019 23:00:00 24.6 C 66 % 17.83 C
1430 25-06-2019 23:05:00 24.4 C 67 % 17.87 C
1431 25-06-2019 23:10:00 24.2 C 67 % 17.68 C
1432 25-06-2019 23:15:00 24.1 C 67 % 17.59 C
1433 25-06-2019 23:20:00 24.1 C 66 % 17.35 C
1434 25-06-2019 23:25:00 24.1 C 66 % 17.35 C
1435 25-06-2019 23:30:00 24 C 66 % 17.26 C
1436 25-06-2019 23:35:00 24 C 65 % 17.01 C
1437 25-06-2019 23:40:00 24.1 C 65 % 17.11 C
1438 25-06-2019 23:45:00 24.1 C 65 % 17.11 C
1439 25-06-2019 23:50:00 24.1 C 65 % 17.11 C
1440 25-06-2019 23:55:00 24.1 C 66 % 17.35 C
1441 26-06-2019 00:00:00 23.9 C 67 % 17.4 C
1442 26-06-2019 00:05:00 23.8 C 66 % 17.07 C
1443 26-06-2019 00:10:00 23.7 C 68 % 17.44 C
1444 26-06-2019 00:15:00 23.6 C 69 % 17.58 C
1445 26-06-2019 00:20:00 23.5 C 70 % 17.71 C
1446 26-06-2019 00:25:00 23.4 C 70 % 17.62 C
1447 26-06-2019 00:30:00 23.3 C 69 % 17.29 C
1448 26-06-2019 00:35:00 23.3 C 70 % 17.52 C
1449 26-06-2019 00:40:00 23.2 C 70 % 17.42 C
1450 26-06-2019 00:45:00 23.1 C 71 % 17.55 C
Sensor: Nr:Datum:Temp:Feuchte:Taupunkt:
Aussen-T/F 1451 26-06-2019 00:50:00 23.1 C 72 % 17.78 C
1452 26-06-2019 00:55:00 23.1 C 72 % 17.78 C
1453 26-06-2019 01:00:00 22.9 C 72 % 17.58 C
1454 26-06-2019 01:05:00 22.9 C 73 % 17.8 C
1455 26-06-2019 01:10:00 22.9 C 73 % 17.8 C
1456 26-06-2019 01:15:00 22.8 C 72 % 17.49 C
1457 26-06-2019 01:20:00 22.7 C 72 % 17.39 C
1458 26-06-2019 01:25:00 22.5 C 73 % 17.42 C
1459 26-06-2019 01:30:00 22.3 C 74 % 17.44 C
1460 26-06-2019 01:35:00 22.1 C 75 % 17.46 C
1461 26-06-2019 01:40:00 22 C 76 % 17.57 C
1462 26-06-2019 01:45:00 21.9 C 76 % 17.48 C
1463 26-06-2019 01:50:00 21.8 C 77 % 17.59 C
1464 26-06-2019 01:55:00 21.8 C 77 % 17.59 C
1465 26-06-2019 02:00:00 21.7 C 77 % 17.49 C
1466 26-06-2019 02:05:00 21.6 C 77 % 17.39 C
1467 26-06-2019 02:10:00 21.5 C 78 % 17.5 C
1468 26-06-2019 02:15:00 21.3 C 78 % 17.31 C
1469 26-06-2019 02:20:00 21.3 C 79 % 17.51 C
1470 26-06-2019 02:25:00 21.2 C 79 % 17.41 C
1471 26-06-2019 02:30:00 21.2 C 79 % 17.41 C
1472 26-06-2019 02:35:00 21.1 C 79 % 17.32 C
1473 26-06-2019 02:40:00 21 C 80 % 17.42 C
1474 26-06-2019 02:45:00 20.9 C 80 % 17.32 C
1475 26-06-2019 02:50:00 20.9 C 81 % 17.52 C
Sensor: Nr:Datum:Temp:Feuchte:Taupunkt:
Aussen-T/F 1476 26-06-2019 02:55:00 20.8 C 81 % 17.42 C
1477 26-06-2019 03:00:00 20.8 C 81 % 17.42 C
1478 26-06-2019 03:05:00 20.7 C 81 % 17.32 C
1479 26-06-2019 03:10:00 20.7 C 81 % 17.32 C
1480 26-06-2019 03:15:00 20.7 C 82 % 17.52 C
1481 26-06-2019 03:20:00 20.7 C 82 % 17.52 C
1482 26-06-2019 03:25:00 20.7 C 82 % 17.52 C
1483 26-06-2019 03:30:00 20.7 C 82 % 17.52 C
1484 26-06-2019 03:35:00 20.6 C 82 % 17.42 C
1485 26-06-2019 03:40:00 20.4 C 82 % 17.22 C
1486 26-06-2019 03:45:00 20.3 C 82 % 17.13 C
1487 26-06-2019 03:50:00 20.3 C 83 % 17.32 C
1488 26-06-2019 03:55:00 20.3 C 83 % 17.32 C
1489 26-06-2019 04:00:00 20.3 C 83 % 17.32 C
1490 26-06-2019 04:05:00 20.2 C 83 % 17.22 C
1491 26-06-2019 04:10:00 20.1 C 83 % 17.12 C
1492 26-06-2019 04:15:00 19.9 C 83 % 16.93 C
1493 26-06-2019 04:20:00 19.9 C 84 % 17.12 C
1494 26-06-2019 04:25:00 19.8 C 85 % 17.21 C
1495 26-06-2019 04:30:00 19.8 C 85 % 17.21 C
1496 26-06-2019 04:35:00 19.7 C 85 % 17.11 C
1497 26-06-2019 04:40:00 19.6 C 85 % 17.01 C
1498 26-06-2019 04:45:00 19.6 C 85 % 17.01 C
1499 26-06-2019 04:50:00 19.5 C 86 % 17.1 C
1500 26-06-2019 04:55:00 19.5 C 86 % 17.1 C
Sensor: Nr:Datum:Temp:Feuchte:Taupunkt:
Aussen-T/F 1501 26-06-2019 05:00:00 19.4 C 86 % 17 C
1502 26-06-2019 05:05:00 19.4 C 86 % 17 C
1503 26-06-2019 05:10:00 19.4 C 87 % 17.18 C
1504 26-06-2019 05:15:00 19.5 C 86 % 17.1 C
1505 26-06-2019 05:20:00 19.6 C 86 % 17.19 C
1506 26-06-2019 05:25:00 19.6 C 86 % 17.19 C
1507 26-06-2019 05:30:00 19.5 C 86 % 17.1 C
1508 26-06-2019 05:35:00 19.5 C 87 % 17.28 C
1509 26-06-2019 05:40:00 19.5 C 87 % 17.28 C
1510 26-06-2019 05:45:00 19.5 C 87 % 17.28 C
1511 26-06-2019 05:50:00 19.4 C 87 % 17.18 C
1512 26-06-2019 05:55:00 19.4 C 87 % 17.18 C
1513 26-06-2019 06:00:00 19.5 C 87 % 17.28 C
1514 26-06-2019 06:05:00 19.4 C 87 % 17.18 C
1515 26-06-2019 06:10:00 19.4 C 88 % 17.36 C
1516 26-06-2019 06:15:00 19.4 C 88 % 17.36 C
1517 26-06-2019 06:20:00 19.5 C 88 % 17.46 C
1518 26-06-2019 06:25:00 19.5 C 88 % 17.46 C
1519 26-06-2019 06:30:00 19.6 C 88 % 17.56 C
1520 26-06-2019 06:35:00 19.6 C 88 % 17.56 C
1521 26-06-2019 06:40:00 19.7 C 88 % 17.66 C
1522 26-06-2019 06:45:00 19.7 C 88 % 17.66 C
1523 26-06-2019 06:50:00 19.8 C 88 % 17.75 C
1524 26-06-2019 06:55:00 19.8 C 88 % 17.75 C
1525 26-06-2019 07:00:00 19.8 C 88 % 17.75 C
Sensor: Nr:Datum:Temp:Feuchte:Taupunkt:
Aussen-T/F 1526 26-06-2019 07:05:00 19.9 C 88 % 17.85 C
1527 26-06-2019 07:10:00 20 C 88 % 17.95 C
1528 26-06-2019 07:15:00 20.1 C 88 % 18.05 C
1529 26-06-2019 07:20:00 20.2 C 88 % 18.15 C
1530 26-06-2019 07:25:00 20.2 C 88 % 18.15 C
1531 26-06-2019 07:30:00 20.3 C 88 % 18.25 C
1532 26-06-2019 07:35:00 20.4 C 88 % 18.34 C
1533 26-06-2019 07:40:00 20.5 C 88 % 18.44 C
1534 26-06-2019 07:45:00 20.6 C 89 % 18.72 C
1535 26-06-2019 07:50:00 20.7 C 88 % 18.64 C
1536 26-06-2019 07:55:00 20.8 C 89 % 18.92 C
1537 26-06-2019 08:00:00 20.9 C 89 % 19.02 C
1538 26-06-2019 08:05:00 21.1 C 88 % 19.03 C
1539 26-06-2019 08:10:00 21.2 C 87 % 18.95 C
1540 26-06-2019 08:15:00 21.4 C 88 % 19.33 C
1541 26-06-2019 08:20:00 21.6 C 88 % 19.53 C
1542 26-06-2019 08:25:00 21.7 C 88 % 19.62 C
1543 26-06-2019 08:30:00 21.9 C 88 % 19.82 C
1544 26-06-2019 08:35:00 22.1 C 88 % 20.02 C
1545 26-06-2019 08:40:00 22.3 C 88 % 20.21 C
1546 26-06-2019 08:45:00 22.6 C 87 % 20.32 C
1547 26-06-2019 08:50:00 22.8 C 88 % 20.71 C
1548 26-06-2019 08:55:00 23.1 C 87 % 20.82 C
1549 26-06-2019 09:00:00 23.2 C 88 % 21.1 C
1550 26-06-2019 09:05:00 23.4 C 88 % 21.3 C
Sensor: Nr:Datum:Temp:Feuchte:Taupunkt:
Aussen-T/F 1551 26-06-2019 09:10:00 23.6 C 86 % 21.12 C
1552 26-06-2019 09:15:00 23.9 C 86 % 21.41 C
1553 26-06-2019 09:20:00 24.2 C 85 % 21.52 C
1554 26-06-2019 09:25:00 24.4 C 84 % 21.52 C
1555 26-06-2019 09:30:00 24.8 C 83 % 21.71 C
1556 26-06-2019 09:35:00 25.1 C 81 % 21.61 C
1557 26-06-2019 09:40:00 25.4 C 80 % 21.7 C
1558 26-06-2019 09:45:00 25.7 C 79 % 21.78 C
1559 26-06-2019 09:50:00 25.9 C 78 % 21.77 C
1560 26-06-2019 09:55:00 26.1 C 78 % 21.96 C
1561 26-06-2019 10:00:00 26.2 C 77 % 21.84 C
1562 26-06-2019 10:05:00 26.3 C 76 % 21.73 C
1563 26-06-2019 10:10:00 26.5 C 76 % 21.92 C
1564 26-06-2019 10:15:00 26.7 C 75 % 21.9 C
1565 26-06-2019 10:20:00 26.8 C 76 % 22.21 C
1566 26-06-2019 10:25:00 27.1 C 74 % 22.06 C
1567 26-06-2019 10:30:00 27.3 C 75 % 22.47 C
1568 26-06-2019 10:35:00 27.6 C 74 % 22.54 C
1569 26-06-2019 10:40:00 27.9 C 72 % 22.38 C
1570 26-06-2019 10:45:00 28.1 C 72 % 22.57 C
1571 26-06-2019 10:50:00 28.2 C 71 % 22.44 C
1572 26-06-2019 10:55:00 28.3 C 71 % 22.53 C
1573 26-06-2019 11:00:00 28.4 C 70 % 22.39 C
1574 26-06-2019 11:05:00 28.5 C 70 % 22.49 C
1575 26-06-2019 11:10:00 28.6 C 69 % 22.35 C
Sensor: Nr:Datum:Temp:Feuchte:Taupunkt:
Aussen-T/F 1576 26-06-2019 11:15:00 28.7 C 69 % 22.44 C
1577 26-06-2019 11:20:00 28.8 C 68 % 22.3 C
1578 26-06-2019 11:25:00 28.9 C 69 % 22.63 C
1579 26-06-2019 11:30:00 28.9 C 68 % 22.39 C
1580 26-06-2019 11:35:00 29.1 C 67 % 22.34 C
1581 26-06-2019 11:40:00 29.2 C 67 % 22.44 C
1582 26-06-2019 11:45:00 29.3 C 67 % 22.53 C
1583 26-06-2019 11:50:00 29.4 C 67 % 22.63 C
1584 26-06-2019 11:55:00 29.6 C 67 % 22.82 C
1585 26-06-2019 12:00:00 29.7 C 66 % 22.66 C
1586 26-06-2019 12:05:00 29.7 C 65 % 22.41 C
1587 26-06-2019 12:10:00 29.8 C 66 % 22.76 C
1588 26-06-2019 12:15:00 30 C 65 % 22.69 C
1589 26-06-2019 12:20:00 30.1 C 64 % 22.53 C
1590 26-06-2019 12:25:00 30.2 C 64 % 22.63 C
1591 26-06-2019 12:30:00 30.3 C 62 % 22.2 C
1592 26-06-2019 12:35:00 30.4 C 63 % 22.56 C
1593 26-06-2019 12:40:00 30.4 C 61 % 22.03 C
1594 26-06-2019 12:45:00 30.6 C 61 % 22.21 C
1595 26-06-2019 12:50:00 30.8 C 59 % 21.85 C
1596 26-06-2019 12:55:00 30.9 C 58 % 21.67 C
1597 26-06-2019 13:00:00 31.1 C 57 % 21.57 C
1598 26-06-2019 13:05:00 31.2 C 57 % 21.66 C
1599 26-06-2019 13:10:00 31.3 C 56 % 21.47 C
1600 26-06-2019 13:15:00 31.3 C 55 % 21.17 C
Sensor: Nr:Datum:Temp:Feuchte:Taupunkt:
Aussen-T/F 1601 26-06-2019 13:20:00 31.4 C 54 % 20.97 C
1602 26-06-2019 13:25:00 31.6 C 52 % 20.54 C
1603 26-06-2019 13:30:00 31.7 C 48 % 19.34 C
1604 26-06-2019 13:35:00 31.8 C 52 % 20.72 C
1605 26-06-2019 13:40:00 31.9 C 53 % 21.12 C
1606 26-06-2019 13:45:00 31.9 C 51 % 20.5 C
1607 26-06-2019 13:50:00 32.2 C 51 % 20.77 C
1608 26-06-2019 13:55:00 32.2 C 51 % 20.77 C
1609 26-06-2019 14:00:00 32.3 C 51 % 20.86 C
1610 26-06-2019 14:05:00 32.3 C 51 % 20.86 C
1611 26-06-2019 14:10:00 32.3 C 51 % 20.86 C
1612 26-06-2019 14:15:00 32.3 C 52 % 21.18 C
1613 26-06-2019 14:20:00 32.4 C 51 % 20.96 C
1614 26-06-2019 14:25:00 32.6 C 51 % 21.14 C
1615 26-06-2019 14:30:00 32.7 C 49 % 20.58 C
1616 26-06-2019 14:35:00 32.7 C 50 % 20.91 C
1617 26-06-2019 14:40:00 32.9 C 50 % 21.09 C
1618 26-06-2019 14:45:00 32.9 C 49 % 20.76 C
1619 26-06-2019 14:50:00 33.1 C 50 % 21.27 C
1620 26-06-2019 14:55:00 33.2 C 51 % 21.69 C
1621 26-06-2019 15:00:00 33.4 C 52 % 22.19 C
1622 26-06-2019 15:05:00 33.5 C 50 % 21.64 C
1623 26-06-2019 15:10:00 33.4 C 49 % 21.22 C
1624 26-06-2019 15:15:00 33.4 C 50 % 21.55 C
1625 26-06-2019 15:20:00 33.6 C 49 % 21.4 C
Sensor: Nr:Datum:Temp:Feuchte:Taupunkt:
Aussen-T/F 1626 26-06-2019 15:25:00 33.7 C 51 % 22.15 C
1627 26-06-2019 15:30:00 33.9 C 51 % 22.33 C
1628 26-06-2019 15:35:00 34.1 C 51 % 22.51 C
1629 26-06-2019 15:40:00 34.3 C 49 % 22.04 C
1630 26-06-2019 15:45:00 34.3 C 48 % 21.7 C
1631 26-06-2019 15:50:00 34.5 C 48 % 21.88 C
1632 26-06-2019 15:55:00 34.7 C 47 % 21.72 C
1633 26-06-2019 16:00:00 34.7 C 49 % 22.4 C
1634 26-06-2019 16:05:00 34.8 C 47 % 21.81 C
1635 26-06-2019 16:10:00 34.8 C 45 % 21.1 C
1636 26-06-2019 16:15:00 34.8 C 47 % 21.81 C
1637 26-06-2019 16:20:00 34.9 C 46 % 21.55 C
1638 26-06-2019 16:25:00 34.9 C 44 % 20.82 C
1639 26-06-2019 16:30:00 34.8 C 45 % 21.1 C
1640 26-06-2019 16:35:00 34.7 C 45 % 21.01 C
1641 26-06-2019 16:40:00 34.6 C 46 % 21.28 C
1642 26-06-2019 16:45:00 34.7 C 46 % 21.37 C
1643 26-06-2019 16:50:00 34.7 C 45 % 21.01 C
1644 26-06-2019 16:55:00 34.8 C 45 % 21.1 C
1645 26-06-2019 17:00:00 34.9 C 44 % 20.82 C
1646 26-06-2019 17:05:00 34.9 C 45 % 21.19 C
1647 26-06-2019 17:10:00 35 C 45 % 21.28 C
1648 26-06-2019 17:15:00 34.8 C 45 % 21.1 C
1649 26-06-2019 17:20:00 34.8 C 44 % 20.73 C
1650 26-06-2019 17:25:00 34.7 C 44 % 20.64 C
Sensor: Nr:Datum:Temp:Feuchte:Taupunkt:
Aussen-T/F 1651 26-06-2019 17:30:00 34.7 C 44 % 20.64 C
1652 26-06-2019 17:35:00 34.7 C 44 % 20.64 C
1653 26-06-2019 17:40:00 34.8 C 43 % 20.36 C
1654 26-06-2019 17:45:00 34.6 C 44 % 20.55 C
1655 26-06-2019 17:50:00 34.6 C 44 % 20.55 C
1656 26-06-2019 17:55:00 34.7 C 42 % 19.89 C
1657 26-06-2019 18:00:00 34.6 C 42 % 19.8 C
1658 26-06-2019 18:05:00 34.6 C 42 % 19.8 C
1659 26-06-2019 18:10:00 34.7 C 41 % 19.5 C
1660 26-06-2019 18:15:00 34.7 C 41 % 19.5 C
1661 26-06-2019 18:20:00 34.6 C 42 % 19.8 C
1662 26-06-2019 18:25:00 34.4 C 41 % 19.24 C
1663 26-06-2019 18:30:00 34.3 C 42 % 19.53 C
1664 26-06-2019 18:35:00 34.2 C 41 % 19.06 C
1665 26-06-2019 18:40:00 34.1 C 42 % 19.35 C
1666 26-06-2019 18:45:00 34.2 C 42 % 19.44 C
1667 26-06-2019 18:50:00 34 C 43 % 19.64 C
1668 26-06-2019 18:55:00 34 C 43 % 19.64 C
1669 26-06-2019 19:00:00 33.9 C 44 % 19.92 C
1670 26-06-2019 19:05:00 34.1 C 43 % 19.73 C
1671 26-06-2019 19:10:00 34 C 43 % 19.64 C
1672 26-06-2019 19:15:00 33.9 C 43 % 19.55 C
1673 26-06-2019 19:20:00 33.9 C 43 % 19.55 C
1674 26-06-2019 19:25:00 33.6 C 43 % 19.28 C
1675 26-06-2019 19:30:00 33.4 C 44 % 19.47 C
Sensor: Nr:Datum:Temp:Feuchte:Taupunkt:
Aussen-T/F 1676 26-06-2019 19:35:00 33.2 C 44 % 19.29 C
1677 26-06-2019 19:40:00 32.9 C 44 % 19.02 C
1678 26-06-2019 19:45:00 32.7 C 44 % 18.84 C
1679 26-06-2019 19:50:00 32.5 C 44 % 18.66 C
1680 26-06-2019 19:55:00 32.3 C 44 % 18.48 C
1681 26-06-2019 20:00:00 32.2 C 45 % 18.75 C
1682 26-06-2019 20:05:00 32.1 C 46 % 19.02 C
1683 26-06-2019 20:10:00 31.9 C 46 % 18.83 C
1684 26-06-2019 20:15:00 31.8 C 47 % 19.09 C
1685 26-06-2019 20:20:00 31.6 C 49 % 19.58 C
1686 26-06-2019 20:25:00 30.9 C 52 % 19.89 C
1687 26-06-2019 20:30:00 30.3 C 52 % 19.34 C
1688 26-06-2019 20:35:00 30.1 C 52 % 19.16 C
1689 26-06-2019 20:40:00 30.1 C 54 % 19.76 C
1690 26-06-2019 20:45:00 30.1 C 53 % 19.46 C
1691 26-06-2019 20:50:00 30.1 C 54 % 19.76 C
1692 26-06-2019 20:55:00 30.1 C 53 % 19.46 C
1693 26-06-2019 21:00:00 29.9 C 53 % 19.28 C
1694 26-06-2019 21:05:00 29.8 C 53 % 19.19 C
1695 26-06-2019 21:10:00 29.7 C 54 % 19.39 C
1696 26-06-2019 21:15:00 29.4 C 54 % 19.12 C
1697 26-06-2019 21:20:00 29.2 C 56 % 19.52 C
1698 26-06-2019 21:25:00 28.9 C 57 % 19.52 C
1699 26-06-2019 21:30:00 28.7 C 56 % 19.05 C
1700 26-06-2019 21:35:00 28.4 C 57 % 19.06 C
Sensor: Nr:Datum:Temp:Feuchte:Taupunkt:
Aussen-T/F 1701 26-06-2019 21:40:00 28.3 C 58 % 19.24 C
1702 26-06-2019 21:45:00 28 C 60 % 19.51 C
1703 26-06-2019 21:50:00 27.7 C 59 % 18.96 C
1704 26-06-2019 21:55:00 27.6 C 61 % 19.4 C
1705 26-06-2019 22:00:00 27.4 C 61 % 19.21 C
1706 26-06-2019 22:05:00 27.2 C 62 % 19.28 C
1707 26-06-2019 22:10:00 26.9 C 63 % 19.26 C
1708 26-06-2019 22:15:00 26.7 C 64 % 19.32 C
1709 26-06-2019 22:20:00 26.5 C 65 % 19.38 C
1710 26-06-2019 22:25:00 26.3 C 65 % 19.19 C
1711 26-06-2019 22:30:00 26.2 C 66 % 19.34 C
1712 26-06-2019 22:35:00 26.1 C 67 % 19.49 C
1713 26-06-2019 22:40:00 25.9 C 67 % 19.3 C
1714 26-06-2019 22:45:00 25.8 C 67 % 19.2 C
1715 26-06-2019 22:50:00 25.9 C 68 % 19.54 C
1716 26-06-2019 22:55:00 25.9 C 68 % 19.54 C
1717 26-06-2019 23:00:00 25.8 C 68 % 19.44 C
1718 26-06-2019 23:05:00 25.7 C 69 % 19.58 C
1719 26-06-2019 23:10:00 25.8 C 69 % 19.68 C
1720 26-06-2019 23:15:00 26 C 69 % 19.87 C
1721 26-06-2019 23:20:00 26.2 C 68 % 19.82 C
1722 26-06-2019 23:25:00 26.3 C 69 % 20.16 C
1723 26-06-2019 23:30:00 26.2 C 69 % 20.06 C
1724 26-06-2019 23:35:00 26.1 C 70 % 20.2 C
1725 26-06-2019 23:40:00 26 C 70 % 20.1 C
Sensor: Nr:Datum:Temp:Feuchte:Taupunkt:
Aussen-T/F 1726 26-06-2019 23:45:00 26.1 C 70 % 20.2 C
1727 26-06-2019 23:50:00 26.1 C 70 % 20.2 C
1728 26-06-2019 23:55:00 26.1 C 71 % 20.43 C
1729 27-06-2019 00:00:00 25.8 C 71 % 20.14 C
1730 27-06-2019 00:05:00 25.8 C 71 % 20.14 C
1731 27-06-2019 00:10:00 25.7 C 72 % 20.27 C
1732 27-06-2019 00:15:00 25.5 C 72 % 20.08 C
1733 27-06-2019 00:20:00 25.4 C 72 % 19.98 C
1734 27-06-2019 00:25:00 25.3 C 73 % 20.11 C
1735 27-06-2019 00:30:00 25.2 C 73 % 20.01 C
1736 27-06-2019 00:35:00 25.1 C 74 % 20.14 C
1737 27-06-2019 00:40:00 24.9 C 74 % 19.94 C
1738 27-06-2019 00:45:00 24.8 C 74 % 19.85 C
1739 27-06-2019 00:50:00 24.7 C 75 % 19.97 C
1740 27-06-2019 00:55:00 24.7 C 75 % 19.97 C
1741 27-06-2019 01:00:00 24.7 C 75 % 19.97 C
1742 27-06-2019 01:05:00 24.6 C 75 % 19.87 C
1743 27-06-2019 01:10:00 24.5 C 76 % 19.99 C
1744 27-06-2019 01:15:00 24.3 C 76 % 19.8 C
1745 27-06-2019 01:20:00 24.1 C 77 % 19.81 C
1746 27-06-2019 01:25:00 23.9 C 77 % 19.62 C
1747 27-06-2019 01:30:00 23.9 C 77 % 19.62 C
1748 27-06-2019 01:35:00 23.9 C 77 % 19.62 C
1749 27-06-2019 01:40:00 23.9 C 77 % 19.62 C
1750 27-06-2019 01:45:00 23.9 C 77 % 19.62 C
Sensor: Nr:Datum:Temp:Feuchte:Taupunkt:
Aussen-T/F 1751 27-06-2019 01:50:00 23.9 C 77 % 19.62 C
1752 27-06-2019 01:55:00 23.8 C 77 % 19.52 C
1753 27-06-2019 02:00:00 23.7 C 77 % 19.43 C
1754 27-06-2019 02:05:00 23.6 C 78 % 19.54 C
1755 27-06-2019 02:10:00 23.6 C 78 % 19.54 C
1756 27-06-2019 02:15:00 23.4 C 79 % 19.55 C
1757 27-06-2019 02:20:00 23.3 C 79 % 19.45 C
1758 27-06-2019 02:25:00 23.2 C 79 % 19.35 C
1759 27-06-2019 02:30:00 23.1 C 79 % 19.26 C
1760 27-06-2019 02:35:00 23 C 79 % 19.16 C
1761 27-06-2019 02:40:00 23.1 C 79 % 19.26 C
1762 27-06-2019 02:45:00 23.1 C 79 % 19.26 C
1763 27-06-2019 02:50:00 23 C 78 % 18.96 C
1764 27-06-2019 02:55:00 23 C 78 % 18.96 C
1765 27-06-2019 03:00:00 22.9 C 78 % 18.86 C
1766 27-06-2019 03:05:00 22.9 C 78 % 18.86 C
1767 27-06-2019 03:10:00 22.8 C 78 % 18.76 C
1768 27-06-2019 03:15:00 22.6 C 78 % 18.57 C
1769 27-06-2019 03:20:00 22.5 C 79 % 18.67 C
1770 27-06-2019 03:25:00 22.3 C 78 % 18.28 C
1771 27-06-2019 03:30:00 22.3 C 79 % 18.48 C
1772 27-06-2019 03:35:00 22.2 C 78 % 18.18 C
1773 27-06-2019 03:40:00 22.2 C 78 % 18.18 C
1774 27-06-2019 03:45:00 22.2 C 78 % 18.18 C
1775 27-06-2019 03:50:00 22.1 C 77 % 17.88 C
Sensor: Nr:Datum:Temp:Feuchte:Taupunkt:
Aussen-T/F 1776 27-06-2019 03:55:00 22 C 77 % 17.78 C
1777 27-06-2019 04:00:00 21.9 C 77 % 17.68 C
1778 27-06-2019 04:05:00 21.9 C 77 % 17.68 C
1779 27-06-2019 04:10:00 21.9 C 77 % 17.68 C
1780 27-06-2019 04:15:00 21.8 C 76 % 17.38 C
1781 27-06-2019 04:20:00 21.8 C 77 % 17.59 C
1782 27-06-2019 04:25:00 21.7 C 77 % 17.49 C
1783 27-06-2019 04:30:00 21.7 C 77 % 17.49 C
1784 27-06-2019 04:35:00 21.6 C 77 % 17.39 C
1785 27-06-2019 04:40:00 21.6 C 77 % 17.39 C
1786 27-06-2019 04:45:00 21.4 C 77 % 17.2 C
1787 27-06-2019 04:50:00 21.4 C 77 % 17.2 C
1788 27-06-2019 04:55:00 21.3 C 78 % 17.31 C
1789 27-06-2019 05:00:00 21.2 C 78 % 17.21 C
1790 27-06-2019 05:05:00 20.9 C 79 % 17.12 C
1791 27-06-2019 05:10:00 20.7 C 80 % 17.13 C
1792 27-06-2019 05:15:00 20.6 C 80 % 17.03 C
1793 27-06-2019 05:20:00 20.3 C 81 % 16.93 C
1794 27-06-2019 05:25:00 20.2 C 80 % 16.64 C
1795 27-06-2019 05:30:00 20.3 C 80 % 16.74 C
1796 27-06-2019 05:35:00 20.4 C 79 % 16.64 C
1797 27-06-2019 05:40:00 20.5 C 79 % 16.73 C
1798 27-06-2019 05:45:00 20.5 C 79 % 16.73 C
1799 27-06-2019 05:50:00 20.5 C 79 % 16.73 C
1800 27-06-2019 05:55:00 20.4 C 79 % 16.64 C
Sensor: Nr:Datum:Temp:Feuchte:Taupunkt:
Aussen-T/F 1801 27-06-2019 06:00:00 20.3 C 79 % 16.54 C
1802 27-06-2019 06:05:00 20.3 C 79 % 16.54 C
1803 27-06-2019 06:10:00 20.2 C 79 % 16.44 C
1804 27-06-2019 06:15:00 20.2 C 80 % 16.64 C
1805 27-06-2019 06:20:00 20.2 C 80 % 16.64 C
1806 27-06-2019 06:25:00 20.1 C 81 % 16.74 C
1807 27-06-2019 06:30:00 20 C 81 % 16.64 C
1808 27-06-2019 06:35:00 19.9 C 81 % 16.54 C
1809 27-06-2019 06:40:00 19.8 C 82 % 16.64 C
1810 27-06-2019 06:45:00 19.8 C 82 % 16.64 C
1811 27-06-2019 06:50:00 19.7 C 82 % 16.54 C
1812 27-06-2019 06:55:00 19.7 C 83 % 16.73 C
1813 27-06-2019 07:00:00 19.7 C 81 % 16.35 C
1814 27-06-2019 07:05:00 19.7 C 81 % 16.35 C
1815 27-06-2019 07:10:00 19.8 C 80 % 16.25 C
1816 27-06-2019 07:15:00 19.9 C 80 % 16.35 C
1817 27-06-2019 07:20:00 19.9 C 80 % 16.35 C
1818 27-06-2019 07:25:00 20 C 80 % 16.44 C
1819 27-06-2019 07:30:00 20.1 C 80 % 16.54 C
1820 27-06-2019 07:35:00 20.2 C 79 % 16.44 C
1821 27-06-2019 07:40:00 20.2 C 79 % 16.44 C
1822 27-06-2019 07:45:00 20.3 C 79 % 16.54 C
1823 27-06-2019 07:50:00 20.3 C 79 % 16.54 C
1824 27-06-2019 07:55:00 20.3 C 79 % 16.54 C
1825 27-06-2019 08:00:00 20.4 C 78 % 16.44 C
Sensor: Nr:Datum:Temp:Feuchte:Taupunkt:
Aussen-T/F 1826 27-06-2019 08:05:00 20.4 C 78 % 16.44 C
1827 27-06-2019 08:10:00 20.4 C 78 % 16.44 C
1828 27-06-2019 08:15:00 20.6 C 78 % 16.63 C
1829 27-06-2019 08:20:00 20.6 C 78 % 16.63 C
1830 27-06-2019 08:25:00 20.6 C 77 % 16.43 C
1831 27-06-2019 08:30:00 20.6 C 77 % 16.43 C
1832 27-06-2019 08:35:00 20.6 C 77 % 16.43 C
1833 27-06-2019 08:40:00 20.6 C 78 % 16.63 C
1834 27-06-2019 08:45:00 20.7 C 78 % 16.73 C
1835 27-06-2019 08:50:00 20.8 C 77 % 16.62 C
1836 27-06-2019 08:55:00 20.9 C 76 % 16.51 C
1837 27-06-2019 09:00:00 21 C 77 % 16.81 C
1838 27-06-2019 09:05:00 21.2 C 76 % 16.8 C
1839 27-06-2019 09:10:00 21.3 C 75 % 16.69 C
1840 27-06-2019 09:15:00 21.3 C 74 % 16.48 C
1841 27-06-2019 09:20:00 21.4 C 73 % 16.36 C
1842 27-06-2019 09:25:00 21.4 C 74 % 16.57 C
1843 27-06-2019 09:30:00 21.4 C 74 % 16.57 C
1844 27-06-2019 09:35:00 21.5 C 74 % 16.67 C
1845 27-06-2019 09:40:00 21.6 C 74 % 16.77 C
1846 27-06-2019 09:45:00 21.7 C 73 % 16.65 C
1847 27-06-2019 09:50:00 21.8 C 72 % 16.53 C
1848 27-06-2019 09:55:00 21.9 C 72 % 16.62 C
1849 27-06-2019 10:00:00 22 C 72 % 16.72 C
1850 27-06-2019 10:05:00 22.1 C 71 % 16.6 C
Sensor: Nr:Datum:Temp:Feuchte:Taupunkt:
Aussen-T/F 1851 27-06-2019 10:10:00 22.3 C 70 % 16.56 C
1852 27-06-2019 10:15:00 22.4 C 69 % 16.43 C
1853 27-06-2019 10:20:00 22.7 C 69 % 16.72 C
1854 27-06-2019 10:25:00 22.8 C 68 % 16.59 C
1855 27-06-2019 10:30:00 23.1 C 67 % 16.64 C
1856 27-06-2019 10:35:00 23.2 C 67 % 16.73 C
1857 27-06-2019 10:40:00 23.2 C 67 % 16.73 C
1858 27-06-2019 10:45:00 23.4 C 66 % 16.69 C
1859 27-06-2019 10:50:00 23.4 C 65 % 16.45 C
1860 27-06-2019 10:55:00 23.4 C 65 % 16.45 C
1861 27-06-2019 11:00:00 23.6 C 64 % 16.39 C
1862 27-06-2019 11:05:00 23.6 C 64 % 16.39 C
1863 27-06-2019 11:10:00 23.7 C 63 % 16.24 C
1864 27-06-2019 11:15:00 23.7 C 64 % 16.49 C
1865 27-06-2019 11:20:00 23.8 C 63 % 16.33 C
1866 27-06-2019 11:25:00 24.1 C 62 % 16.37 C
1867 27-06-2019 11:30:00 24.2 C 62 % 16.46 C
1868 27-06-2019 11:35:00 24.3 C 60 % 16.04 C
1869 27-06-2019 11:40:00 24.3 C 62 % 16.55 C
1870 27-06-2019 11:45:00 24.3 C 60 % 16.04 C
1871 27-06-2019 11:50:00 24.4 C 61 % 16.39 C
1872 27-06-2019 11:55:00 24.4 C 60 % 16.13 C
1873 27-06-2019 12:00:00 24.5 C 60 % 16.23 C
1874 27-06-2019 12:05:00 24.7 C 61 % 16.67 C
1875 27-06-2019 12:10:00 24.7 C 60 % 16.41 C
Sensor: Nr:Datum:Temp:Feuchte:Taupunkt:
Aussen-T/F 1876 27-06-2019 12:15:00 24.7 C 59 % 16.15 C
1877 27-06-2019 12:20:00 24.8 C 60 % 16.51 C
1878 27-06-2019 12:25:00 24.8 C 59 % 16.24 C
1879 27-06-2019 12:30:00 24.8 C 59 % 16.24 C
1880 27-06-2019 12:35:00 24.8 C 58 % 15.98 C
1881 27-06-2019 12:40:00 24.9 C 58 % 16.07 C
1882 27-06-2019 12:45:00 25 C 58 % 16.16 C
1883 27-06-2019 12:50:00 25.2 C 57 % 16.08 C
1884 27-06-2019 12:55:00 25.2 C 58 % 16.35 C
1885 27-06-2019 13:00:00 25.2 C 57 % 16.08 C
1886 27-06-2019 13:05:00 25.5 C 55 % 15.8 C
1887 27-06-2019 13:10:00 25.6 C 55 % 15.89 C
1888 27-06-2019 13:15:00 25.6 C 54 % 15.6 C
1889 27-06-2019 13:20:00 25.8 C 54 % 15.79 C
1890 27-06-2019 13:25:00 25.9 C 53 % 15.59 C
1891 27-06-2019 13:30:00 25.9 C 52 % 15.29 C
1892 27-06-2019 13:35:00 26.1 C 52 % 15.48 C
1893 27-06-2019 13:40:00 26.1 C 53 % 15.77 C
1894 27-06-2019 13:45:00 26.2 C 52 % 15.57 C
1895 27-06-2019 13:50:00 26.2 C 51 % 15.27 C
1896 27-06-2019 13:55:00 26.4 C 51 % 15.45 C
1897 27-06-2019 14:00:00 26.5 C 51 % 15.54 C
1898 27-06-2019 14:05:00 26.6 C 50 % 15.32 C
1899 27-06-2019 14:10:00 26.5 C 49 % 14.92 C
1900 27-06-2019 14:15:00 26.6 C 51 % 15.63 C
Sensor: Nr:Datum:Temp:Feuchte:Taupunkt:
Aussen-T/F 1901 27-06-2019 14:20:00 26.7 C 49 % 15.1 C
1902 27-06-2019 14:25:00 26.8 C 48 % 14.87 C
1903 27-06-2019 14:30:00 26.9 C 48 % 14.96 C
1904 27-06-2019 14:35:00 27.1 C 49 % 15.47 C
1905 27-06-2019 14:40:00 27.3 C 48 % 15.33 C
1906 27-06-2019 14:45:00 27.6 C 46 % 14.94 C
1907 27-06-2019 14:50:00 27.6 C 46 % 14.94 C
1908 27-06-2019 14:55:00 27.6 C 45 % 14.6 C
1909 27-06-2019 15:00:00 27.7 C 45 % 14.69 C
1910 27-06-2019 15:05:00 27.8 C 44 % 14.43 C
1911 27-06-2019 15:10:00 27.9 C 44 % 14.52 C
1912 27-06-2019 15:15:00 28.1 C 45 % 15.05 C
1913 27-06-2019 15:20:00 28.3 C 43 % 14.53 C
1914 27-06-2019 15:25:00 28.6 C 42 % 14.43 C
1915 27-06-2019 15:30:00 28.7 C 41 % 14.15 C
1916 27-06-2019 15:35:00 28.9 C 38 % 13.16 C
1917 27-06-2019 15:40:00 29 C 38 % 13.25 C
1918 27-06-2019 15:45:00 29.2 C 38 % 13.42 C
1919 27-06-2019 15:50:00 29.4 C 38 % 13.6 C
1920 27-06-2019 15:55:00 29.6 C 37 % 13.37 C
1921 27-06-2019 16:00:00 29.8 C 36 % 13.12 C
1922 27-06-2019 16:05:00 29.9 C 35 % 12.78 C
1923 27-06-2019 16:10:00 29.8 C 36 % 13.12 C
1924 27-06-2019 16:15:00 29.9 C 33 % 11.89 C
1925 27-06-2019 16:20:00 30 C 35 % 12.87 C
Sensor: Nr:Datum:Temp:Feuchte:Taupunkt:
Aussen-T/F 1926 27-06-2019 16:25:00 30.3 C 33 % 12.23 C
1927 27-06-2019 16:30:00 30.4 C 32 % 11.85 C
1928 27-06-2019 16:35:00 30.6 C 32 % 12.03 C
1929 27-06-2019 16:40:00 30.6 C 30 % 11.05 C
1930 27-06-2019 16:45:00 30.5 C 29 % 10.46 C
1931 27-06-2019 16:50:00 30.2 C 29 % 10.2 C
1932 27-06-2019 16:55:00 30.2 C 29 % 10.2 C
1933 27-06-2019 17:00:00 30.3 C 29 % 10.29 C
1934 27-06-2019 17:05:00 30.6 C 28 % 10.02 C
1935 27-06-2019 17:10:00 30.5 C 28 % 9.93 C
1936 27-06-2019 17:15:00 30.4 C 28 % 9.85 C
1937 27-06-2019 17:20:00 30.7 C 28 % 10.1 C
1938 27-06-2019 17:25:00 30.7 C 28 % 10.1 C
1939 27-06-2019 17:30:00 30.6 C 29 % 10.54 C
1940 27-06-2019 17:35:00 30.5 C 27 % 9.39 C
1941 27-06-2019 17:40:00 30.4 C 28 % 9.85 C
1942 27-06-2019 17:45:00 30.5 C 27 % 9.39 C
1943 27-06-2019 17:50:00 30.6 C 28 % 10.02 C
1944 27-06-2019 17:55:00 30.7 C 28 % 10.1 C
1945 27-06-2019 18:00:00 30.4 C 27 % 9.31 C
1946 27-06-2019 18:05:00 30.3 C 26 % 8.66 C
1947 27-06-2019 18:10:00 30.5 C 27 % 9.39 C
1948 27-06-2019 18:15:00 30.3 C 26 % 8.66 C
1949 27-06-2019 18:20:00 30.3 C 26 % 8.66 C
1950 27-06-2019 18:25:00 30.2 C 26 % 8.58 C
Sensor: Nr:Datum:Temp:Feuchte:Taupunkt:
Aussen-T/F 1951 27-06-2019 18:30:00 30.3 C 27 % 9.22 C
1952 27-06-2019 18:35:00 30.2 C 27 % 9.14 C
1953 27-06-2019 18:40:00 30 C 26 % 8.41 C
1954 27-06-2019 18:45:00 30 C 26 % 8.41 C
1955 27-06-2019 18:50:00 30.1 C 26 % 8.5 C
1956 27-06-2019 18:55:00 30.1 C 26 % 8.5 C
1957 27-06-2019 19:00:00 30.2 C 26 % 8.58 C
1958 27-06-2019 19:05:00 30.3 C 27 % 9.22 C
1959 27-06-2019 19:10:00 30.4 C 25 % 8.17 C
1960 27-06-2019 19:15:00 30.3 C 24 % 7.49 C
1961 27-06-2019 19:20:00 30.1 C 24 % 7.32 C
1962 27-06-2019 19:25:00 29.8 C 25 % 7.67 C
1963 27-06-2019 19:30:00 29.6 C 25 % 7.5 C
1964 27-06-2019 19:35:00 29.2 C 25 % 7.16 C
1965 27-06-2019 19:40:00 29 C 26 % 7.57 C
1966 27-06-2019 19:45:00 28.8 C 26 % 7.4 C
1967 27-06-2019 19:50:00 28.7 C 28 % 8.4 C
1968 27-06-2019 19:55:00 28.7 C 28 % 8.4 C
1969 27-06-2019 20:00:00 28.5 C 28 % 8.23 C
1970 27-06-2019 20:05:00 28.3 C 29 % 8.57 C
1971 27-06-2019 20:10:00 28.2 C 31 % 9.48 C
1972 27-06-2019 20:15:00 28.1 C 32 % 9.86 C
1973 27-06-2019 20:20:00 27.9 C 32 % 9.69 C
1974 27-06-2019 20:25:00 27.6 C 32 % 9.43 C
1975 27-06-2019 20:30:00 27.2 C 35 % 10.42 C
Sensor: Nr:Datum:Temp:Feuchte:Taupunkt:
Aussen-T/F 1976 27-06-2019 20:35:00 27 C 33 % 9.36 C
1977 27-06-2019 20:40:00 26.8 C 34 % 9.63 C
1978 27-06-2019 20:45:00 26.7 C 35 % 9.98 C
1979 27-06-2019 20:50:00 26.6 C 33 % 9.01 C
1980 27-06-2019 20:55:00 26.3 C 36 % 10.05 C
1981 27-06-2019 21:00:00 26.1 C 35 % 9.45 C
1982 27-06-2019 21:05:00 25.8 C 36 % 9.61 C
1983 27-06-2019 21:10:00 25.6 C 37 % 9.84 C
1984 27-06-2019 21:15:00 25.3 C 37 % 9.57 C
1985 27-06-2019 21:20:00 25.2 C 38 % 9.88 C
1986 27-06-2019 21:25:00 24.9 C 42 % 11.11 C
1987 27-06-2019 21:30:00 24.6 C 42 % 10.84 C
1988 27-06-2019 21:35:00 24.1 C 44 % 11.09 C
1989 27-06-2019 21:40:00 23.7 C 45 % 11.07 C
1990 27-06-2019 21:45:00 23.2 C 47 % 11.27 C
1991 27-06-2019 21:50:00 22.8 C 47 % 10.91 C
1992 27-06-2019 21:55:00 22.5 C 50 % 11.56 C
1993 27-06-2019 22:00:00 22.2 C 52 % 11.88 C
1994 27-06-2019 22:05:00 22 C 51 % 11.4 C
1995 27-06-2019 22:10:00 21.9 C 53 % 11.89 C
1996 27-06-2019 22:15:00 21.7 C 53 % 11.71 C
1997 27-06-2019 22:20:00 21.4 C 54 % 11.71 C
1998 27-06-2019 22:25:00 21.3 C 55 % 11.9 C
1999 27-06-2019 22:30:00 21.2 C 55 % 11.81 C
2000 27-06-2019 22:35:00 21.1 C 57 % 12.25 C
Sensor: Nr:Datum:Temp:Feuchte:Taupunkt:
Aussen-T/F 2001 27-06-2019 22:40:00 20.9 C 56 % 11.8 C
2002 27-06-2019 22:45:00 20.7 C 57 % 11.88 C
2003 27-06-2019 22:50:00 20.6 C 58 % 12.05 C
2004 27-06-2019 22:55:00 20.4 C 59 % 12.12 C
2005 27-06-2019 23:00:00 20.3 C 58 % 11.77 C
2006 27-06-2019 23:05:00 20.4 C 58 % 11.86 C
2007 27-06-2019 23:10:00 20.4 C 59 % 12.12 C
2008 27-06-2019 23:15:00 20.3 C 59 % 12.03 C
2009 27-06-2019 23:20:00 20.2 C 60 % 12.19 C
2010 27-06-2019 23:25:00 20 C 61 % 12.26 C
2011 27-06-2019 23:30:00 19.8 C 61 % 12.07 C
2012 27-06-2019 23:35:00 19.8 C 62 % 12.31 C
2013 27-06-2019 23:40:00 19.6 C 62 % 12.13 C
2014 27-06-2019 23:45:00 19.5 C 63 % 12.27 C
2015 27-06-2019 23:50:00 19.3 C 63 % 12.09 C
2016 27-06-2019 23:55:00 19.2 C 64 % 12.23 C
2017 28-06-2019 00:00:00 19.1 C 64 % 12.14 C
2018 28-06-2019 00:05:00 19 C 64 % 12.04 C
2019 28-06-2019 00:10:00 18.9 C 64 % 11.95 C
2020 28-06-2019 00:15:00 18.8 C 66 % 12.32 C
2021 28-06-2019 00:20:00 18.7 C 66 % 12.22 C
2022 28-06-2019 00:25:00 18.6 C 66 % 12.13 C
2023 28-06-2019 00:30:00 18.5 C 66 % 12.03 C
2024 28-06-2019 00:35:00 18.4 C 66 % 11.94 C
2025 28-06-2019 00:40:00 18.3 C 67 % 12.07 C
Sensor: Nr:Datum:Temp:Feuchte:Taupunkt:
Aussen-T/F 2026 28-06-2019 00:45:00 18.2 C 67 % 11.98 C
2027 28-06-2019 00:50:00 18 C 68 % 12.01 C
2028 28-06-2019 00:55:00 17.9 C 69 % 12.14 C
2029 28-06-2019 01:00:00 17.8 C 69 % 12.04 C
2030 28-06-2019 01:05:00 17.7 C 69 % 11.95 C
2031 28-06-2019 01:10:00 17.6 C 70 % 12.07 C
2032 28-06-2019 01:15:00 17.4 C 70 % 11.88 C
2033 28-06-2019 01:20:00 17.3 C 71 % 12 C
2034 28-06-2019 01:25:00 17.2 C 72 % 12.11 C
2035 28-06-2019 01:30:00 17.1 C 72 % 12.02 C
2036 28-06-2019 01:35:00 17 C 73 % 12.13 C
2037 28-06-2019 01:40:00 16.9 C 73 % 12.03 C
2038 28-06-2019 01:45:00 16.8 C 73 % 11.94 C
2039 28-06-2019 01:50:00 16.7 C 74 % 12.05 C
2040 28-06-2019 01:55:00 16.7 C 74 % 12.05 C
2041 28-06-2019 02:00:00 16.6 C 74 % 11.95 C
2042 28-06-2019 02:05:00 16.6 C 75 % 12.15 C
2043 28-06-2019 02:10:00 16.5 C 75 % 12.06 C
2044 28-06-2019 02:15:00 16.4 C 75 % 11.96 C
2045 28-06-2019 02:20:00 16.4 C 76 % 12.16 C
2046 28-06-2019 02:25:00 16.3 C 77 % 12.26 C
2047 28-06-2019 02:30:00 16.2 C 77 % 12.17 C
2048 28-06-2019 02:35:00 16.2 C 77 % 12.17 C
2049 28-06-2019 02:40:00 16.1 C 78 % 12.27 C
2050 28-06-2019 02:45:00 16.1 C 78 % 12.27 C
Sensor: Nr:Datum:Temp:Feuchte:Taupunkt:
Aussen-T/F 2051 28-06-2019 02:50:00 15.9 C 78 % 12.07 C
2052 28-06-2019 02:55:00 15.9 C 78 % 12.07 C
2053 28-06-2019 03:00:00 15.8 C 79 % 12.17 C
2054 28-06-2019 03:05:00 15.8 C 79 % 12.17 C
2055 28-06-2019 03:10:00 15.7 C 79 % 12.07 C
2056 28-06-2019 03:15:00 15.7 C 79 % 12.07 C
2057 28-06-2019 03:20:00 15.6 C 80 % 12.16 C
2058 28-06-2019 03:25:00 15.6 C 80 % 12.16 C
2059 28-06-2019 03:30:00 15.4 C 80 % 11.97 C
2060 28-06-2019 03:35:00 15.4 C 81 % 12.16 C
2061 28-06-2019 03:40:00 15.3 C 81 % 12.06 C
2062 28-06-2019 03:45:00 15.3 C 81 % 12.06 C
2063 28-06-2019 03:50:00 15.2 C 82 % 12.15 C
2064 28-06-2019 03:55:00 15 C 82 % 11.95 C
2065 28-06-2019 04:00:00 14.9 C 82 % 11.86 C
2066 28-06-2019 04:05:00 14.8 C 83 % 11.94 C
2067 28-06-2019 04:10:00 14.7 C 83 % 11.85 C
2068 28-06-2019 04:15:00 14.6 C 83 % 11.75 C
2069 28-06-2019 04:20:00 14.5 C 84 % 11.83 C
2070 28-06-2019 04:25:00 14.4 C 84 % 11.73 C
2071 28-06-2019 04:30:00 14.3 C 84 % 11.64 C
2072 28-06-2019 04:35:00 14.2 C 85 % 11.72 C
2073 28-06-2019 04:40:00 14.1 C 85 % 11.62 C
2074 28-06-2019 04:45:00 14 C 86 % 11.7 C
2075 28-06-2019 04:50:00 13.9 C 86 % 11.6 C
Sensor: Nr:Datum:Temp:Feuchte:Taupunkt:
Aussen-T/F 2076 28-06-2019 04:55:00 13.8 C 86 % 11.5 C
2077 28-06-2019 05:00:00 13.8 C 87 % 11.68 C
2078 28-06-2019 05:05:00 13.7 C 86 % 11.4 C
2079 28-06-2019 05:10:00 13.7 C 87 % 11.58 C
2080 28-06-2019 05:15:00 13.7 C 87 % 11.58 C
2081 28-06-2019 05:20:00 13.6 C 87 % 11.48 C
2082 28-06-2019 05:25:00 13.5 C 87 % 11.38 C
2083 28-06-2019 05:30:00 13.5 C 87 % 11.38 C
2084 28-06-2019 05:35:00 13.4 C 88 % 11.45 C
2085 28-06-2019 05:40:00 13.4 C 88 % 11.45 C
2086 28-06-2019 05:45:00 13.3 C 88 % 11.36 C
2087 28-06-2019 05:50:00 13.3 C 88 % 11.36 C
2088 28-06-2019 05:55:00 13.3 C 89 % 11.53 C
2089 28-06-2019 06:00:00 13.3 C 89 % 11.53 C
2090 28-06-2019 06:05:00 13.3 C 89 % 11.53 C
2091 28-06-2019 06:10:00 13.3 C 89 % 11.53 C
2092 28-06-2019 06:15:00 13.3 C 89 % 11.53 C
2093 28-06-2019 06:20:00 13.3 C 90 % 11.7 C
2094 28-06-2019 06:25:00 13.3 C 90 % 11.7 C
2095 28-06-2019 06:30:00 13.3 C 90 % 11.7 C
2096 28-06-2019 06:35:00 13.4 C 90 % 11.79 C
2097 28-06-2019 06:40:00 13.4 C 90 % 11.79 C
2098 28-06-2019 06:45:00 13.4 C 90 % 11.79 C
2099 28-06-2019 06:50:00 13.5 C 90 % 11.89 C
2100 28-06-2019 06:55:00 13.5 C 91 % 12.06 C
Sensor: Nr:Datum:Temp:Feuchte:Taupunkt:
Aussen-T/F 2101 28-06-2019 07:00:00 13.6 C 91 % 12.16 C
2102 28-06-2019 07:05:00 13.6 C 91 % 12.16 C
2103 28-06-2019 07:10:00 13.7 C 91 % 12.26 C
2104 28-06-2019 07:15:00 13.7 C 91 % 12.26 C
2105 28-06-2019 07:20:00 13.8 C 91 % 12.36 C
2106 28-06-2019 07:25:00 13.8 C 90 % 12.19 C
2107 28-06-2019 07:30:00 13.8 C 90 % 12.19 C
2108 28-06-2019 07:35:00 13.9 C 91 % 12.46 C
2109 28-06-2019 07:40:00 14 C 91 % 12.56 C
2110 28-06-2019 07:45:00 14.1 C 91 % 12.65 C
2111 28-06-2019 07:50:00 14.2 C 91 % 12.75 C
2112 28-06-2019 07:55:00 14.2 C 91 % 12.75 C
2113 28-06-2019 08:00:00 14.3 C 91 % 12.85 C
2114 28-06-2019 08:05:00 14.4 C 90 % 12.78 C
2115 28-06-2019 08:10:00 14.6 C 90 % 12.98 C
2116 28-06-2019 08:15:00 14.7 C 89 % 12.91 C
2117 28-06-2019 08:20:00 14.9 C 88 % 12.93 C
2118 28-06-2019 08:25:00 15.2 C 86 % 12.88 C
2119 28-06-2019 08:30:00 15.5 C 85 % 12.99 C
2120 28-06-2019 08:35:00 15.9 C 82 % 12.83 C
2121 28-06-2019 08:40:00 16.2 C 81 % 12.94 C
2122 28-06-2019 08:45:00 16.3 C 82 % 13.22 C
2123 28-06-2019 08:50:00 16.3 C 81 % 13.04 C
2124 28-06-2019 08:55:00 16.4 C 81 % 13.13 C
2125 28-06-2019 09:00:00 16.6 C 80 % 13.14 C
Sensor: Nr:Datum:Temp:Feuchte:Taupunkt:
Aussen-T/F 2126 28-06-2019 09:05:00 16.9 C 78 % 13.04 C
2127 28-06-2019 09:10:00 17.2 C 77 % 13.14 C
2128 28-06-2019 09:15:00 17.4 C 76 % 13.13 C
2129 28-06-2019 09:20:00 17.6 C 75 % 13.12 C
2130 28-06-2019 09:25:00 17.7 C 74 % 13.01 C
2131 28-06-2019 09:30:00 17.8 C 75 % 13.31 C
2132 28-06-2019 09:35:00 17.9 C 74 % 13.2 C
2133 28-06-2019 09:40:00 18.1 C 73 % 13.19 C
2134 28-06-2019 09:45:00 18.2 C 74 % 13.49 C
2135 28-06-2019 09:50:00 18.4 C 72 % 13.26 C
2136 28-06-2019 09:55:00 18.6 C 71 % 13.24 C
2137 28-06-2019 10:00:00 18.8 C 71 % 13.43 C
2138 28-06-2019 10:05:00 18.8 C 70 % 13.22 C
2139 28-06-2019 10:10:00 18.9 C 70 % 13.31 C
2140 28-06-2019 10:15:00 19.1 C 70 % 13.5 C
2141 28-06-2019 10:20:00 19.4 C 70 % 13.79 C
2142 28-06-2019 10:25:00 19.7 C 67 % 13.4 C
2143 28-06-2019 10:30:00 20.1 C 68 % 14.01 C
2144 28-06-2019 10:35:00 20.4 C 65 % 13.6 C
2145 28-06-2019 10:40:00 20.6 C 65 % 13.79 C
2146 28-06-2019 10:45:00 20.6 C 65 % 13.79 C
2147 28-06-2019 10:50:00 20.6 C 65 % 13.79 C
2148 28-06-2019 10:55:00 20.8 C 63 % 13.5 C
2149 28-06-2019 11:00:00 20.9 C 63 % 13.6 C
2150 28-06-2019 11:05:00 20.9 C 62 % 13.35 C
Sensor: Nr:Datum:Temp:Feuchte:Taupunkt:
Aussen-T/F 2151 28-06-2019 11:10:00 21.1 C 62 % 13.54 C
2152 28-06-2019 11:15:00 21.2 C 60 % 13.13 C
2153 28-06-2019 11:20:00 21.3 C 60 % 13.22 C
2154 28-06-2019 11:25:00 21.5 C 59 % 13.15 C
2155 28-06-2019 11:30:00 21.7 C 59 % 13.34 C
2156 28-06-2019 11:35:00 21.8 C 60 % 13.69 C
2157 28-06-2019 11:40:00 21.8 C 60 % 13.69 C
2158 28-06-2019 11:45:00 21.8 C 60 % 13.69 C
2159 28-06-2019 11:50:00 21.8 C 59 % 13.44 C
2160 28-06-2019 11:55:00 21.9 C 60 % 13.79 C
2161 28-06-2019 12:00:00 22.2 C 59 % 13.81 C
2162 28-06-2019 12:05:00 22.3 C 58 % 13.64 C
2163 28-06-2019 12:10:00 22.5 C 58 % 13.83 C
2164 28-06-2019 12:15:00 22.6 C 58 % 13.92 C
2165 28-06-2019 12:20:00 22.6 C 57 % 13.65 C
2166 28-06-2019 12:25:00 22.7 C 56 % 13.47 C
2167 28-06-2019 12:30:00 22.8 C 55 % 13.29 C
2168 28-06-2019 12:35:00 23.1 C 54 % 13.29 C
2169 28-06-2019 12:40:00 23.2 C 55 % 13.66 C
2170 28-06-2019 12:45:00 23.2 C 54 % 13.38 C
2171 28-06-2019 12:50:00 23.3 C 53 % 13.19 C
2172 28-06-2019 12:55:00 23.6 C 51 % 12.88 C
2173 28-06-2019 13:00:00 23.7 C 51 % 12.97 C
2174 28-06-2019 13:05:00 23.8 C 51 % 13.06 C
2175 28-06-2019 13:10:00 24.1 C 49 % 12.72 C
Sensor: Nr:Datum:Temp:Feuchte:Taupunkt:
Aussen-T/F 2176 28-06-2019 13:15:00 24.2 C 49 % 12.81 C
2177 28-06-2019 13:20:00 24.3 C 49 % 12.91 C
2178 28-06-2019 13:25:00 24.6 C 48 % 12.87 C
2179 28-06-2019 13:30:00 24.9 C 46 % 12.49 C
2180 28-06-2019 13:35:00 25 C 45 % 12.25 C
2181 28-06-2019 13:40:00 25.1 C 45 % 12.34 C
2182 28-06-2019 13:45:00 25.2 C 46 % 12.76 C
2183 28-06-2019 13:50:00 25.4 C 44 % 12.27 C
2184 28-06-2019 13:55:00 25.7 C 44 % 12.54 C
2185 28-06-2019 14:00:00 25.8 C 43 % 12.28 C
2186 28-06-2019 14:05:00 25.7 C 43 % 12.19 C
2187 28-06-2019 14:10:00 25.7 C 45 % 12.88 C
2188 28-06-2019 14:15:00 25.9 C 44 % 12.72 C
2189 28-06-2019 14:20:00 26.1 C 42 % 12.19 C
2190 28-06-2019 14:25:00 26.2 C 44 % 12.99 C
2191 28-06-2019 14:30:00 26.4 C 41 % 12.09 C
2192 28-06-2019 14:35:00 26.6 C 43 % 13 C
2193 28-06-2019 14:40:00 26.7 C 42 % 12.73 C
2194 28-06-2019 14:45:00 26.9 C 40 % 12.16 C
2195 28-06-2019 14:50:00 26.9 C 40 % 12.16 C
2196 28-06-2019 14:55:00 26.9 C 41 % 12.54 C
2197 28-06-2019 15:00:00 27.1 C 41 % 12.72 C
2198 28-06-2019 15:05:00 27.3 C 44 % 13.98 C
2199 28-06-2019 15:10:00 27.7 C 41 % 13.25 C
2200 28-06-2019 15:15:00 27.8 C 37 % 11.78 C
Sensor: Nr:Datum:Temp:Feuchte:Taupunkt:
Aussen-T/F 2201 28-06-2019 15:20:00 27.9 C 38 % 12.27 C
2202 28-06-2019 15:25:00 28 C 39 % 12.76 C
2203 28-06-2019 15:30:00 28.2 C 39 % 12.93 C
2204 28-06-2019 15:35:00 28.4 C 37 % 12.31 C
2205 28-06-2019 15:40:00 28.7 C 38 % 12.98 C
2206 28-06-2019 15:45:00 28.9 C 37 % 12.75 C
2207 28-06-2019 15:50:00 29.2 C 37 % 13.02 C
2208 28-06-2019 15:55:00 29.5 C 35 % 12.43 C
2209 28-06-2019 16:00:00 29.7 C 35 % 12.61 C
2210 28-06-2019 16:05:00 29.9 C 34 % 12.34 C
2211 28-06-2019 16:10:00 30.1 C 34 % 12.51 C
2212 28-06-2019 16:15:00 30.1 C 33 % 12.06 C
2213 28-06-2019 16:20:00 30.2 C 33 % 12.15 C
2214 28-06-2019 16:25:00 30.3 C 34 % 12.69 C
2215 28-06-2019 16:30:00 30.4 C 34 % 12.78 C
2216 28-06-2019 16:35:00 30.4 C 34 % 12.78 C
2217 28-06-2019 16:40:00 30.4 C 32 % 11.85 C
2218 28-06-2019 16:45:00 30.3 C 34 % 12.69 C
2219 28-06-2019 16:50:00 30.4 C 34 % 12.78 C
2220 28-06-2019 16:55:00 30.8 C 32 % 12.2 C
2221 28-06-2019 17:00:00 30.8 C 31 % 11.72 C
2222 28-06-2019 17:05:00 30.6 C 33 % 12.5 C
2223 28-06-2019 17:10:00 30.8 C 31 % 11.72 C
2224 28-06-2019 17:15:00 31.1 C 32 % 12.46 C
2225 28-06-2019 17:20:00 31.2 C 29 % 11.06 C
Sensor: Nr:Datum:Temp:Feuchte:Taupunkt:
Aussen-T/F 2226 28-06-2019 17:25:00 31.1 C 30 % 11.48 C
2227 28-06-2019 17:30:00 31.2 C 28 % 10.53 C
2228 28-06-2019 17:35:00 31.2 C 29 % 11.06 C
2229 28-06-2019 17:40:00 31.1 C 27 % 9.9 C
2230 28-06-2019 17:45:00 31.3 C 29 % 11.14 C
2231 28-06-2019 17:50:00 31.5 C 29 % 11.31 C
2232 28-06-2019 17:55:00 31.7 C 29 % 11.48 C
2233 28-06-2019 18:00:00 31.7 C 27 % 10.41 C
2234 28-06-2019 18:05:00 31.6 C 28 % 10.87 C
2235 28-06-2019 18:10:00 31.6 C 27 % 10.33 C
2236 28-06-2019 18:15:00 31.7 C 27 % 10.41 C
2237 28-06-2019 18:20:00 31.7 C 27 % 10.41 C
2238 28-06-2019 18:25:00 31.7 C 28 % 10.96 C
2239 28-06-2019 18:30:00 31.6 C 28 % 10.87 C
2240 28-06-2019 18:35:00 31.6 C 29 % 11.4 C
2241 28-06-2019 18:40:00 31.7 C 28 % 10.96 C
2242 28-06-2019 18:45:00 31.7 C 29 % 11.48 C
2243 28-06-2019 18:50:00 31.7 C 29 % 11.48 C
2244 28-06-2019 18:55:00 31.7 C 29 % 11.48 C
2245 28-06-2019 19:00:00 31.5 C 28 % 10.79 C
2246 28-06-2019 19:05:00 31.3 C 29 % 11.14 C
2247 28-06-2019 19:10:00 31.4 C 29 % 11.23 C
2248 28-06-2019 19:15:00 31.6 C 30 % 11.91 C
2249 28-06-2019 19:20:00 31.6 C 30 % 11.91 C
2250 28-06-2019 19:25:00 31.6 C 30 % 11.91 C
Sensor: Nr:Datum:Temp:Feuchte:Taupunkt:
Aussen-T/F 2251 28-06-2019 19:30:00 31.4 C 30 % 11.74 C
2252 28-06-2019 19:35:00 31.2 C 30 % 11.57 C
2253 28-06-2019 19:40:00 31 C 30 % 11.4 C
2254 28-06-2019 19:45:00 30.9 C 31 % 11.81 C
2255 28-06-2019 19:50:00 30.6 C 32 % 12.03 C
2256 28-06-2019 19:55:00 30.3 C 32 % 11.77 C
2257 28-06-2019 20:00:00 30.1 C 33 % 12.06 C
2258 28-06-2019 20:05:00 29.8 C 33 % 11.8 C
2259 28-06-2019 20:10:00 29.7 C 34 % 12.17 C
2260 28-06-2019 20:15:00 29.6 C 34 % 12.08 C
2261 28-06-2019 20:20:00 29.6 C 37 % 13.37 C
2262 28-06-2019 20:25:00 29.6 C 40 % 14.57 C
2263 28-06-2019 20:30:00 29.5 C 36 % 12.86 C
2264 28-06-2019 20:35:00 29.4 C 38 % 13.6 C
2265 28-06-2019 20:40:00 29.3 C 38 % 13.51 C
2266 28-06-2019 20:45:00 29.3 C 41 % 14.68 C
2267 28-06-2019 20:50:00 29.1 C 36 % 12.51 C
2268 28-06-2019 20:55:00 28.9 C 42 % 14.7 C
2269 28-06-2019 21:00:00 28.6 C 43 % 14.8 C
2270 28-06-2019 21:05:00 28.1 C 45 % 15.05 C
2271 28-06-2019 21:10:00 27.6 C 44 % 14.25 C
2272 28-06-2019 21:15:00 26.9 C 45 % 13.96 C
2273 28-06-2019 21:20:00 26.3 C 47 % 14.09 C
2274 28-06-2019 21:25:00 25.7 C 49 % 14.19 C
2275 28-06-2019 21:30:00 25.1 C 49 % 13.64 C
Sensor: Nr:Datum:Temp:Feuchte:Taupunkt:
Aussen-T/F 2276 28-06-2019 21:35:00 24.6 C 50 % 13.49 C
2277 28-06-2019 21:40:00 24.2 C 51 % 13.43 C
2278 28-06-2019 21:45:00 23.8 C 51 % 13.06 C
2279 28-06-2019 21:50:00 23.4 C 52 % 12.99 C
2280 28-06-2019 21:55:00 23.1 C 52 % 12.71 C
2281 28-06-2019 22:00:00 22.8 C 52 % 12.43 C
2282 28-06-2019 22:05:00 22.6 C 51 % 11.96 C
2283 28-06-2019 22:10:00 22.4 C 51 % 11.77 C
2284 28-06-2019 22:15:00 22.2 C 52 % 11.88 C
2285 28-06-2019 22:20:00 21.9 C 52 % 11.61 C
2286 28-06-2019 22:25:00 21.8 C 54 % 12.08 C
2287 28-06-2019 22:30:00 21.5 C 55 % 12.08 C
2288 28-06-2019 22:35:00 21.3 C 55 % 11.9 C
2289 28-06-2019 22:40:00 21 C 57 % 12.16 C
2290 28-06-2019 22:45:00 20.7 C 58 % 12.15 C
2291 28-06-2019 22:50:00 20.5 C 59 % 12.22 C
2292 28-06-2019 22:55:00 20.3 C 60 % 12.29 C
2293 28-06-2019 23:00:00 20.2 C 61 % 12.44 C
2294 28-06-2019 23:05:00 19.9 C 61 % 12.16 C
2295 28-06-2019 23:10:00 19.7 C 62 % 12.22 C
2296 28-06-2019 23:15:00 19.6 C 62 % 12.13 C
2297 28-06-2019 23:20:00 19.4 C 63 % 12.18 C
2298 28-06-2019 23:25:00 19.3 C 64 % 12.32 C
2299 28-06-2019 23:30:00 19.1 C 64 % 12.14 C
2300 28-06-2019 23:35:00 19 C 65 % 12.28 C
Sensor: Nr:Datum:Temp:Feuchte:Taupunkt:
Aussen-T/F 2301 28-06-2019 23:40:00 18.9 C 65 % 12.18 C
2302 28-06-2019 23:45:00 18.8 C 65 % 12.09 C
2303 28-06-2019 23:50:00 18.7 C 66 % 12.22 C
2304 28-06-2019 23:55:00 18.7 C 66 % 12.22 C
2305 29-06-2019 00:00:00 18.7 C 66 % 12.22 C
2306 29-06-2019 00:05:00 18.6 C 65 % 11.9 C
2307 29-06-2019 00:10:00 18.6 C 65 % 11.9 C
2308 29-06-2019 00:15:00 18.6 C 65 % 11.9 C
2309 29-06-2019 00:20:00 18.5 C 66 % 12.03 C
2310 29-06-2019 00:25:00 18.4 C 66 % 11.94 C
2311 29-06-2019 00:30:00 18.4 C 66 % 11.94 C
2312 29-06-2019 00:35:00 18.3 C 66 % 11.84 C
2313 29-06-2019 00:40:00 18.3 C 66 % 11.84 C
2314 29-06-2019 00:45:00 18.2 C 66 % 11.75 C
2315 29-06-2019 00:50:00 18.2 C 67 % 11.98 C
2316 29-06-2019 00:55:00 18.1 C 67 % 11.88 C
2317 29-06-2019 01:00:00 18.1 C 67 % 11.88 C
2318 29-06-2019 01:05:00 18 C 67 % 11.79 C
2319 29-06-2019 01:10:00 17.9 C 68 % 11.91 C
2320 29-06-2019 01:15:00 17.9 C 68 % 11.91 C
2321 29-06-2019 01:20:00 17.9 C 68 % 11.91 C
2322 29-06-2019 01:25:00 17.8 C 69 % 12.04 C
2323 29-06-2019 01:30:00 17.8 C 69 % 12.04 C
2324 29-06-2019 01:35:00 17.8 C 68 % 11.82 C
2325 29-06-2019 01:40:00 17.8 C 68 % 11.82 C
Sensor: Nr:Datum:Temp:Feuchte:Taupunkt:
Aussen-T/F 2326 29-06-2019 01:45:00 17.7 C 68 % 11.72 C
2327 29-06-2019 01:50:00 17.7 C 68 % 11.72 C
2328 29-06-2019 01:55:00 17.6 C 69 % 11.85 C
2329 29-06-2019 02:00:00 17.6 C 69 % 11.85 C
2330 29-06-2019 02:05:00 17.4 C 69 % 11.66 C
2331 29-06-2019 02:10:00 17.3 C 69 % 11.56 C
2332 29-06-2019 02:15:00 17.3 C 70 % 11.78 C
2333 29-06-2019 02:20:00 17.2 C 71 % 11.9 C
2334 29-06-2019 02:25:00 17.1 C 71 % 11.8 C
2335 29-06-2019 02:30:00 17 C 71 % 11.71 C
2336 29-06-2019 02:35:00 16.9 C 71 % 11.61 C
2337 29-06-2019 02:40:00 16.9 C 72 % 11.82 C
2338 29-06-2019 02:45:00 16.8 C 72 % 11.73 C
2339 29-06-2019 02:50:00 16.8 C 73 % 11.94 C
2340 29-06-2019 02:55:00 16.8 C 73 % 11.94 C
2341 29-06-2019 03:00:00 16.7 C 73 % 11.84 C
2342 29-06-2019 03:05:00 16.7 C 73 % 11.84 C
2343 29-06-2019 03:10:00 16.6 C 74 % 11.95 C
2344 29-06-2019 03:15:00 16.6 C 74 % 11.95 C
2345 29-06-2019 03:20:00 16.5 C 74 % 11.85 C
2346 29-06-2019 03:25:00 16.4 C 74 % 11.76 C
2347 29-06-2019 03:30:00 16.4 C 74 % 11.76 C
2348 29-06-2019 03:35:00 16.3 C 75 % 11.86 C
2349 29-06-2019 03:40:00 16.3 C 75 % 11.86 C
2350 29-06-2019 03:45:00 16.2 C 75 % 11.77 C
Sensor: Nr:Datum:Temp:Feuchte:Taupunkt:
Aussen-T/F 2351 29-06-2019 03:50:00 16.1 C 75 % 11.67 C
2352 29-06-2019 03:55:00 15.9 C 76 % 11.68 C
2353 29-06-2019 04:00:00 15.8 C 76 % 11.58 C
2354 29-06-2019 04:05:00 15.7 C 77 % 11.68 C
2355 29-06-2019 04:10:00 15.6 C 77 % 11.59 C
2356 29-06-2019 04:15:00 15.4 C 78 % 11.59 C
2357 29-06-2019 04:20:00 15.3 C 78 % 11.49 C
2358 29-06-2019 04:25:00 15.2 C 78 % 11.39 C
2359 29-06-2019 04:30:00 15.1 C 79 % 11.49 C
2360 29-06-2019 04:35:00 15 C 79 % 11.39 C
2361 29-06-2019 04:40:00 14.9 C 80 % 11.48 C
2362 29-06-2019 04:45:00 14.8 C 80 % 11.39 C
2363 29-06-2019 04:50:00 14.7 C 80 % 11.29 C
2364 29-06-2019 04:55:00 14.6 C 81 % 11.38 C
2365 29-06-2019 05:00:00 14.5 C 81 % 11.28 C
2366 29-06-2019 05:05:00 14.4 C 81 % 11.18 C
2367 29-06-2019 05:10:00 14.3 C 82 % 11.27 C
2368 29-06-2019 05:15:00 14.3 C 82 % 11.27 C
2369 29-06-2019 05:20:00 14.2 C 82 % 11.17 C
2370 29-06-2019 05:25:00 14.1 C 83 % 11.26 C
2371 29-06-2019 05:30:00 14 C 83 % 11.16 C
2372 29-06-2019 05:35:00 13.9 C 83 % 11.06 C
2373 29-06-2019 05:40:00 13.9 C 84 % 11.24 C
2374 29-06-2019 05:45:00 13.9 C 84 % 11.24 C
2375 29-06-2019 05:50:00 13.8 C 84 % 11.15 C
Sensor: Nr:Datum:Temp:Feuchte:Taupunkt:
Aussen-T/F 2376 29-06-2019 05:55:00 13.8 C 84 % 11.15 C
2377 29-06-2019 06:00:00 13.8 C 84 % 11.15 C
2378 29-06-2019 06:05:00 13.7 C 84 % 11.05 C
2379 29-06-2019 06:10:00 13.7 C 84 % 11.05 C
2380 29-06-2019 06:15:00 13.7 C 85 % 11.23 C
2381 29-06-2019 06:20:00 13.7 C 86 % 11.4 C
2382 29-06-2019 06:25:00 13.7 C 86 % 11.4 C
2383 29-06-2019 06:30:00 13.7 C 86 % 11.4 C
2384 29-06-2019 06:35:00 13.7 C 86 % 11.4 C
2385 29-06-2019 06:40:00 13.7 C 86 % 11.4 C
2386 29-06-2019 06:45:00 13.7 C 86 % 11.4 C
2387 29-06-2019 06:50:00 13.7 C 86 % 11.4 C
2388 29-06-2019 06:55:00 13.7 C 87 % 11.58 C
2389 29-06-2019 07:00:00 13.8 C 87 % 11.68 C
2390 29-06-2019 07:05:00 13.8 C 87 % 11.68 C
2391 29-06-2019 07:10:00 13.8 C 87 % 11.68 C
2392 29-06-2019 07:15:00 13.9 C 87 % 11.77 C
2393 29-06-2019 07:20:00 13.9 C 88 % 11.95 C
2394 29-06-2019 07:25:00 14.1 C 88 % 12.14 C
2395 29-06-2019 07:30:00 14.1 C 88 % 12.14 C
2396 29-06-2019 07:35:00 14.2 C 88 % 12.24 C
2397 29-06-2019 07:40:00 14.3 C 88 % 12.34 C
2398 29-06-2019 07:45:00 14.3 C 88 % 12.34 C
2399 29-06-2019 07:50:00 14.3 C 88 % 12.34 C
2400 29-06-2019 07:55:00 14.4 C 88 % 12.44 C
Sensor: Nr:Datum:Temp:Feuchte:Taupunkt:
Aussen-T/F 2401 29-06-2019 08:00:00 14.5 C 88 % 12.54 C
2402 29-06-2019 08:05:00 14.6 C 87 % 12.46 C
2403 29-06-2019 08:10:00 14.7 C 88 % 12.73 C
2404 29-06-2019 08:15:00 14.8 C 88 % 12.83 C
2405 29-06-2019 08:20:00 14.9 C 88 % 12.93 C
2406 29-06-2019 08:25:00 15.1 C 87 % 12.95 C
2407 29-06-2019 08:30:00 15.3 C 87 % 13.15 C
2408 29-06-2019 08:35:00 15.5 C 87 % 13.35 C
2409 29-06-2019 08:40:00 15.7 C 87 % 13.54 C
2410 29-06-2019 08:45:00 15.8 C 86 % 13.46 C
2411 29-06-2019 08:50:00 16 C 85 % 13.48 C
2412 29-06-2019 08:55:00 16.3 C 85 % 13.77 C
2413 29-06-2019 09:00:00 16.5 C 84 % 13.79 C
2414 29-06-2019 09:05:00 16.7 C 83 % 13.8 C
2415 29-06-2019 09:10:00 17.2 C 80 % 13.72 C
2416 29-06-2019 09:15:00 17.7 C 77 % 13.62 C
2417 29-06-2019 09:20:00 18.7 C 73 % 13.76 C
2418 29-06-2019 09:25:00 19.3 C 72 % 14.13 C
2419 29-06-2019 09:30:00 19.6 C 69 % 13.76 C
2420 29-06-2019 09:35:00 20.1 C 68 % 14.01 C
2421 29-06-2019 09:40:00 20.7 C 65 % 13.89 C
2422 29-06-2019 09:45:00 21 C 64 % 13.93 C
2423 29-06-2019 09:50:00 21.3 C 63 % 13.97 C
2424 29-06-2019 09:55:00 21.6 C 60 % 13.51 C
2425 29-06-2019 10:00:00 21.9 C 60 % 13.79 C
Sensor: Nr:Datum:Temp:Feuchte:Taupunkt:
Aussen-T/F 2426 29-06-2019 10:05:00 22.2 C 59 % 13.81 C
2427 29-06-2019 10:10:00 22.4 C 58 % 13.73 C
2428 29-06-2019 10:15:00 22.8 C 58 % 14.11 C
2429 29-06-2019 10:20:00 23.1 C 55 % 13.57 C
2430 29-06-2019 10:25:00 23.4 C 54 % 13.57 C
2431 29-06-2019 10:30:00 23.7 C 54 % 13.84 C
2432 29-06-2019 10:35:00 23.9 C 54 % 14.03 C
2433 29-06-2019 10:40:00 24.2 C 52 % 13.73 C
2434 29-06-2019 10:45:00 24.6 C 55 % 14.96 C
2435 29-06-2019 10:50:00 24.8 C 52 % 14.28 C
2436 29-06-2019 10:55:00 24.9 C 50 % 13.77 C
2437 29-06-2019 11:00:00 24.9 C 50 % 13.77 C
2438 29-06-2019 11:05:00 25.1 C 49 % 13.64 C
2439 29-06-2019 11:10:00 25.3 C 50 % 14.13 C
2440 29-06-2019 11:15:00 25.4 C 48 % 13.6 C
2441 29-06-2019 11:20:00 25.7 C 49 % 14.19 C
2442 29-06-2019 11:25:00 25.8 C 48 % 13.96 C
2443 29-06-2019 11:30:00 25.9 C 47 % 13.73 C
2444 29-06-2019 11:35:00 26 C 47 % 13.82 C
2445 29-06-2019 11:40:00 26.2 C 47 % 14 C
2446 29-06-2019 11:45:00 26.3 C 47 % 14.09 C
2447 29-06-2019 11:50:00 26.3 C 47 % 14.09 C
2448 29-06-2019 11:55:00 26.4 C 47 % 14.18 C
2449 29-06-2019 12:00:00 26.5 C 47 % 14.27 C
2450 29-06-2019 12:05:00 26.6 C 46 % 14.03 C
Sensor: Nr:Datum:Temp:Feuchte:Taupunkt:
Aussen-T/F 2451 29-06-2019 12:10:00 26.8 C 46 % 14.21 C
2452 29-06-2019 12:15:00 26.9 C 46 % 14.3 C
2453 29-06-2019 12:20:00 27.1 C 46 % 14.49 C
2454 29-06-2019 12:25:00 27.4 C 45 % 14.42 C
2455 29-06-2019 12:30:00 27.6 C 44 % 14.25 C
2456 29-06-2019 12:35:00 27.7 C 44 % 14.34 C
2457 29-06-2019 12:40:00 27.9 C 44 % 14.52 C
2458 29-06-2019 12:45:00 28.1 C 42 % 13.98 C
2459 29-06-2019 12:50:00 28.2 C 43 % 14.44 C
2460 29-06-2019 12:55:00 28.2 C 42 % 14.07 C
2461 29-06-2019 13:00:00 28.3 C 41 % 13.79 C
2462 29-06-2019 13:05:00 28.4 C 41 % 13.88 C
2463 29-06-2019 13:10:00 28.6 C 40 % 13.68 C
2464 29-06-2019 13:15:00 28.7 C 37 % 12.57 C
2465 29-06-2019 13:20:00 28.8 C 38 % 13.07 C
2466 29-06-2019 13:25:00 29.2 C 34 % 11.73 C
2467 29-06-2019 13:30:00 29.3 C 33 % 11.37 C
2468 29-06-2019 13:35:00 29.5 C 33 % 11.54 C
2469 29-06-2019 13:40:00 29.6 C 33 % 11.63 C
2470 29-06-2019 13:45:00 29.6 C 32 % 11.16 C
2471 29-06-2019 13:50:00 29.6 C 32 % 11.16 C
2472 29-06-2019 13:55:00 29.8 C 31 % 10.86 C
2473 29-06-2019 14:00:00 30.1 C 30 % 10.62 C
2474 29-06-2019 14:05:00 30.1 C 32 % 11.59 C
2475 29-06-2019 14:10:00 30.1 C 31 % 11.12 C
Sensor: Nr:Datum:Temp:Feuchte:Taupunkt:
Aussen-T/F 2476 29-06-2019 14:15:00 30.3 C 32 % 11.77 C
2477 29-06-2019 14:20:00 30.3 C 31 % 11.29 C
2478 29-06-2019 14:25:00 30.4 C 30 % 10.88 C
2479 29-06-2019 14:30:00 30.4 C 32 % 11.85 C
2480 29-06-2019 14:35:00 30.6 C 32 % 12.03 C
2481 29-06-2019 14:40:00 30.8 C 30 % 11.22 C
2482 29-06-2019 14:45:00 31.1 C 29 % 10.97 C
2483 29-06-2019 14:50:00 31.3 C 29 % 11.14 C
2484 29-06-2019 14:55:00 31.5 C 28 % 10.79 C
2485 29-06-2019 15:00:00 31.6 C 28 % 10.87 C
2486 29-06-2019 15:05:00 31.7 C 27 % 10.41 C
2487 29-06-2019 15:10:00 31.7 C 27 % 10.41 C
2488 29-06-2019 15:15:00 31.9 C 27 % 10.58 C
2489 29-06-2019 15:20:00 32.2 C 27 % 10.83 C
2490 29-06-2019 15:25:00 32.3 C 27 % 10.92 C
2491 29-06-2019 15:30:00 32.5 C 27 % 11.09 C
2492 29-06-2019 15:35:00 33 C 28 % 12.06 C
2493 29-06-2019 15:40:00 33.4 C 26 % 11.28 C
2494 29-06-2019 15:45:00 33.7 C 26 % 11.53 C
2495 29-06-2019 15:50:00 33.8 C 24 % 10.41 C
2496 29-06-2019 15:55:00 33.8 C 24 % 10.41 C
2497 29-06-2019 16:00:00 33.9 C 23 % 9.86 C
2498 29-06-2019 16:05:00 34.1 C 24 % 10.66 C
2499 29-06-2019 16:10:00 33.8 C 25 % 11.03 C
2500 29-06-2019 16:15:00 34 C 23 % 9.94 C
Sensor: Nr:Datum:Temp:Feuchte:Taupunkt:
Aussen-T/F 2501 29-06-2019 16:20:00 34.1 C 23 % 10.03 C
2502 29-06-2019 16:25:00 34.3 C 24 % 10.83 C
2503 29-06-2019 16:30:00 34.4 C 23 % 10.28 C
2504 29-06-2019 16:35:00 34.5 C 24 % 11 C
2505 29-06-2019 16:40:00 34.4 C 23 % 10.28 C
2506 29-06-2019 16:45:00 34.4 C 24 % 10.91 C
2507 29-06-2019 16:50:00 34.6 C 22 % 9.78 C
2508 29-06-2019 16:55:00 34.4 C 24 % 10.91 C
2509 29-06-2019 17:00:00 34.7 C 23 % 10.53 C
2510 29-06-2019 17:05:00 34.5 C 21 % 9.01 C
2511 29-06-2019 17:10:00 34.7 C 23 % 10.53 C
2512 29-06-2019 17:15:00 34.9 C 23 % 10.69 C
2513 29-06-2019 17:20:00 35.2 C 22 % 10.27 C
2514 29-06-2019 17:25:00 35.4 C 23 % 11.11 C
2515 29-06-2019 17:30:00 35.7 C 23 % 11.36 C
2516 29-06-2019 17:35:00 35.8 C 22 % 10.77 C
2517 29-06-2019 17:40:00 35.8 C 21 % 10.07 C
2518 29-06-2019 17:45:00 35.7 C 22 % 10.69 C
2519 29-06-2019 17:50:00 35.7 C 21 % 9.99 C
2520 29-06-2019 17:55:00 35.8 C 23 % 11.44 C
2521 29-06-2019 18:00:00 35.8 C 23 % 11.44 C
2522 29-06-2019 18:05:00 36 C 21 % 10.24 C
2523 29-06-2019 18:10:00 36.3 C 22 % 11.18 C
2524 29-06-2019 18:15:00 36 C 21 % 10.24 C
2525 29-06-2019 18:20:00 35.6 C 22 % 10.6 C
Sensor: Nr:Datum:Temp:Feuchte:Taupunkt:
Aussen-T/F 2526 29-06-2019 18:25:00 35.4 C 23 % 11.11 C
2527 29-06-2019 18:30:00 35.3 C 22 % 10.36 C
2528 29-06-2019 18:35:00 35.2 C 22 % 10.27 C
2529 29-06-2019 18:40:00 35.3 C 24 % 11.67 C
2530 29-06-2019 18:45:00 35.4 C 22 % 10.44 C
2531 29-06-2019 18:50:00 35.6 C 24 % 11.92 C
2532 29-06-2019 18:55:00 35.8 C 25 % 12.7 C
2533 29-06-2019 19:00:00 36 C 22 % 10.93 C
2534 29-06-2019 19:05:00 36.1 C 22 % 11.02 C
2535 29-06-2019 19:10:00 36 C 22 % 10.93 C
2536 29-06-2019 19:15:00 35.9 C 22 % 10.85 C
2537 29-06-2019 19:20:00 35.8 C 22 % 10.77 C
2538 29-06-2019 19:25:00 35.4 C 23 % 11.11 C
2539 29-06-2019 19:30:00 35 C 24 % 11.42 C
2540 29-06-2019 19:35:00 34.8 C 24 % 11.25 C
2541 29-06-2019 19:40:00 34.8 C 25 % 11.87 C
2542 29-06-2019 19:45:00 34.7 C 25 % 11.78 C
2543 29-06-2019 19:50:00 34.5 C 25 % 11.61 C
2544 29-06-2019 19:55:00 34.2 C 25 % 11.36 C
2545 29-06-2019 20:00:00 33.8 C 30 % 13.8 C
2546 29-06-2019 20:05:00 33.7 C 30 % 13.71 C
2547 29-06-2019 20:10:00 33.7 C 31 % 14.22 C
2548 29-06-2019 20:15:00 33.6 C 32 % 14.62 C
2549 29-06-2019 20:20:00 33.4 C 32 % 14.45 C
2550 29-06-2019 20:25:00 33.1 C 39 % 17.28 C
Sensor: Nr:Datum:Temp:Feuchte:Taupunkt:
Aussen-T/F 2551 29-06-2019 20:30:00 32.6 C 35 % 15.15 C
2552 29-06-2019 20:35:00 31.9 C 35 % 14.53 C
2553 29-06-2019 20:40:00 31.4 C 36 % 14.53 C
2554 29-06-2019 20:45:00 31 C 35 % 13.75 C
2555 29-06-2019 20:50:00 30.6 C 36 % 13.83 C
2556 29-06-2019 20:55:00 30.3 C 38 % 14.4 C
2557 29-06-2019 21:00:00 29.9 C 38 % 14.04 C
2558 29-06-2019 21:05:00 29.5 C 38 % 13.69 C
2559 29-06-2019 21:10:00 29.1 C 38 % 13.34 C
2560 29-06-2019 21:15:00 28.7 C 39 % 13.38 C
2561 29-06-2019 21:20:00 28.2 C 40 % 13.32 C
2562 29-06-2019 21:25:00 27.7 C 40 % 12.88 C
2563 29-06-2019 21:30:00 27.3 C 41 % 12.9 C
2564 29-06-2019 21:35:00 26.8 C 41 % 12.45 C
2565 29-06-2019 21:40:00 26.4 C 41 % 12.09 C
2566 29-06-2019 21:45:00 26.2 C 41 % 11.91 C
2567 29-06-2019 21:50:00 25.9 C 42 % 12.01 C
2568 29-06-2019 21:55:00 25.6 C 42 % 11.74 C
2569 29-06-2019 22:00:00 25.3 C 43 % 11.83 C
2570 29-06-2019 22:05:00 25.1 C 42 % 11.29 C
2571 29-06-2019 22:10:00 24.8 C 43 % 11.38 C
2572 29-06-2019 22:15:00 24.7 C 44 % 11.63 C
2573 29-06-2019 22:20:00 24.4 C 43 % 11.02 C
2574 29-06-2019 22:25:00 24.3 C 44 % 11.27 C
2575 29-06-2019 22:30:00 24.1 C 44 % 11.09 C
Sensor: Nr:Datum:Temp:Feuchte:Taupunkt:
Aussen-T/F 2576 29-06-2019 22:35:00 24 C 46 % 11.67 C
2577 29-06-2019 22:40:00 23.8 C 47 % 11.82 C
2578 29-06-2019 22:45:00 23.7 C 48 % 12.04 C
2579 29-06-2019 22:50:00 23.4 C 50 % 12.39 C
2580 29-06-2019 22:55:00 23.1 C 51 % 12.42 C
2581 29-06-2019 23:00:00 22.7 C 52 % 12.34 C
2582 29-06-2019 23:05:00 22.4 C 54 % 12.64 C
2583 29-06-2019 23:10:00 22.1 C 54 % 12.36 C
2584 29-06-2019 23:15:00 21.8 C 55 % 12.36 C
2585 29-06-2019 23:20:00 21.6 C 57 % 12.72 C
2586 29-06-2019 23:25:00 21.3 C 57 % 12.44 C
2587 29-06-2019 23:30:00 21.1 C 59 % 12.78 C
2588 29-06-2019 23:35:00 20.7 C 59 % 12.41 C
2589 29-06-2019 23:40:00 20.5 C 60 % 12.47 C
2590 29-06-2019 23:45:00 20.3 C 61 % 12.54 C
2591 29-06-2019 23:50:00 20.2 C 60 % 12.19 C
2592 29-06-2019 23:55:00 20.1 C 61 % 12.35 C
2593 30-06-2019 00:00:00 20 C 62 % 12.5 C
2594 30-06-2019 00:05:00 19.8 C 63 % 12.56 C
2595 30-06-2019 00:10:00 19.6 C 63 % 12.37 C
2596 30-06-2019 00:15:00 19.3 C 64 % 12.32 C
2597 30-06-2019 00:20:00 19.2 C 65 % 12.47 C
2598 30-06-2019 00:25:00 18.9 C 66 % 12.41 C
2599 30-06-2019 00:30:00 18.8 C 67 % 12.55 C
2600 30-06-2019 00:35:00 18.6 C 67 % 12.36 C
Sensor: Nr:Datum:Temp:Feuchte:Taupunkt:
Aussen-T/F 2601 30-06-2019 00:40:00 18.4 C 68 % 12.39 C
2602 30-06-2019 00:45:00 18.3 C 68 % 12.3 C
2603 30-06-2019 00:50:00 18.2 C 68 % 12.2 C
2604 30-06-2019 00:55:00 18.1 C 69 % 12.33 C
2605 30-06-2019 01:00:00 18 C 69 % 12.23 C
2606 30-06-2019 01:05:00 18 C 70 % 12.45 C
2607 30-06-2019 01:10:00 17.9 C 71 % 12.57 C
2608 30-06-2019 01:15:00 17.8 C 72 % 12.69 C
2609 30-06-2019 01:20:00 17.7 C 72 % 12.59 C
2610 30-06-2019 01:25:00 17.6 C 73 % 12.71 C
2611 30-06-2019 01:30:00 17.4 C 73 % 12.51 C
2612 30-06-2019 01:35:00 17.3 C 73 % 12.42 C
2613 30-06-2019 01:40:00 17.2 C 73 % 12.32 C
2614 30-06-2019 01:45:00 17.2 C 73 % 12.32 C
2615 30-06-2019 01:50:00 17.1 C 73 % 12.23 C
2616 30-06-2019 01:55:00 17.1 C 74 % 12.43 C
2617 30-06-2019 02:00:00 17 C 74 % 12.34 C
2618 30-06-2019 02:05:00 16.9 C 74 % 12.24 C
2619 30-06-2019 02:10:00 16.9 C 74 % 12.24 C
2620 30-06-2019 02:15:00 16.9 C 75 % 12.44 C
2621 30-06-2019 02:20:00 16.9 C 75 % 12.44 C
2622 30-06-2019 02:25:00 16.8 C 75 % 12.35 C
2623 30-06-2019 02:30:00 16.7 C 76 % 12.45 C
2624 30-06-2019 02:35:00 16.7 C 76 % 12.45 C
2625 30-06-2019 02:40:00 16.6 C 77 % 12.55 C
Sensor: Nr:Datum:Temp:Feuchte:Taupunkt:
Aussen-T/F 2626 30-06-2019 02:45:00 16.6 C 77 % 12.55 C
2627 30-06-2019 02:50:00 16.5 C 77 % 12.46 C
2628 30-06-2019 02:55:00 16.5 C 77 % 12.46 C
2629 30-06-2019 03:00:00 16.4 C 78 % 12.56 C
2630 30-06-2019 03:05:00 16.3 C 78 % 12.46 C
2631 30-06-2019 03:10:00 16.3 C 78 % 12.46 C
2632 30-06-2019 03:15:00 16.2 C 78 % 12.36 C
2633 30-06-2019 03:20:00 16.2 C 78 % 12.36 C
2634 30-06-2019 03:25:00 16.2 C 79 % 12.56 C
2635 30-06-2019 03:30:00 16.1 C 79 % 12.46 C
2636 30-06-2019 03:35:00 16.1 C 79 % 12.46 C
2637 30-06-2019 03:40:00 16 C 79 % 12.36 C
2638 30-06-2019 03:45:00 15.9 C 79 % 12.27 C
2639 30-06-2019 03:50:00 15.8 C 80 % 12.36 C
2640 30-06-2019 03:55:00 15.8 C 80 % 12.36 C
2641 30-06-2019 04:00:00 15.8 C 80 % 12.36 C
2642 30-06-2019 04:05:00 15.8 C 80 % 12.36 C
2643 30-06-2019 04:10:00 15.7 C 80 % 12.26 C
2644 30-06-2019 04:15:00 15.7 C 81 % 12.45 C
2645 30-06-2019 04:20:00 15.7 C 82 % 12.64 C
2646 30-06-2019 04:25:00 15.7 C 82 % 12.64 C
2647 30-06-2019 04:30:00 15.6 C 81 % 12.35 C
2648 30-06-2019 04:35:00 15.5 C 82 % 12.44 C
2649 30-06-2019 04:40:00 15.4 C 82 % 12.35 C
2650 30-06-2019 04:45:00 15.4 C 82 % 12.35 C
Sensor: Nr:Datum:Temp:Feuchte:Taupunkt:
Aussen-T/F 2651 30-06-2019 04:50:00 15.4 C 82 % 12.35 C
2652 30-06-2019 04:55:00 15.3 C 82 % 12.25 C
2653 30-06-2019 05:00:00 15.3 C 82 % 12.25 C
2654 30-06-2019 05:05:00 15.2 C 82 % 12.15 C
2655 30-06-2019 05:10:00 15.2 C 83 % 12.33 C
2656 30-06-2019 05:15:00 15.1 C 83 % 12.24 C
2657 30-06-2019 05:20:00 15.1 C 83 % 12.24 C
2658 30-06-2019 05:25:00 15.1 C 84 % 12.42 C
2659 30-06-2019 05:30:00 15.1 C 84 % 12.42 C
2660 30-06-2019 05:35:00 15 C 84 % 12.32 C
2661 30-06-2019 05:40:00 15 C 84 % 12.32 C
2662 30-06-2019 05:45:00 14.9 C 84 % 12.22 C
2663 30-06-2019 05:50:00 14.8 C 85 % 12.3 C
2664 30-06-2019 05:55:00 14.8 C 85 % 12.3 C
2665 30-06-2019 06:00:00 14.8 C 86 % 12.48 C
2666 30-06-2019 06:05:00 14.8 C 86 % 12.48 C
2667 30-06-2019 06:10:00 14.8 C 86 % 12.48 C
2668 30-06-2019 06:15:00 14.8 C 86 % 12.48 C
2669 30-06-2019 06:20:00 14.8 C 86 % 12.48 C
2670 30-06-2019 06:25:00 14.8 C 86 % 12.48 C
2671 30-06-2019 06:30:00 14.8 C 87 % 12.66 C
2672 30-06-2019 06:35:00 14.9 C 87 % 12.76 C
2673 30-06-2019 06:40:00 14.9 C 87 % 12.76 C
2674 30-06-2019 06:45:00 14.9 C 87 % 12.76 C
2675 30-06-2019 06:50:00 14.9 C 87 % 12.76 C
Sensor: Nr:Datum:Temp:Feuchte:Taupunkt:
Aussen-T/F 2676 30-06-2019 06:55:00 15 C 87 % 12.86 C
2677 30-06-2019 07:00:00 15 C 87 % 12.86 C
2678 30-06-2019 07:05:00 15.1 C 87 % 12.95 C
2679 30-06-2019 07:10:00 15.1 C 88 % 13.13 C
2680 30-06-2019 07:15:00 15.2 C 88 % 13.23 C
2681 30-06-2019 07:20:00 15.3 C 88 % 13.33 C
2682 30-06-2019 07:25:00 15.4 C 88 % 13.42 C
2683 30-06-2019 07:30:00 15.5 C 88 % 13.52 C
2684 30-06-2019 07:35:00 15.6 C 88 % 13.62 C
2685 30-06-2019 07:40:00 15.7 C 88 % 13.72 C
2686 30-06-2019 07:45:00 15.7 C 88 % 13.72 C
2687 30-06-2019 07:50:00 15.8 C 88 % 13.82 C
2688 30-06-2019 07:55:00 15.9 C 88 % 13.92 C
2689 30-06-2019 08:00:00 16.1 C 88 % 14.11 C
2690 30-06-2019 08:05:00 16.3 C 88 % 14.31 C
2691 30-06-2019 08:10:00 16.4 C 87 % 14.23 C
2692 30-06-2019 08:15:00 16.6 C 87 % 14.43 C
2693 30-06-2019 08:20:00 16.7 C 87 % 14.53 C
2694 30-06-2019 08:25:00 16.8 C 86 % 14.45 C
2695 30-06-2019 08:30:00 17.1 C 87 % 14.92 C
2696 30-06-2019 08:35:00 17.2 C 86 % 14.84 C
2697 30-06-2019 08:40:00 17.4 C 86 % 15.03 C
2698 30-06-2019 08:45:00 17.7 C 85 % 15.15 C
2699 30-06-2019 08:50:00 17.9 C 85 % 15.34 C
2700 30-06-2019 08:55:00 18.1 C 85 % 15.54 C
Sensor: Nr:Datum:Temp:Feuchte:Taupunkt:
Aussen-T/F 2701 30-06-2019 09:00:00 18.3 C 85 % 15.74 C
2702 30-06-2019 09:05:00 18.4 C 85 % 15.83 C
2703 30-06-2019 09:10:00 18.7 C 84 % 15.94 C
2704 30-06-2019 09:15:00 18.9 C 84 % 16.14 C
2705 30-06-2019 09:20:00 19.1 C 84 % 16.33 C
2706 30-06-2019 09:25:00 19.3 C 83 % 16.34 C
2707 30-06-2019 09:30:00 19.6 C 82 % 16.44 C
2708 30-06-2019 09:35:00 19.9 C 80 % 16.35 C
2709 30-06-2019 09:40:00 20.3 C 79 % 16.54 C
2710 30-06-2019 09:45:00 20.7 C 78 % 16.73 C
2711 30-06-2019 09:50:00 21.2 C 78 % 17.21 C
2712 30-06-2019 09:55:00 21.5 C 77 % 17.3 C
2713 30-06-2019 10:00:00 21.9 C 75 % 17.27 C
2714 30-06-2019 10:05:00 22.3 C 74 % 17.44 C
2715 30-06-2019 10:10:00 22.7 C 73 % 17.61 C
2716 30-06-2019 10:15:00 23.1 C 75 % 18.43 C
2717 30-06-2019 10:20:00 23.5 C 73 % 18.38 C
2718 30-06-2019 10:25:00 24.3 C 68 % 18.01 C
2719 30-06-2019 10:30:00 25.3 C 65 % 18.25 C
2720 30-06-2019 10:35:00 26.2 C 62 % 18.34 C
2721 30-06-2019 10:40:00 27.4 C 58 % 18.4 C
2722 30-06-2019 10:45:00 28.1 C 54 % 17.92 C
2723 30-06-2019 10:50:00 28.7 C 51 % 17.56 C
2724 30-06-2019 10:55:00 29.2 C 49 % 17.39 C
2725 30-06-2019 11:00:00 29.5 C 49 % 17.66 C
Sensor: Nr:Datum:Temp:Feuchte:Taupunkt:
Aussen-T/F 2726 30-06-2019 11:05:00 29.7 C 48 % 17.51 C
2727 30-06-2019 11:10:00 29.8 C 49 % 17.93 C
2728 30-06-2019 11:15:00 30.1 C 46 % 17.2 C
2729 30-06-2019 11:20:00 30.3 C 46 % 17.39 C
2730 30-06-2019 11:25:00 30.6 C 45 % 17.31 C
2731 30-06-2019 11:30:00 30.8 C 44 % 17.13 C
2732 30-06-2019 11:35:00 31 C 44 % 17.31 C
2733 30-06-2019 11:40:00 31.1 C 43 % 17.04 C
2734 30-06-2019 11:45:00 31.2 C 44 % 17.49 C
2735 30-06-2019 11:50:00 31.4 C 43 % 17.31 C
2736 30-06-2019 11:55:00 31.6 C 42 % 17.12 C
2737 30-06-2019 12:00:00 31.7 C 43 % 17.58 C
2738 30-06-2019 12:05:00 31.8 C 42 % 17.3 C
2739 30-06-2019 12:10:00 31.9 C 42 % 17.39 C
2740 30-06-2019 12:15:00 32.1 C 40 % 16.79 C
2741 30-06-2019 12:20:00 32.2 C 41 % 17.27 C
2742 30-06-2019 12:25:00 32.3 C 41 % 17.36 C
2743 30-06-2019 12:30:00 32.4 C 39 % 16.66 C
2744 30-06-2019 12:35:00 32.7 C 39 % 16.93 C
2745 30-06-2019 12:40:00 32.9 C 39 % 17.11 C
2746 30-06-2019 12:45:00 33.1 C 39 % 17.28 C
2747 30-06-2019 12:50:00 33.3 C 38 % 17.05 C
2748 30-06-2019 12:55:00 33.4 C 37 % 16.72 C
2749 30-06-2019 13:00:00 33.8 C 36 % 16.64 C
2750 30-06-2019 13:05:00 33.9 C 38 % 17.58 C
Sensor: Nr:Datum:Temp:Feuchte:Taupunkt:
Aussen-T/F 2751 30-06-2019 13:10:00 34 C 37 % 17.25 C
2752 30-06-2019 13:15:00 34.1 C 35 % 16.46 C
2753 30-06-2019 13:20:00 34.3 C 35 % 16.63 C
2754 30-06-2019 13:25:00 34.6 C 35 % 16.89 C
2755 30-06-2019 13:30:00 34.8 C 35 % 17.07 C
2756 30-06-2019 13:35:00 35 C 33 % 16.32 C
2757 30-06-2019 13:40:00 35.1 C 34 % 16.87 C
2758 30-06-2019 13:45:00 35.1 C 35 % 17.33 C
2759 30-06-2019 13:50:00 35.2 C 34 % 16.96 C
2760 30-06-2019 13:55:00 35.3 C 33 % 16.58 C
2761 30-06-2019 14:00:00 35.4 C 34 % 17.13 C
2762 30-06-2019 14:05:00 35.7 C 32 % 16.44 C
2763 30-06-2019 14:10:00 35.8 C 33 % 17.01 C
2764 30-06-2019 14:15:00 35.8 C 34 % 17.48 C
2765 30-06-2019 14:20:00 35.8 C 34 % 17.48 C
2766 30-06-2019 14:25:00 35.8 C 35 % 17.94 C
2767 30-06-2019 14:30:00 36 C 35 % 18.12 C
2768 30-06-2019 14:35:00 36.3 C 34 % 17.92 C
2769 30-06-2019 14:40:00 36.4 C 34 % 18 C
2770 30-06-2019 14:45:00 36.6 C 34 % 18.18 C
2771 30-06-2019 14:50:00 36.4 C 36 % 18.92 C
2772 30-06-2019 14:55:00 36.1 C 37 % 19.09 C
2773 30-06-2019 15:00:00 35.8 C 36 % 18.39 C
2774 30-06-2019 15:05:00 35.6 C 39 % 19.5 C
2775 30-06-2019 15:10:00 35.4 C 38 % 18.9 C
Sensor: Nr:Datum:Temp:Feuchte:Taupunkt:
Aussen-T/F 2776 30-06-2019 15:15:00 35.3 C 41 % 20.04 C
2777 30-06-2019 15:20:00 35.4 C 40 % 19.73 C
2778 30-06-2019 15:25:00 35.4 C 42 % 20.52 C
2779 30-06-2019 15:30:00 35.3 C 41 % 20.04 C
2780 30-06-2019 15:35:00 35.3 C 43 % 20.81 C
2781 30-06-2019 15:40:00 35.5 C 43 % 20.99 C
2782 30-06-2019 15:45:00 35.6 C 42 % 20.7 C
2783 30-06-2019 15:50:00 35.7 C 41 % 20.39 C
2784 30-06-2019 15:55:00 35.7 C 43 % 21.17 C
2785 30-06-2019 16:00:00 35.7 C 43 % 21.17 C
2786 30-06-2019 16:05:00 35.3 C 43 % 20.81 C
2787 30-06-2019 16:10:00 35.2 C 45 % 21.46 C
2788 30-06-2019 16:15:00 35.3 C 46 % 21.91 C
2789 30-06-2019 16:20:00 35.1 C 46 % 21.73 C
2790 30-06-2019 16:25:00 35 C 46 % 21.64 C
2791 30-06-2019 16:30:00 35.2 C 45 % 21.46 C
2792 30-06-2019 16:35:00 35.6 C 46 % 22.18 C
2793 30-06-2019 16:40:00 35.9 C 45 % 22.09 C
2794 30-06-2019 16:45:00 35.9 C 45 % 22.09 C
2795 30-06-2019 16:50:00 35.8 C 45 % 22 C
2796 30-06-2019 16:55:00 35.9 C 45 % 22.09 C
2797 30-06-2019 17:00:00 35.9 C 46 % 22.45 C
2798 30-06-2019 17:05:00 35.9 C 43 % 21.35 C
2799 30-06-2019 17:10:00 35.9 C 45 % 22.09 C
2800 30-06-2019 17:15:00 35.9 C 45 % 22.09 C
Sensor: Nr:Datum:Temp:Feuchte:Taupunkt:
Aussen-T/F 2801 30-06-2019 17:20:00 35.7 C 46 % 22.27 C
2802 30-06-2019 17:25:00 35.7 C 46 % 22.27 C
2803 30-06-2019 17:30:00 35.9 C 46 % 22.45 C
2804 30-06-2019 17:35:00 35.9 C 46 % 22.45 C
2805 30-06-2019 17:40:00 35.8 C 46 % 22.36 C
2806 30-06-2019 17:45:00 35.9 C 46 % 22.45 C
2807 30-06-2019 17:50:00 35.9 C 46 % 22.45 C
2808 30-06-2019 17:55:00 36.1 C 46 % 22.63 C
2809 30-06-2019 18:00:00 35.9 C 46 % 22.45 C
2810 30-06-2019 18:05:00 35.8 C 45 % 22 C
2811 30-06-2019 18:10:00 35.6 C 45 % 21.82 C
2812 30-06-2019 18:15:00 35.5 C 45 % 21.73 C
2813 30-06-2019 18:20:00 35.3 C 45 % 21.55 C
2814 30-06-2019 18:25:00 35.1 C 47 % 22.08 C
2815 30-06-2019 18:30:00 34.8 C 47 % 21.81 C
2816 30-06-2019 18:35:00 34.7 C 47 % 21.72 C
2817 30-06-2019 18:40:00 34.4 C 48 % 21.79 C
2818 30-06-2019 18:45:00 34.3 C 47 % 21.36 C
2819 30-06-2019 18:50:00 34.2 C 47 % 21.27 C
2820 30-06-2019 18:55:00 34.1 C 47 % 21.18 C
2821 30-06-2019 19:00:00 33.9 C 48 % 21.34 C
2822 30-06-2019 19:05:00 33.9 C 48 % 21.34 C
2823 30-06-2019 19:10:00 33.7 C 48 % 21.16 C
2824 30-06-2019 19:15:00 33.4 C 48 % 20.88 C
2825 30-06-2019 19:20:00 32.9 C 50 % 21.09 C
Sensor: Nr:Datum:Temp:Feuchte:Taupunkt:
Aussen-T/F 2826 30-06-2019 19:25:00 32.4 C 51 % 20.96 C
2827 30-06-2019 19:30:00 32.4 C 53 % 21.58 C
2828 30-06-2019 19:35:00 32.4 C 51 % 20.96 C
2829 30-06-2019 19:40:00 32.3 C 52 % 21.18 C
2830 30-06-2019 19:45:00 31.9 C 52 % 20.81 C
2831 30-06-2019 19:50:00 31.6 C 53 % 20.85 C
2832 30-06-2019 19:55:00 31.1 C 54 % 20.69 C
2833 30-06-2019 20:00:00 30.8 C 55 % 20.71 C
2834 30-06-2019 20:05:00 30.5 C 56 % 20.72 C
2835 30-06-2019 20:10:00 30.3 C 57 % 20.83 C
2836 30-06-2019 20:15:00 30 C 58 % 20.83 C
2837 30-06-2019 20:20:00 29.6 C 59 % 20.73 C
2838 30-06-2019 20:25:00 29.3 C 59 % 20.45 C
2839 30-06-2019 20:30:00 29.1 C 61 % 20.81 C
2840 30-06-2019 20:35:00 28.9 C 60 % 20.35 C
2841 30-06-2019 20:40:00 28.7 C 60 % 20.16 C
2842 30-06-2019 20:45:00 28.6 C 60 % 20.07 C
2843 30-06-2019 20:50:00 28.3 C 60 % 19.79 C
2844 30-06-2019 20:55:00 28.1 C 61 % 19.87 C
2845 30-06-2019 21:00:00 27.9 C 61 % 19.68 C
2846 30-06-2019 21:05:00 27.7 C 61 % 19.49 C
2847 30-06-2019 21:10:00 27.5 C 62 % 19.57 C
2848 30-06-2019 21:15:00 27.4 C 62 % 19.47 C
2849 30-06-2019 21:20:00 27.3 C 62 % 19.38 C
2850 30-06-2019 21:25:00 27.2 C 62 % 19.28 C
Sensor: Nr:Datum:Temp:Feuchte:Taupunkt:
Aussen-T/F 2851 30-06-2019 21:30:00 27.1 C 62 % 19.19 C
2852 30-06-2019 21:35:00 27 C 63 % 19.35 C
2853 30-06-2019 21:40:00 26.9 C 63 % 19.26 C
2854 30-06-2019 21:45:00 26.8 C 64 % 19.42 C
2855 30-06-2019 21:50:00 26.7 C 64 % 19.32 C
2856 30-06-2019 21:55:00 26.7 C 64 % 19.32 C
2857 30-06-2019 22:00:00 26.7 C 64 % 19.32 C
2858 30-06-2019 22:05:00 26.6 C 64 % 19.23 C
2859 30-06-2019 22:10:00 26.6 C 64 % 19.23 C
2860 30-06-2019 22:15:00 26.5 C 63 % 18.88 C
2861 30-06-2019 22:20:00 26.4 C 64 % 19.04 C
2862 30-06-2019 22:25:00 26.3 C 64 % 18.94 C
2863 30-06-2019 22:30:00 26.3 C 63 % 18.69 C
2864 30-06-2019 22:35:00 26.2 C 63 % 18.6 C
2865 30-06-2019 22:40:00 26.1 C 64 % 18.76 C
2866 30-06-2019 22:45:00 25.9 C 63 % 18.31 C
2867 30-06-2019 22:50:00 25.8 C 64 % 18.47 C
2868 30-06-2019 22:55:00 25.7 C 64 % 18.38 C
2869 30-06-2019 23:00:00 25.6 C 65 % 18.53 C
2870 30-06-2019 23:05:00 25.4 C 64 % 18.09 C
2871 30-06-2019 23:10:00 25.3 C 64 % 18 C
2872 30-06-2019 23:15:00 25.2 C 65 % 18.15 C
2873 30-06-2019 23:20:00 25 C 65 % 17.96 C
2874 30-06-2019 23:25:00 24.8 C 66 % 18.01 C
2875 30-06-2019 23:30:00 24.5 C 68 % 18.2 C
Sensor: Nr:Datum:Temp:Feuchte:Taupunkt:
Aussen-T/F 2876 30-06-2019 23:35:00 24.2 C 68 % 17.92 C
2877 30-06-2019 23:40:00 23.9 C 69 % 17.87 C
2878 30-06-2019 23:45:00 23.8 C 69 % 17.77 C
2879 30-06-2019 23:50:00 23.6 C 70 % 17.81 C
2880 30-06-2019 23:55:00 23.4 C 71 % 17.84 C
2881 01-07-2019 00:00:00 23.3 C 71 % 17.75 C
2882 01-07-2019 00:05:00 23.2 C 71 % 17.65 C
2883 01-07-2019 00:10:00 23.1 C 72 % 17.78 C
2884 01-07-2019 00:15:00 22.9 C 73 % 17.8 C
2885 01-07-2019 00:20:00 22.8 C 73 % 17.71 C
2886 01-07-2019 00:25:00 22.7 C 73 % 17.61 C
2887 01-07-2019 00:30:00 22.6 C 74 % 17.73 C
2888 01-07-2019 00:35:00 22.4 C 74 % 17.54 C
2889 01-07-2019 00:40:00 22.4 C 74 % 17.54 C
2890 01-07-2019 00:45:00 22.3 C 74 % 17.44 C
2891 01-07-2019 00:50:00 22.3 C 74 % 17.44 C
2892 01-07-2019 00:55:00 22.2 C 74 % 17.34 C
2893 01-07-2019 01:00:00 22.2 C 74 % 17.34 C
2894 01-07-2019 01:05:00 22.2 C 74 % 17.34 C
2895 01-07-2019 01:10:00 22.2 C 74 % 17.34 C
2896 01-07-2019 01:15:00 22.2 C 74 % 17.34 C
2897 01-07-2019 01:20:00 22.2 C 75 % 17.56 C
2898 01-07-2019 01:25:00 22.1 C 75 % 17.46 C
2899 01-07-2019 01:30:00 22.1 C 74 % 17.25 C
2900 01-07-2019 01:35:00 22.3 C 73 % 17.23 C
Sensor: Nr:Datum:Temp:Feuchte:Taupunkt:
Aussen-T/F 2901 01-07-2019 01:40:00 22.6 C 72 % 17.3 C
2902 01-07-2019 01:45:00 22.7 C 71 % 17.17 C
2903 01-07-2019 01:50:00 22.8 C 70 % 17.04 C
2904 01-07-2019 01:55:00 22.8 C 71 % 17.27 C
2905 01-07-2019 02:00:00 22.7 C 71 % 17.17 C
2906 01-07-2019 02:05:00 22.4 C 72 % 17.1 C
2907 01-07-2019 02:10:00 22.2 C 72 % 16.91 C
2908 01-07-2019 02:15:00 22 C 73 % 16.94 C
2909 01-07-2019 02:20:00 21.8 C 74 % 16.96 C
2910 01-07-2019 02:25:00 21.6 C 74 % 16.77 C
2911 01-07-2019 02:30:00 21.4 C 75 % 16.79 C
2912 01-07-2019 02:35:00 21.3 C 75 % 16.69 C
2913 01-07-2019 02:40:00 21.2 C 75 % 16.59 C
2914 01-07-2019 02:45:00 21.1 C 76 % 16.7 C
2915 01-07-2019 02:50:00 21 C 75 % 16.4 C
2916 01-07-2019 02:55:00 20.9 C 75 % 16.3 C
2917 01-07-2019 03:00:00 20.9 C 74 % 16.09 C
2918 01-07-2019 03:05:00 20.9 C 75 % 16.3 C
2919 01-07-2019 03:10:00 20.9 C 75 % 16.3 C
2920 01-07-2019 03:15:00 20.8 C 73 % 15.78 C
2921 01-07-2019 03:20:00 20.8 C 73 % 15.78 C
2922 01-07-2019 03:25:00 20.9 C 72 % 15.66 C
2923 01-07-2019 03:30:00 21.1 C 71 % 15.64 C
2924 01-07-2019 03:35:00 21.2 C 70 % 15.51 C
2925 01-07-2019 03:40:00 21.2 C 70 % 15.51 C
Sensor: Nr:Datum:Temp:Feuchte:Taupunkt:
Aussen-T/F 2926 01-07-2019 03:45:00 21.1 C 70 % 15.42 C
2927 01-07-2019 03:50:00 21.1 C 71 % 15.64 C
2928 01-07-2019 03:55:00 20.9 C 71 % 15.45 C
2929 01-07-2019 04:00:00 20.9 C 70 % 15.23 C
2930 01-07-2019 04:05:00 20.8 C 70 % 15.13 C
2931 01-07-2019 04:10:00 20.8 C 70 % 15.13 C
2932 01-07-2019 04:15:00 20.7 C 71 % 15.25 C
2933 01-07-2019 04:20:00 20.6 C 71 % 15.16 C
2934 01-07-2019 04:25:00 20.3 C 72 % 15.09 C
2935 01-07-2019 04:30:00 20.2 C 73 % 15.21 C
2936 01-07-2019 04:35:00 20 C 72 % 14.8 C
2937 01-07-2019 04:40:00 20 C 73 % 15.01 C
2938 01-07-2019 04:45:00 19.9 C 72 % 14.7 C
2939 01-07-2019 04:50:00 20 C 73 % 15.01 C
2940 01-07-2019 04:55:00 19.9 C 74 % 15.13 C
2941 01-07-2019 05:00:00 19.9 C 74 % 15.13 C
2942 01-07-2019 05:05:00 19.8 C 74 % 15.03 C
2943 01-07-2019 05:10:00 19.8 C 73 % 14.82 C
2944 01-07-2019 05:15:00 19.8 C 73 % 14.82 C
2945 01-07-2019 05:20:00 19.8 C 73 % 14.82 C
2946 01-07-2019 05:25:00 19.8 C 73 % 14.82 C
2947 01-07-2019 05:30:00 19.7 C 73 % 14.73 C
2948 01-07-2019 05:35:00 19.6 C 73 % 14.63 C
2949 01-07-2019 05:40:00 19.5 C 73 % 14.53 C
2950 01-07-2019 05:45:00 19.4 C 73 % 14.44 C
Sensor: Nr:Datum:Temp:Feuchte:Taupunkt:
Aussen-T/F 2951 01-07-2019 05:50:00 19.4 C 73 % 14.44 C
2952 01-07-2019 05:55:00 19.4 C 72 % 14.22 C
2953 01-07-2019 06:00:00 19.5 C 72 % 14.32 C
2954 01-07-2019 06:05:00 19.6 C 71 % 14.2 C
2955 01-07-2019 06:10:00 19.6 C 72 % 14.42 C
2956 01-07-2019 06:15:00 19.6 C 72 % 14.42 C
2957 01-07-2019 06:20:00 19.6 C 72 % 14.42 C
2958 01-07-2019 06:25:00 19.6 C 70 % 13.98 C
2959 01-07-2019 06:30:00 19.7 C 71 % 14.3 C
2960 01-07-2019 06:35:00 19.7 C 72 % 14.51 C
2961 01-07-2019 06:40:00 19.8 C 70 % 14.17 C
2962 01-07-2019 06:45:00 19.8 C 70 % 14.17 C
2963 01-07-2019 06:50:00 19.8 C 69 % 13.95 C
2964 01-07-2019 06:55:00 19.9 C 70 % 14.27 C
2965 01-07-2019 07:00:00 19.8 C 68 % 13.73 C
2966 01-07-2019 07:05:00 19.8 C 69 % 13.95 C
2967 01-07-2019 07:10:00 19.8 C 70 % 14.17 C
2968 01-07-2019 07:15:00 19.8 C 70 % 14.17 C
2969 01-07-2019 07:20:00 19.8 C 71 % 14.39 C
2970 01-07-2019 07:25:00 19.7 C 72 % 14.51 C
2971 01-07-2019 07:30:00 19.7 C 73 % 14.73 C
2972 01-07-2019 07:35:00 19.6 C 71 % 14.2 C
2973 01-07-2019 07:40:00 19.6 C 72 % 14.42 C
2974 01-07-2019 07:45:00 19.5 C 71 % 14.1 C
2975 01-07-2019 07:50:00 19.5 C 72 % 14.32 C
Sensor: Nr:Datum:Temp:Feuchte:Taupunkt:
Aussen-T/F 2976 01-07-2019 07:55:00 19.5 C 72 % 14.32 C
2977 01-07-2019 08:00:00 19.4 C 72 % 14.22 C
2978 01-07-2019 08:05:00 19.4 C 72 % 14.22 C
2979 01-07-2019 08:10:00 19.4 C 72 % 14.22 C
2980 01-07-2019 08:15:00 19.6 C 71 % 14.2 C
2981 01-07-2019 08:20:00 19.6 C 70 % 13.98 C
2982 01-07-2019 08:25:00 19.7 C 72 % 14.51 C
2983 01-07-2019 08:30:00 19.8 C 71 % 14.39 C
2984 01-07-2019 08:35:00 19.9 C 70 % 14.27 C
2985 01-07-2019 08:40:00 20 C 70 % 14.36 C
2986 01-07-2019 08:45:00 20.2 C 70 % 14.56 C
2987 01-07-2019 08:50:00 20.2 C 68 % 14.11 C
2988 01-07-2019 08:55:00 20.3 C 70 % 14.65 C
2989 01-07-2019 09:00:00 20.3 C 69 % 14.43 C
2990 01-07-2019 09:05:00 20.3 C 68 % 14.2 C
2991 01-07-2019 09:10:00 20.3 C 67 % 13.97 C
2992 01-07-2019 09:15:00 20.3 C 68 % 14.2 C
2993 01-07-2019 09:20:00 20.3 C 69 % 14.43 C
2994 01-07-2019 09:25:00 20.2 C 70 % 14.56 C
2995 01-07-2019 09:30:00 20.2 C 70 % 14.56 C
2996 01-07-2019 09:35:00 20.1 C 70 % 14.46 C
2997 01-07-2019 09:40:00 20.1 C 70 % 14.46 C
2998 01-07-2019 09:45:00 20.2 C 70 % 14.56 C
2999 01-07-2019 09:50:00 20.2 C 70 % 14.56 C
3000 01-07-2019 09:55:00 20.4 C 70 % 14.75 C
Sensor: Nr:Datum:Temp:Feuchte:Taupunkt:
Aussen-T/F 3001 01-07-2019 10:00:00 20.6 C 70 % 14.94 C
3002 01-07-2019 10:05:00 20.8 C 68 % 14.68 C
3003 01-07-2019 10:10:00 20.8 C 68 % 14.68 C
3004 01-07-2019 10:15:00 20.9 C 68 % 14.77 C
3005 01-07-2019 10:20:00 21.2 C 69 % 15.29 C
3006 01-07-2019 10:25:00 21.4 C 68 % 15.25 C
3007 01-07-2019 10:30:00 21.6 C 67 % 15.21 C
3008 01-07-2019 10:35:00 21.5 C 67 % 15.12 C
3009 01-07-2019 10:40:00 21.4 C 72 % 16.14 C
3010 01-07-2019 10:45:00 21.4 C 71 % 15.93 C
3011 01-07-2019 10:50:00 21.5 C 69 % 15.57 C
3012 01-07-2019 10:55:00 21.4 C 69 % 15.48 C
3013 01-07-2019 11:00:00 21.4 C 69 % 15.48 C
3014 01-07-2019 11:05:00 21.4 C 69 % 15.48 C
3015 01-07-2019 11:10:00 21.4 C 70 % 15.7 C
3016 01-07-2019 11:15:00 21.4 C 70 % 15.7 C
3017 01-07-2019 11:20:00 21.6 C 70 % 15.89 C
3018 01-07-2019 11:25:00 21.6 C 70 % 15.89 C
3019 01-07-2019 11:30:00 21.7 C 71 % 16.21 C
3020 01-07-2019 11:35:00 21.9 C 70 % 16.18 C
3021 01-07-2019 11:40:00 22.1 C 70 % 16.37 C
3022 01-07-2019 11:45:00 22.2 C 69 % 16.24 C
3023 01-07-2019 11:50:00 22.3 C 67 % 15.88 C
3024 01-07-2019 11:55:00 22.4 C 66 % 15.74 C
3025 01-07-2019 12:00:00 22.4 C 66 % 15.74 C
Sensor: Nr:Datum:Temp:Feuchte:Taupunkt:
Aussen-T/F 3026 01-07-2019 12:05:00 22.5 C 65 % 15.59 C
3027 01-07-2019 12:10:00 22.6 C 65 % 15.69 C
3028 01-07-2019 12:15:00 22.7 C 66 % 16.02 C
3029 01-07-2019 12:20:00 22.8 C 65 % 15.88 C
3030 01-07-2019 12:25:00 23 C 65 % 16.07 C
3031 01-07-2019 12:30:00 23.2 C 66 % 16.5 C
3032 01-07-2019 12:35:00 23.4 C 63 % 15.96 C
3033 01-07-2019 12:40:00 23.5 C 63 % 16.05 C
3034 01-07-2019 12:45:00 23.7 C 62 % 15.99 C
3035 01-07-2019 12:50:00 23.9 C 54 % 14.03 C
3036 01-07-2019 12:55:00 24.3 C 53 % 14.11 C
3037 01-07-2019 13:00:00 24.7 C 49 % 13.27 C
3038 01-07-2019 13:05:00 24.8 C 47 % 12.73 C
3039 01-07-2019 13:10:00 25.1 C 47 % 13 C
3040 01-07-2019 13:15:00 25 C 50 % 13.86 C
3041 01-07-2019 13:20:00 24.8 C 52 % 14.28 C
3042 01-07-2019 13:25:00 24.8 C 53 % 14.57 C
3043 01-07-2019 13:30:00 24.8 C 53 % 14.57 C
3044 01-07-2019 13:35:00 24.9 C 52 % 14.37 C
3045 01-07-2019 13:40:00 25 C 52 % 14.46 C
3046 01-07-2019 13:45:00 25 C 52 % 14.46 C
3047 01-07-2019 13:50:00 24.9 C 51 % 14.07 C
3048 01-07-2019 13:55:00 24.9 C 53 % 14.66 C
3049 01-07-2019 14:00:00 25.2 C 52 % 14.65 C
3050 01-07-2019 14:05:00 25.2 C 53 % 14.94 C
Sensor: Nr:Datum:Temp:Feuchte:Taupunkt:
Aussen-T/F 3051 01-07-2019 14:10:00 25.2 C 53 % 14.94 C
3052 01-07-2019 14:15:00 25.2 C 51 % 14.35 C
3053 01-07-2019 14:20:00 25.2 C 51 % 14.35 C
3054 01-07-2019 14:25:00 25.4 C 51 % 14.53 C
3055 01-07-2019 14:30:00 25.7 C 51 % 14.81 C
3056 01-07-2019 14:35:00 25.7 C 50 % 14.5 C
3057 01-07-2019 14:40:00 25.8 C 50 % 14.59 C
3058 01-07-2019 14:45:00 25.8 C 51 % 14.9 C
3059 01-07-2019 14:50:00 26 C 52 % 15.38 C
3060 01-07-2019 14:55:00 26.3 C 49 % 14.74 C
3061 01-07-2019 15:00:00 26.3 C 51 % 15.36 C
3062 01-07-2019 15:05:00 26.6 C 50 % 15.32 C
3063 01-07-2019 15:10:00 26.9 C 48 % 14.96 C
3064 01-07-2019 15:15:00 26.9 C 46 % 14.3 C
3065 01-07-2019 15:20:00 26.8 C 48 % 14.87 C
3066 01-07-2019 15:25:00 26.8 C 47 % 14.55 C
3067 01-07-2019 15:30:00 26.8 C 47 % 14.55 C
3068 01-07-2019 15:35:00 27 C 46 % 14.39 C
3069 01-07-2019 15:40:00 26.9 C 45 % 13.96 C
3070 01-07-2019 15:45:00 26.8 C 46 % 14.21 C
3071 01-07-2019 15:50:00 26.3 C 46 % 13.76 C
3072 01-07-2019 15:55:00 26 C 46 % 13.49 C
3073 01-07-2019 16:00:00 25.8 C 48 % 13.96 C
3074 01-07-2019 16:05:00 25.8 C 48 % 13.96 C
3075 01-07-2019 16:10:00 26.1 C 47 % 13.91 C
Sensor: Nr:Datum:Temp:Feuchte:Taupunkt:
Aussen-T/F 3076 01-07-2019 16:15:00 26.5 C 46 % 13.94 C
3077 01-07-2019 16:20:00 26.8 C 45 % 13.87 C
3078 01-07-2019 16:25:00 27.1 C 44 % 13.8 C
3079 01-07-2019 16:30:00 27.2 C 43 % 13.54 C
3080 01-07-2019 16:35:00 27.3 C 43 % 13.63 C
3081 01-07-2019 16:40:00 27.7 C 43 % 13.99 C
3082 01-07-2019 16:45:00 27.7 C 41 % 13.25 C
3083 01-07-2019 16:50:00 27.5 C 41 % 13.08 C
3084 01-07-2019 16:55:00 27.2 C 43 % 13.54 C
3085 01-07-2019 17:00:00 27.2 C 42 % 13.18 C
3086 01-07-2019 17:05:00 27.1 C 42 % 13.09 C
3087 01-07-2019 17:10:00 27.2 C 42 % 13.18 C
3088 01-07-2019 17:15:00 27.3 C 43 % 13.63 C
3089 01-07-2019 17:20:00 27.6 C 41 % 13.16 C
3090 01-07-2019 17:25:00 27.3 C 40 % 12.52 C
3091 01-07-2019 17:30:00 27.1 C 42 % 13.09 C
3092 01-07-2019 17:35:00 27.1 C 43 % 13.45 C
3093 01-07-2019 17:40:00 27 C 42 % 13 C
3094 01-07-2019 17:45:00 26.7 C 42 % 12.73 C
3095 01-07-2019 17:50:00 26.5 C 43 % 12.91 C
3096 01-07-2019 17:55:00 26.4 C 43 % 12.82 C
3097 01-07-2019 18:00:00 26 C 44 % 12.81 C
3098 01-07-2019 18:05:00 25.9 C 45 % 13.06 C
3099 01-07-2019 18:10:00 26.2 C 45 % 13.33 C
3100 01-07-2019 18:15:00 26.1 C 45 % 13.24 C
Sensor: Nr:Datum:Temp:Feuchte:Taupunkt:
Aussen-T/F 3101 01-07-2019 18:20:00 26.2 C 45 % 13.33 C
3102 01-07-2019 18:25:00 26.4 C 44 % 13.17 C
3103 01-07-2019 18:30:00 26.4 C 44 % 13.17 C
3104 01-07-2019 18:35:00 26.4 C 44 % 13.17 C
3105 01-07-2019 18:40:00 26.6 C 44 % 13.35 C
3106 01-07-2019 18:45:00 26.5 C 42 % 12.55 C
3107 01-07-2019 18:50:00 26.4 C 43 % 12.82 C
3108 01-07-2019 18:55:00 26.5 C 43 % 12.91 C
3109 01-07-2019 19:00:00 26.6 C 42 % 12.64 C
3110 01-07-2019 19:05:00 26.6 C 42 % 12.64 C
3111 01-07-2019 19:10:00 26.4 C 41 % 12.09 C
3112 01-07-2019 19:15:00 26.3 C 42 % 12.37 C
3113 01-07-2019 19:20:00 26.2 C 42 % 12.28 C
3114 01-07-2019 19:25:00 26 C 43 % 12.46 C
3115 01-07-2019 19:30:00 25.8 C 43 % 12.28 C
3116 01-07-2019 19:35:00 25.8 C 43 % 12.28 C
3117 01-07-2019 19:40:00 25.7 C 43 % 12.19 C
3118 01-07-2019 19:45:00 25.6 C 44 % 12.45 C
3119 01-07-2019 19:50:00 25.4 C 44 % 12.27 C
3120 01-07-2019 19:55:00 25.2 C 44 % 12.09 C
3121 01-07-2019 20:00:00 25.1 C 45 % 12.34 C
3122 01-07-2019 20:05:00 25 C 44 % 11.9 C
3123 01-07-2019 20:10:00 24.9 C 45 % 12.16 C
3124 01-07-2019 20:15:00 24.9 C 45 % 12.16 C
3125 01-07-2019 20:20:00 24.8 C 46 % 12.4 C
Sensor: Nr:Datum:Temp:Feuchte:Taupunkt:
Aussen-T/F 3126 01-07-2019 20:25:00 24.8 C 46 % 12.4 C
3127 01-07-2019 20:30:00 24.7 C 46 % 12.31 C
3128 01-07-2019 20:35:00 24.6 C 47 % 12.54 C
3129 01-07-2019 20:40:00 24.4 C 48 % 12.68 C
3130 01-07-2019 20:45:00 24.1 C 49 % 12.72 C
3131 01-07-2019 20:50:00 23.7 C 50 % 12.67 C
3132 01-07-2019 20:55:00 23.4 C 49 % 12.08 C
3133 01-07-2019 21:00:00 23.3 C 48 % 11.68 C
3134 01-07-2019 21:05:00 23.2 C 49 % 11.9 C
3135 01-07-2019 21:10:00 23.1 C 50 % 12.11 C
3136 01-07-2019 21:15:00 23 C 50 % 12.02 C
3137 01-07-2019 21:20:00 22.8 C 50 % 11.84 C
3138 01-07-2019 21:25:00 22.6 C 51 % 11.96 C
3139 01-07-2019 21:30:00 22.5 C 53 % 12.45 C
3140 01-07-2019 21:35:00 22.2 C 52 % 11.88 C
3141 01-07-2019 21:40:00 22.1 C 52 % 11.79 C
3142 01-07-2019 21:45:00 22.1 C 53 % 12.08 C
3143 01-07-2019 21:50:00 22 C 53 % 11.99 C
3144 01-07-2019 21:55:00 21.8 C 53 % 11.8 C
3145 01-07-2019 22:00:00 21.7 C 54 % 11.99 C
3146 01-07-2019 22:05:00 21.6 C 55 % 12.18 C
3147 01-07-2019 22:10:00 21.3 C 55 % 11.9 C
3148 01-07-2019 22:15:00 21.3 C 56 % 12.17 C
3149 01-07-2019 22:20:00 21.2 C 55 % 11.81 C
3150 01-07-2019 22:25:00 21.1 C 57 % 12.25 C
Sensor: Nr:Datum:Temp:Feuchte:Taupunkt:
Aussen-T/F 3151 01-07-2019 22:30:00 20.8 C 57 % 11.97 C
3152 01-07-2019 22:35:00 20.6 C 59 % 12.31 C
3153 01-07-2019 22:40:00 20.3 C 59 % 12.03 C
3154 01-07-2019 22:45:00 20.1 C 60 % 12.1 C
3155 01-07-2019 22:50:00 20 C 60 % 12 C
3156 01-07-2019 22:55:00 19.9 C 60 % 11.91 C
3157 01-07-2019 23:00:00 19.9 C 60 % 11.91 C
3158 01-07-2019 23:05:00 19.9 C 60 % 11.91 C
3159 01-07-2019 23:10:00 20.1 C 60 % 12.1 C
3160 01-07-2019 23:15:00 20.1 C 60 % 12.1 C
3161 01-07-2019 23:20:00 20.1 C 59 % 11.84 C
3162 01-07-2019 23:25:00 20.2 C 59 % 11.94 C
3163 01-07-2019 23:30:00 20.2 C 59 % 11.94 C
3164 01-07-2019 23:35:00 20.1 C 59 % 11.84 C
3165 01-07-2019 23:40:00 20.1 C 59 % 11.84 C
3166 01-07-2019 23:45:00 20 C 59 % 11.75 C
3167 01-07-2019 23:50:00 19.9 C 59 % 11.66 C
3168 01-07-2019 23:55:00 19.8 C 60 % 11.82 C
3169 02-07-2019 00:00:00 19.8 C 59 % 11.56 C
3170 02-07-2019 00:05:00 19.7 C 60 % 11.72 C
3171 02-07-2019 00:10:00 19.5 C 60 % 11.53 C
3172 02-07-2019 00:15:00 19.4 C 61 % 11.69 C
3173 02-07-2019 00:20:00 19.2 C 62 % 11.75 C
3174 02-07-2019 00:25:00 18.9 C 62 % 11.47 C
3175 02-07-2019 00:30:00 18.7 C 64 % 11.76 C
Sensor: Nr:Datum:Temp:Feuchte:Taupunkt:
Aussen-T/F 3176 02-07-2019 00:35:00 18.6 C 64 % 11.66 C
3177 02-07-2019 00:40:00 18.4 C 65 % 11.71 C
3178 02-07-2019 00:45:00 18.3 C 66 % 11.84 C
3179 02-07-2019 00:50:00 18.1 C 67 % 11.88 C
3180 02-07-2019 00:55:00 17.7 C 68 % 11.72 C
3181 02-07-2019 01:00:00 17.4 C 68 % 11.44 C
3182 02-07-2019 01:05:00 17.3 C 69 % 11.56 C
3183 02-07-2019 01:10:00 17.3 C 68 % 11.34 C
3184 02-07-2019 01:15:00 17.3 C 69 % 11.56 C
3185 02-07-2019 01:20:00 17.2 C 69 % 11.47 C
3186 02-07-2019 01:25:00 17 C 70 % 11.49 C
3187 02-07-2019 01:30:00 16.9 C 70 % 11.4 C
3188 02-07-2019 01:35:00 16.7 C 71 % 11.42 C
3189 02-07-2019 01:40:00 16.6 C 72 % 11.54 C
3190 02-07-2019 01:45:00 16.5 C 72 % 11.44 C
3191 02-07-2019 01:50:00 16.3 C 73 % 11.46 C
3192 02-07-2019 01:55:00 16.2 C 73 % 11.36 C
3193 02-07-2019 02:00:00 16.1 C 74 % 11.47 C
3194 02-07-2019 02:05:00 16 C 74 % 11.37 C
3195 02-07-2019 02:10:00 16.1 C 74 % 11.47 C
3196 02-07-2019 02:15:00 16 C 74 % 11.37 C
3197 02-07-2019 02:20:00 15.9 C 74 % 11.28 C
3198 02-07-2019 02:25:00 15.9 C 74 % 11.28 C
3199 02-07-2019 02:30:00 15.9 C 74 % 11.28 C
3200 02-07-2019 02:35:00 15.8 C 74 % 11.18 C
Sensor: Nr:Datum:Temp:Feuchte:Taupunkt:
Aussen-T/F 3201 02-07-2019 02:40:00 15.7 C 75 % 11.28 C
3202 02-07-2019 02:45:00 15.7 C 75 % 11.28 C
3203 02-07-2019 02:50:00 15.6 C 75 % 11.19 C
3204 02-07-2019 02:55:00 15.5 C 75 % 11.09 C
3205 02-07-2019 03:00:00 15.4 C 76 % 11.19 C
3206 02-07-2019 03:05:00 15.3 C 76 % 11.1 C
3207 02-07-2019 03:10:00 15.2 C 76 % 11 C
3208 02-07-2019 03:15:00 15.2 C 76 % 11 C
3209 02-07-2019 03:20:00 15.3 C 76 % 11.1 C
3210 02-07-2019 03:25:00 15.5 C 75 % 11.09 C
3211 02-07-2019 03:30:00 15.7 C 75 % 11.28 C
3212 02-07-2019 03:35:00 15.8 C 74 % 11.18 C
3213 02-07-2019 03:40:00 15.8 C 74 % 11.18 C
3214 02-07-2019 03:45:00 15.7 C 74 % 11.08 C
3215 02-07-2019 03:50:00 15.6 C 75 % 11.19 C
3216 02-07-2019 03:55:00 15.4 C 76 % 11.19 C
3217 02-07-2019 04:00:00 15.3 C 76 % 11.1 C
3218 02-07-2019 04:05:00 15.2 C 77 % 11.2 C
3219 02-07-2019 04:10:00 15 C 77 % 11 C
3220 02-07-2019 04:15:00 14.9 C 77 % 10.91 C
3221 02-07-2019 04:20:00 14.8 C 78 % 11 C
3222 02-07-2019 04:25:00 14.6 C 78 % 10.81 C
3223 02-07-2019 04:30:00 14.4 C 79 % 10.81 C
3224 02-07-2019 04:35:00 14.3 C 79 % 10.71 C
3225 02-07-2019 04:40:00 14.1 C 80 % 10.71 C
Sensor: Nr:Datum:Temp:Feuchte:Taupunkt:
Aussen-T/F 3226 02-07-2019 04:45:00 14 C 81 % 10.79 C
3227 02-07-2019 04:50:00 13.9 C 82 % 10.88 C
3228 02-07-2019 04:55:00 13.8 C 82 % 10.78 C
3229 02-07-2019 05:00:00 13.7 C 82 % 10.69 C
3230 02-07-2019 05:05:00 13.7 C 83 % 10.87 C
3231 02-07-2019 05:10:00 13.6 C 83 % 10.77 C
3232 02-07-2019 05:15:00 13.6 C 82 % 10.59 C
3233 02-07-2019 05:20:00 13.5 C 83 % 10.67 C
3234 02-07-2019 05:25:00 13.4 C 83 % 10.57 C
3235 02-07-2019 05:30:00 13.4 C 83 % 10.57 C
3236 02-07-2019 05:35:00 13.4 C 84 % 10.75 C
3237 02-07-2019 05:40:00 13.3 C 84 % 10.66 C
3238 02-07-2019 05:45:00 13.3 C 84 % 10.66 C
3239 02-07-2019 05:50:00 13.3 C 84 % 10.66 C
3240 02-07-2019 05:55:00 13.2 C 84 % 10.56 C
3241 02-07-2019 06:00:00 13.2 C 85 % 10.74 C
3242 02-07-2019 06:05:00 13.2 C 85 % 10.74 C
3243 02-07-2019 06:10:00 13.1 C 85 % 10.64 C
3244 02-07-2019 06:15:00 13.1 C 85 % 10.64 C
3245 02-07-2019 06:20:00 13.1 C 85 % 10.64 C
3246 02-07-2019 06:25:00 13.1 C 85 % 10.64 C
3247 02-07-2019 06:30:00 13.1 C 85 % 10.64 C
3248 02-07-2019 06:35:00 13.1 C 86 % 10.81 C
3249 02-07-2019 06:40:00 13.1 C 86 % 10.81 C
3250 02-07-2019 06:45:00 13.1 C 86 % 10.81 C
Sensor: Nr:Datum:Temp:Feuchte:Taupunkt:
Aussen-T/F 3251 02-07-2019 06:50:00 13.1 C 86 % 10.81 C
3252 02-07-2019 06:55:00 13 C 87 % 10.89 C
3253 02-07-2019 07:00:00 13 C 87 % 10.89 C
3254 02-07-2019 07:05:00 13 C 87 % 10.89 C
3255 02-07-2019 07:10:00 13.1 C 87 % 10.99 C
3256 02-07-2019 07:15:00 13.1 C 87 % 10.99 C
3257 02-07-2019 07:20:00 13.1 C 87 % 10.99 C
3258 02-07-2019 07:25:00 13.2 C 87 % 11.09 C
3259 02-07-2019 07:30:00 13.2 C 87 % 11.09 C
3260 02-07-2019 07:35:00 13.3 C 87 % 11.18 C
3261 02-07-2019 07:40:00 13.3 C 87 % 11.18 C
3262 02-07-2019 07:45:00 13.4 C 87 % 11.28 C
3263 02-07-2019 07:50:00 13.5 C 87 % 11.38 C
3264 02-07-2019 07:55:00 13.6 C 87 % 11.48 C
3265 02-07-2019 08:00:00 13.7 C 87 % 11.58 C
3266 02-07-2019 08:05:00 13.8 C 87 % 11.68 C
3267 02-07-2019 08:10:00 13.9 C 87 % 11.77 C
3268 02-07-2019 08:15:00 14 C 87 % 11.87 C
3269 02-07-2019 08:20:00 14.3 C 86 % 11.99 C
3270 02-07-2019 08:25:00 14.6 C 83 % 11.75 C
3271 02-07-2019 08:30:00 14.9 C 81 % 11.67 C
3272 02-07-2019 08:35:00 15.3 C 80 % 11.87 C
3273 02-07-2019 08:40:00 15.7 C 79 % 12.07 C
3274 02-07-2019 08:45:00 16.1 C 77 % 12.07 C
3275 02-07-2019 08:50:00 16.3 C 75 % 11.86 C
Sensor: Nr:Datum:Temp:Feuchte:Taupunkt:
Aussen-T/F 3276 02-07-2019 08:55:00 16.5 C 75 % 12.06 C
3277 02-07-2019 09:00:00 16.7 C 73 % 11.84 C
3278 02-07-2019 09:05:00 16.8 C 74 % 12.14 C
3279 02-07-2019 09:10:00 16.9 C 73 % 12.03 C
3280 02-07-2019 09:15:00 17.1 C 72 % 12.02 C
3281 02-07-2019 09:20:00 17.2 C 72 % 12.11 C
3282 02-07-2019 09:25:00 17.5 C 70 % 11.97 C
3283 02-07-2019 09:30:00 17.7 C 69 % 11.95 C
3284 02-07-2019 09:35:00 17.8 C 70 % 12.26 C
3285 02-07-2019 09:40:00 17.9 C 68 % 11.91 C
3286 02-07-2019 09:45:00 17.9 C 68 % 11.91 C
3287 02-07-2019 09:50:00 18.1 C 68 % 12.11 C
3288 02-07-2019 09:55:00 18.2 C 67 % 11.98 C
3289 02-07-2019 10:00:00 18.4 C 65 % 11.71 C
3290 02-07-2019 10:05:00 18.7 C 65 % 11.99 C
3291 02-07-2019 10:10:00 18.8 C 63 % 11.61 C
3292 02-07-2019 10:15:00 18.7 C 63 % 11.52 C
3293 02-07-2019 10:20:00 18.6 C 64 % 11.66 C
3294 02-07-2019 10:25:00 18.7 C 62 % 11.28 C
3295 02-07-2019 10:30:00 19 C 62 % 11.56 C
3296 02-07-2019 10:35:00 19.2 C 62 % 11.75 C
3297 02-07-2019 10:40:00 19.4 C 62 % 11.94 C
3298 02-07-2019 10:45:00 19.6 C 60 % 11.63 C
3299 02-07-2019 10:50:00 19.5 C 62 % 12.03 C
3300 02-07-2019 10:55:00 19.4 C 63 % 12.18 C
Sensor: Nr:Datum:Temp:Feuchte:Taupunkt:
Aussen-T/F 3301 02-07-2019 11:00:00 19.3 C 63 % 12.09 C
3302 02-07-2019 11:05:00 19.4 C 63 % 12.18 C
3303 02-07-2019 11:10:00 19.7 C 62 % 12.22 C
3304 02-07-2019 11:15:00 19.7 C 60 % 11.72 C
3305 02-07-2019 11:20:00 19.6 C 61 % 11.88 C
3306 02-07-2019 11:25:00 19.4 C 62 % 11.94 C
3307 02-07-2019 11:30:00 19.4 C 62 % 11.94 C
3308 02-07-2019 11:35:00 19.5 C 59 % 11.28 C
3309 02-07-2019 11:40:00 19.7 C 61 % 11.97 C
3310 02-07-2019 11:45:00 19.8 C 61 % 12.07 C
3311 02-07-2019 11:50:00 19.9 C 57 % 11.14 C
3312 02-07-2019 11:55:00 19.9 C 56 % 10.87 C
3313 02-07-2019 12:00:00 19.9 C 58 % 11.4 C
3314 02-07-2019 12:05:00 20 C 58 % 11.49 C
3315 02-07-2019 12:10:00 20 C 57 % 11.23 C
3316 02-07-2019 12:15:00 20.2 C 58 % 11.68 C
3317 02-07-2019 12:20:00 20.3 C 56 % 11.24 C
3318 02-07-2019 12:25:00 20.4 C 54 % 10.79 C
3319 02-07-2019 12:30:00 20.4 C 56 % 11.33 C
3320 02-07-2019 12:35:00 20.7 C 53 % 10.78 C
3321 02-07-2019 12:40:00 20.8 C 53 % 10.88 C
3322 02-07-2019 12:45:00 20.9 C 53 % 10.97 C
3323 02-07-2019 12:50:00 21.1 C 52 % 10.87 C
3324 02-07-2019 12:55:00 21.1 C 53 % 11.15 C
3325 02-07-2019 13:00:00 21.2 C 52 % 10.96 C
Sensor: Nr:Datum:Temp:Feuchte:Taupunkt:
Aussen-T/F 3326 02-07-2019 13:05:00 21.3 C 54 % 11.62 C
3327 02-07-2019 13:10:00 21.2 C 54 % 11.53 C
3328 02-07-2019 13:15:00 21.2 C 55 % 11.81 C
3329 02-07-2019 13:20:00 21.3 C 54 % 11.62 C
3330 02-07-2019 13:25:00 21.3 C 50 % 10.46 C
3331 02-07-2019 13:30:00 21.2 C 51 % 10.67 C
3332 02-07-2019 13:35:00 21.3 C 50 % 10.46 C
3333 02-07-2019 13:40:00 21.6 C 49 % 10.44 C
3334 02-07-2019 13:45:00 21.8 C 49 % 10.62 C
3335 02-07-2019 13:50:00 22 C 49 % 10.8 C
3336 02-07-2019 13:55:00 22.2 C 50 % 11.29 C
3337 02-07-2019 14:00:00 22.2 C 50 % 11.29 C
3338 02-07-2019 14:05:00 22.2 C 51 % 11.59 C
3339 02-07-2019 14:10:00 22 C 50 % 11.11 C
3340 02-07-2019 14:15:00 21.9 C 52 % 11.61 C
3341 02-07-2019 14:20:00 21.8 C 51 % 11.22 C
3342 02-07-2019 14:25:00 21.9 C 49 % 10.71 C
3343 02-07-2019 14:30:00 22.2 C 47 % 10.36 C
3344 02-07-2019 14:35:00 22.6 C 47 % 10.72 C
3345 02-07-2019 14:40:00 22.9 C 48 % 11.31 C
3346 02-07-2019 14:45:00 22.9 C 47 % 11 C
3347 02-07-2019 14:50:00 22.8 C 48 % 11.22 C
3348 02-07-2019 14:55:00 22.4 C 50 % 11.47 C
3349 02-07-2019 15:00:00 22.3 C 51 % 11.68 C
3350 02-07-2019 15:05:00 22.3 C 50 % 11.38 C
Sensor: Nr:Datum:Temp:Feuchte:Taupunkt:
Aussen-T/F 3351 02-07-2019 15:10:00 22.4 C 49 % 11.17 C
3352 02-07-2019 15:15:00 22.7 C 50 % 11.75 C
3353 02-07-2019 15:20:00 23 C 48 % 11.41 C
3354 02-07-2019 15:25:00 23.4 C 45 % 10.8 C
3355 02-07-2019 15:30:00 23.6 C 46 % 11.31 C
3356 02-07-2019 15:35:00 23.4 C 45 % 10.8 C
3357 02-07-2019 15:40:00 23.1 C 46 % 10.86 C
3358 02-07-2019 15:45:00 22.8 C 48 % 11.22 C
3359 02-07-2019 15:50:00 23.2 C 47 % 11.27 C
3360 02-07-2019 15:55:00 23.9 C 46 % 11.58 C
3361 02-07-2019 16:00:00 24.4 C 42 % 10.66 C
3362 02-07-2019 16:05:00 24.7 C 40 % 10.2 C
3363 02-07-2019 16:10:00 24.7 C 42 % 10.93 C
3364 02-07-2019 16:15:00 24.8 C 42 % 11.02 C
3365 02-07-2019 16:20:00 25 C 40 % 10.47 C
3366 02-07-2019 16:25:00 24.8 C 40 % 10.29 C
3367 02-07-2019 16:30:00 24.8 C 41 % 10.66 C
3368 02-07-2019 16:35:00 25.1 C 40 % 10.56 C
3369 02-07-2019 16:40:00 25.3 C 41 % 11.11 C
3370 02-07-2019 16:45:00 25.6 C 39 % 10.62 C
3371 02-07-2019 16:50:00 25.4 C 37 % 9.66 C
3372 02-07-2019 16:55:00 25.2 C 39 % 10.27 C
3373 02-07-2019 17:00:00 25.3 C 40 % 10.74 C
3374 02-07-2019 17:05:00 25.2 C 41 % 11.02 C
3375 02-07-2019 17:10:00 25.3 C 40 % 10.74 C
Sensor: Nr:Datum:Temp:Feuchte:Taupunkt:
Aussen-T/F 3376 02-07-2019 17:15:00 25.5 C 40 % 10.91 C
3377 02-07-2019 17:20:00 25.8 C 38 % 10.41 C
3378 02-07-2019 17:25:00 25.7 C 38 % 10.32 C
3379 02-07-2019 17:30:00 25.7 C 38 % 10.32 C
3380 02-07-2019 17:35:00 25.6 C 37 % 9.84 C
3381 02-07-2019 17:40:00 25.4 C 38 % 10.06 C
3382 02-07-2019 17:45:00 25.6 C 37 % 9.84 C
3383 02-07-2019 17:50:00 25.4 C 37 % 9.66 C
3384 02-07-2019 17:55:00 25.4 C 38 % 10.06 C
3385 02-07-2019 18:00:00 24.8 C 40 % 10.29 C
3386 02-07-2019 18:05:00 24.3 C 43 % 10.93 C
3387 02-07-2019 18:10:00 23.9 C 43 % 10.57 C
3388 02-07-2019 18:15:00 23.7 C 42 % 10.03 C
3389 02-07-2019 18:20:00 23.8 C 42 % 10.12 C
3390 02-07-2019 18:25:00 23.9 C 42 % 10.21 C
3391 02-07-2019 18:30:00 24.2 C 41 % 10.12 C
3392 02-07-2019 18:35:00 24.4 C 41 % 10.3 C
3393 02-07-2019 18:40:00 24.6 C 41 % 10.48 C
3394 02-07-2019 18:45:00 24.7 C 41 % 10.57 C
3395 02-07-2019 18:50:00 24.9 C 41 % 10.75 C
3396 02-07-2019 18:55:00 25.2 C 39 % 10.27 C
3397 02-07-2019 19:00:00 25.3 C 38 % 9.97 C
3398 02-07-2019 19:05:00 25.3 C 38 % 9.97 C
3399 02-07-2019 19:10:00 25.3 C 38 % 9.97 C
3400 02-07-2019 19:15:00 25.4 C 38 % 10.06 C
Sensor: Nr:Datum:Temp:Feuchte:Taupunkt:
Aussen-T/F 3401 02-07-2019 19:20:00 25.2 C 37 % 9.48 C
3402 02-07-2019 19:25:00 24.9 C 38 % 9.61 C
3403 02-07-2019 19:30:00 24.7 C 39 % 9.82 C
3404 02-07-2019 19:35:00 24.6 C 39 % 9.73 C
3405 02-07-2019 19:40:00 24.4 C 39 % 9.56 C
3406 02-07-2019 19:45:00 24.3 C 40 % 9.84 C
3407 02-07-2019 19:50:00 24.1 C 40 % 9.67 C
3408 02-07-2019 19:55:00 23.8 C 39 % 9.02 C
3409 02-07-2019 20:00:00 23.6 C 40 % 9.22 C
3410 02-07-2019 20:05:00 23.4 C 40 % 9.04 C
3411 02-07-2019 20:10:00 23.3 C 40 % 8.95 C
3412 02-07-2019 20:15:00 23.2 C 42 % 9.59 C
3413 02-07-2019 20:20:00 23.1 C 42 % 9.5 C
3414 02-07-2019 20:25:00 23 C 43 % 9.76 C
3415 02-07-2019 20:30:00 22.9 C 42 % 9.32 C
3416 02-07-2019 20:35:00 22.9 C 42 % 9.32 C
3417 02-07-2019 20:40:00 22.8 C 42 % 9.23 C
3418 02-07-2019 20:45:00 22.6 C 42 % 9.05 C
3419 02-07-2019 20:50:00 22.4 C 43 % 9.22 C
3420 02-07-2019 20:55:00 22.2 C 43 % 9.04 C
3421 02-07-2019 21:00:00 22 C 44 % 9.2 C
3422 02-07-2019 21:05:00 21.8 C 44 % 9.01 C
3423 02-07-2019 21:10:00 21.7 C 45 % 9.26 C
3424 02-07-2019 21:15:00 21.6 C 45 % 9.17 C
3425 02-07-2019 21:20:00 21.4 C 45 % 8.99 C
Sensor: Nr:Datum:Temp:Feuchte:Taupunkt:
Aussen-T/F 3426 02-07-2019 21:25:00 21.2 C 48 % 9.76 C
3427 02-07-2019 21:30:00 21 C 49 % 9.89 C
3428 02-07-2019 21:35:00 20.7 C 51 % 10.21 C
3429 02-07-2019 21:40:00 20.3 C 51 % 9.84 C
3430 02-07-2019 21:45:00 19.8 C 53 % 9.95 C
3431 02-07-2019 21:50:00 19.4 C 53 % 9.58 C
3432 02-07-2019 21:55:00 19 C 55 % 9.76 C
3433 02-07-2019 22:00:00 18.6 C 55 % 9.39 C
3434 02-07-2019 22:05:00 18.3 C 57 % 9.64 C
3435 02-07-2019 22:10:00 18.1 C 57 % 9.46 C
3436 02-07-2019 22:15:00 17.9 C 58 % 9.53 C
3437 02-07-2019 22:20:00 17.7 C 58 % 9.34 C
3438 02-07-2019 22:25:00 17.6 C 58 % 9.25 C
3439 02-07-2019 22:30:00 17.4 C 59 % 9.31 C
3440 02-07-2019 22:35:00 17.4 C 58 % 9.06 C
3441 02-07-2019 22:40:00 17.3 C 59 % 9.22 C
3442 02-07-2019 22:45:00 17.3 C 60 % 9.47 C
3443 02-07-2019 22:50:00 17.2 C 60 % 9.37 C
3444 02-07-2019 22:55:00 16.9 C 60 % 9.09 C
3445 02-07-2019 23:00:00 16.8 C 61 % 9.24 C
3446 02-07-2019 23:05:00 16.7 C 61 % 9.15 C
3447 02-07-2019 23:10:00 16.6 C 61 % 9.06 C
3448 02-07-2019 23:15:00 16.4 C 61 % 8.87 C
3449 02-07-2019 23:20:00 16.4 C 62 % 9.11 C
3450 02-07-2019 23:25:00 16.3 C 62 % 9.01 C
Sensor: Nr:Datum:Temp:Feuchte:Taupunkt:
Aussen-T/F 3451 02-07-2019 23:30:00 16.3 C 62 % 9.01 C
3452 02-07-2019 23:35:00 16.2 C 62 % 8.92 C
3453 02-07-2019 23:40:00 16.1 C 63 % 9.06 C
3454 02-07-2019 23:45:00 16 C 63 % 8.97 C
3455 02-07-2019 23:50:00 15.9 C 64 % 9.11 C
3456 02-07-2019 23:55:00 15.9 C 65 % 9.34 C
3457 03-07-2019 00:00:00 15.7 C 65 % 9.15 C
3458 03-07-2019 00:05:00 15.6 C 65 % 9.05 C
3459 03-07-2019 00:10:00 15.3 C 66 % 8.99 C
3460 03-07-2019 00:15:00 15.2 C 67 % 9.12 C
3461 03-07-2019 00:20:00 15.1 C 67 % 9.02 C
3462 03-07-2019 00:25:00 14.9 C 68 % 9.05 C
3463 03-07-2019 00:30:00 14.7 C 68 % 8.86 C
3464 03-07-2019 00:35:00 14.5 C 69 % 8.89 C
3465 03-07-2019 00:40:00 14.3 C 70 % 8.91 C
3466 03-07-2019 00:45:00 14.2 C 70 % 8.81 C
3467 03-07-2019 00:50:00 14.2 C 71 % 9.02 C
3468 03-07-2019 00:55:00 14 C 71 % 8.83 C
3469 03-07-2019 01:00:00 13.9 C 72 % 8.94 C
3470 03-07-2019 01:05:00 13.7 C 73 % 8.95 C
3471 03-07-2019 01:10:00 13.6 C 72 % 8.65 C
3472 03-07-2019 01:15:00 13.4 C 73 % 8.66 C
3473 03-07-2019 01:20:00 13.3 C 73 % 8.57 C
3474 03-07-2019 01:25:00 13.2 C 74 % 8.67 C
3475 03-07-2019 01:30:00 13.2 C 74 % 8.67 C
Sensor: Nr:Datum:Temp:Feuchte:Taupunkt:
Aussen-T/F 3476 03-07-2019 01:35:00 13.1 C 74 % 8.58 C
3477 03-07-2019 01:40:00 12.9 C 74 % 8.38 C
3478 03-07-2019 01:45:00 12.9 C 75 % 8.58 C
3479 03-07-2019 01:50:00 12.8 C 76 % 8.68 C
3480 03-07-2019 01:55:00 12.8 C 75 % 8.48 C
3481 03-07-2019 02:00:00 12.7 C 76 % 8.58 C
3482 03-07-2019 02:05:00 12.7 C 76 % 8.58 C
3483 03-07-2019 02:10:00 12.6 C 77 % 8.68 C
3484 03-07-2019 02:15:00 12.5 C 77 % 8.58 C
3485 03-07-2019 02:20:00 12.4 C 77 % 8.49 C
3486 03-07-2019 02:25:00 12.4 C 77 % 8.49 C
3487 03-07-2019 02:30:00 12.3 C 77 % 8.39 C
3488 03-07-2019 02:35:00 12.2 C 78 % 8.48 C
3489 03-07-2019 02:40:00 12.1 C 78 % 8.38 C
3490 03-07-2019 02:45:00 12 C 78 % 8.29 C
3491 03-07-2019 02:50:00 11.9 C 78 % 8.19 C
3492 03-07-2019 02:55:00 11.9 C 78 % 8.19 C
3493 03-07-2019 03:00:00 11.8 C 79 % 8.28 C
3494 03-07-2019 03:05:00 11.8 C 79 % 8.28 C
3495 03-07-2019 03:10:00 11.7 C 80 % 8.37 C
3496 03-07-2019 03:15:00 11.7 C 80 % 8.37 C
3497 03-07-2019 03:20:00 11.6 C 80 % 8.27 C
3498 03-07-2019 03:25:00 11.6 C 80 % 8.27 C
3499 03-07-2019 03:30:00 11.4 C 81 % 8.26 C
3500 03-07-2019 03:35:00 11.4 C 81 % 8.26 C
Sensor: Nr:Datum:Temp:Feuchte:Taupunkt:
Aussen-T/F 3501 03-07-2019 03:40:00 11.3 C 81 % 8.16 C
3502 03-07-2019 03:45:00 11.2 C 81 % 8.06 C
3503 03-07-2019 03:50:00 11.1 C 82 % 8.15 C
3504 03-07-2019 03:55:00 11.1 C 82 % 8.15 C
3505 03-07-2019 04:00:00 11 C 82 % 8.05 C
3506 03-07-2019 04:05:00 10.9 C 82 % 7.95 C
3507 03-07-2019 04:10:00 10.8 C 82 % 7.85 C
3508 03-07-2019 04:15:00 10.8 C 83 % 8.03 C
3509 03-07-2019 04:20:00 10.7 C 83 % 7.93 C
3510 03-07-2019 04:25:00 10.7 C 83 % 7.93 C
3511 03-07-2019 04:30:00 10.6 C 83 % 7.84 C
3512 03-07-2019 04:35:00 10.6 C 84 % 8.01 C
3513 03-07-2019 04:40:00 10.5 C 84 % 7.91 C
3514 03-07-2019 04:45:00 10.4 C 84 % 7.82 C
3515 03-07-2019 04:50:00 10.4 C 84 % 7.82 C
3516 03-07-2019 04:55:00 10.4 C 85 % 7.99 C
3517 03-07-2019 05:00:00 10.3 C 85 % 7.89 C
3518 03-07-2019 05:05:00 10.3 C 85 % 7.89 C
3519 03-07-2019 05:10:00 10.3 C 85 % 7.89 C
3520 03-07-2019 05:15:00 10.2 C 85 % 7.79 C
3521 03-07-2019 05:20:00 10.1 C 85 % 7.7 C
3522 03-07-2019 05:25:00 10.1 C 86 % 7.87 C
3523 03-07-2019 05:30:00 10.1 C 86 % 7.87 C
3524 03-07-2019 05:35:00 10 C 86 % 7.77 C
3525 03-07-2019 05:40:00 10 C 86 % 7.77 C
Sensor: Nr:Datum:Temp:Feuchte:Taupunkt:
Aussen-T/F 3526 03-07-2019 05:45:00 9.9 C 87 % 7.84 C
3527 03-07-2019 05:50:00 10 C 87 % 7.94 C
3528 03-07-2019 05:55:00 10 C 87 % 7.94 C
3529 03-07-2019 06:00:00 10 C 87 % 7.94 C
3530 03-07-2019 06:05:00 10 C 87 % 7.94 C
3531 03-07-2019 06:10:00 10 C 88 % 8.11 C
3532 03-07-2019 06:15:00 10.1 C 88 % 8.21 C
3533 03-07-2019 06:20:00 10.1 C 88 % 8.21 C
3534 03-07-2019 06:25:00 10.1 C 88 % 8.21 C
3535 03-07-2019 06:30:00 10.1 C 88 % 8.21 C
3536 03-07-2019 06:35:00 10.2 C 88 % 8.3 C
3537 03-07-2019 06:40:00 10.2 C 88 % 8.3 C
3538 03-07-2019 06:45:00 10.2 C 88 % 8.3 C
3539 03-07-2019 06:50:00 10.3 C 89 % 8.57 C
3540 03-07-2019 06:55:00 10.3 C 89 % 8.57 C
3541 03-07-2019 07:00:00 10.4 C 89 % 8.67 C
3542 03-07-2019 07:05:00 10.4 C 89 % 8.67 C
3543 03-07-2019 07:10:00 10.6 C 89 % 8.86 C
3544 03-07-2019 07:15:00 10.7 C 89 % 8.96 C
3545 03-07-2019 07:20:00 10.7 C 89 % 8.96 C
3546 03-07-2019 07:25:00 10.8 C 89 % 9.06 C
3547 03-07-2019 07:30:00 10.9 C 89 % 9.16 C
3548 03-07-2019 07:35:00 11.1 C 89 % 9.36 C
3549 03-07-2019 07:40:00 11.2 C 88 % 9.29 C
3550 03-07-2019 07:45:00 11.3 C 88 % 9.39 C
Sensor: Nr:Datum:Temp:Feuchte:Taupunkt:
Aussen-T/F 3551 03-07-2019 07:50:00 11.4 C 88 % 9.49 C
3552 03-07-2019 07:55:00 11.5 C 88 % 9.58 C
3553 03-07-2019 08:00:00 11.6 C 88 % 9.68 C
3554 03-07-2019 08:05:00 11.7 C 88 % 9.78 C
3555 03-07-2019 08:10:00 11.9 C 87 % 9.81 C
3556 03-07-2019 08:15:00 12 C 87 % 9.91 C
3557 03-07-2019 08:20:00 12.1 C 87 % 10 C
3558 03-07-2019 08:25:00 12.2 C 87 % 10.1 C
3559 03-07-2019 08:30:00 12.3 C 86 % 10.03 C
3560 03-07-2019 08:35:00 12.5 C 86 % 10.22 C
3561 03-07-2019 08:40:00 12.7 C 86 % 10.42 C
3562 03-07-2019 08:45:00 12.8 C 85 % 10.34 C
3563 03-07-2019 08:50:00 12.9 C 84 % 10.26 C
3564 03-07-2019 08:55:00 13.1 C 83 % 10.28 C
3565 03-07-2019 09:00:00 13.3 C 84 % 10.66 C
3566 03-07-2019 09:05:00 13.4 C 82 % 10.39 C
3567 03-07-2019 09:10:00 13.7 C 80 % 10.32 C
3568 03-07-2019 09:15:00 13.9 C 80 % 10.51 C
3569 03-07-2019 09:20:00 14.1 C 80 % 10.71 C
3570 03-07-2019 09:25:00 14.3 C 77 % 10.33 C
3571 03-07-2019 09:30:00 14.5 C 76 % 10.32 C
3572 03-07-2019 09:35:00 14.8 C 76 % 10.61 C
3573 03-07-2019 09:40:00 15 C 74 % 10.41 C
3574 03-07-2019 09:45:00 15.3 C 74 % 10.7 C
3575 03-07-2019 09:50:00 15.6 C 71 % 10.37 C
Sensor: Nr:Datum:Temp:Feuchte:Taupunkt:
Aussen-T/F 3576 03-07-2019 09:55:00 15.8 C 70 % 10.34 C
3577 03-07-2019 10:00:00 16.1 C 69 % 10.42 C
3578 03-07-2019 10:05:00 16.4 C 68 % 10.48 C
3579 03-07-2019 10:10:00 16.7 C 66 % 10.32 C
3580 03-07-2019 10:15:00 17 C 66 % 10.61 C
3581 03-07-2019 10:20:00 17.4 C 63 % 10.29 C
3582 03-07-2019 10:25:00 17.8 C 63 % 10.67 C
3583 03-07-2019 10:30:00 18.3 C 60 % 10.41 C
3584 03-07-2019 10:35:00 18.7 C 57 % 10.02 C
3585 03-07-2019 10:40:00 19 C 56 % 10.03 C
3586 03-07-2019 10:45:00 19.3 C 57 % 10.58 C
3587 03-07-2019 10:50:00 19.7 C 53 % 9.86 C
3588 03-07-2019 10:55:00 19.8 C 53 % 9.95 C
3589 03-07-2019 11:00:00 19.7 C 54 % 10.14 C
3590 03-07-2019 11:05:00 19.7 C 51 % 9.29 C
3591 03-07-2019 11:10:00 19.7 C 52 % 9.58 C
3592 03-07-2019 11:15:00 19.7 C 53 % 9.86 C
3593 03-07-2019 11:20:00 19.7 C 51 % 9.29 C
3594 03-07-2019 11:25:00 19.8 C 50 % 9.09 C
3595 03-07-2019 11:30:00 19.9 C 51 % 9.47 C
3596 03-07-2019 11:35:00 20.1 C 51 % 9.66 C
3597 03-07-2019 11:40:00 20.2 C 50 % 9.45 C
3598 03-07-2019 11:45:00 20.2 C 49 % 9.15 C
3599 03-07-2019 11:50:00 20.3 C 49 % 9.24 C
3600 03-07-2019 11:55:00 20.4 C 49 % 9.34 C
Sensor: Nr:Datum:Temp:Feuchte:Taupunkt:
Aussen-T/F 3601 03-07-2019 12:00:00 20.4 C 50 % 9.64 C
3602 03-07-2019 12:05:00 20.3 C 50 % 9.54 C
3603 03-07-2019 12:10:00 20.3 C 49 % 9.24 C
3604 03-07-2019 12:15:00 20.3 C 50 % 9.54 C
3605 03-07-2019 12:20:00 20.5 C 50 % 9.73 C
3606 03-07-2019 12:25:00 20.7 C 49 % 9.61 C
3607 03-07-2019 12:30:00 20.8 C 49 % 9.7 C
3608 03-07-2019 12:35:00 20.9 C 49 % 9.79 C
3609 03-07-2019 12:40:00 21.1 C 48 % 9.67 C
3610 03-07-2019 12:45:00 21.2 C 47 % 9.45 C
3611 03-07-2019 12:50:00 21.3 C 47 % 9.54 C
3612 03-07-2019 12:55:00 21.3 C 47 % 9.54 C
3613 03-07-2019 13:00:00 21.1 C 47 % 9.36 C
3614 03-07-2019 13:05:00 21.1 C 49 % 9.98 C
3615 03-07-2019 13:10:00 21.3 C 47 % 9.54 C
3616 03-07-2019 13:15:00 21.2 C 47 % 9.45 C
3617 03-07-2019 13:20:00 21.1 C 47 % 9.36 C
3618 03-07-2019 13:25:00 21.1 C 48 % 9.67 C
3619 03-07-2019 13:30:00 21.4 C 45 % 8.99 C
3620 03-07-2019 13:35:00 21.7 C 46 % 9.58 C
3621 03-07-2019 13:40:00 21.7 C 46 % 9.58 C
3622 03-07-2019 13:45:00 21.6 C 46 % 9.49 C
3623 03-07-2019 13:50:00 21.7 C 46 % 9.58 C
3624 03-07-2019 13:55:00 21.8 C 46 % 9.67 C
3625 03-07-2019 14:00:00 21.8 C 48 % 10.31 C
Sensor: Nr:Datum:Temp:Feuchte:Taupunkt:
Aussen-T/F 3626 03-07-2019 14:05:00 21.9 C 46 % 9.77 C
3627 03-07-2019 14:10:00 21.8 C 46 % 9.67 C
3628 03-07-2019 14:15:00 22 C 46 % 9.86 C
3629 03-07-2019 14:20:00 22.2 C 45 % 9.71 C
3630 03-07-2019 14:25:00 22.1 C 46 % 9.95 C
3631 03-07-2019 14:30:00 22 C 46 % 9.86 C
3632 03-07-2019 14:35:00 21.9 C 46 % 9.77 C
3633 03-07-2019 14:40:00 21.9 C 46 % 9.77 C
3634 03-07-2019 14:45:00 22 C 47 % 10.18 C
3635 03-07-2019 14:50:00 22.1 C 47 % 10.27 C
3636 03-07-2019 14:55:00 22 C 47 % 10.18 C
3637 03-07-2019 15:00:00 22.1 C 46 % 9.95 C
3638 03-07-2019 15:05:00 22.2 C 47 % 10.36 C
3639 03-07-2019 15:10:00 22.3 C 45 % 9.8 C
3640 03-07-2019 15:15:00 22.4 C 46 % 10.22 C
3641 03-07-2019 15:20:00 22.6 C 44 % 9.74 C
3642 03-07-2019 15:25:00 22.4 C 45 % 9.89 C
3643 03-07-2019 15:30:00 22.4 C 46 % 10.22 C
3644 03-07-2019 15:35:00 22.4 C 46 % 10.22 C
3645 03-07-2019 15:40:00 22.5 C 46 % 10.31 C
3646 03-07-2019 15:45:00 22.9 C 44 % 10.01 C
3647 03-07-2019 15:50:00 23.5 C 45 % 10.89 C
3648 03-07-2019 15:55:00 23.8 C 42 % 10.12 C
3649 03-07-2019 16:00:00 23.9 C 41 % 9.85 C
3650 03-07-2019 16:05:00 23.9 C 42 % 10.21 C
Sensor: Nr:Datum:Temp:Feuchte:Taupunkt:
Aussen-T/F 3651 03-07-2019 16:10:00 24.4 C 42 % 10.66 C
3652 03-07-2019 16:15:00 24.5 C 40 % 10.02 C
3653 03-07-2019 16:20:00 24.7 C 39 % 9.82 C
3654 03-07-2019 16:25:00 24.6 C 40 % 10.11 C
3655 03-07-2019 16:30:00 24.7 C 40 % 10.2 C
3656 03-07-2019 16:35:00 24.5 C 40 % 10.02 C
3657 03-07-2019 16:40:00 24.5 C 39 % 9.65 C
3658 03-07-2019 16:45:00 24.4 C 39 % 9.56 C
3659 03-07-2019 16:50:00 24.6 C 39 % 9.73 C
3660 03-07-2019 16:55:00 24.6 C 38 % 9.35 C
3661 03-07-2019 17:00:00 24.5 C 39 % 9.65 C
3662 03-07-2019 17:05:00 24.4 C 39 % 9.56 C
3663 03-07-2019 17:10:00 24.6 C 39 % 9.73 C
3664 03-07-2019 17:15:00 24.7 C 38 % 9.44 C
3665 03-07-2019 17:20:00 24.8 C 38 % 9.53 C
3666 03-07-2019 17:25:00 24.8 C 37 % 9.13 C
3667 03-07-2019 17:30:00 24.4 C 38 % 9.17 C
3668 03-07-2019 17:35:00 24.5 C 38 % 9.26 C
3669 03-07-2019 17:40:00 24.7 C 37 % 9.04 C
3670 03-07-2019 17:45:00 24.6 C 37 % 8.95 C
3671 03-07-2019 17:50:00 24.4 C 38 % 9.17 C
3672 03-07-2019 17:55:00 24.4 C 39 % 9.56 C
3673 03-07-2019 18:00:00 24.7 C 37 % 9.04 C
3674 03-07-2019 18:05:00 24.9 C 37 % 9.22 C
3675 03-07-2019 18:10:00 25 C 37 % 9.31 C
Sensor: Nr:Datum:Temp:Feuchte:Taupunkt:
Aussen-T/F 3676 03-07-2019 18:15:00 25.1 C 37 % 9.39 C
3677 03-07-2019 18:20:00 24.8 C 37 % 9.13 C
3678 03-07-2019 18:25:00 24.6 C 38 % 9.35 C
3679 03-07-2019 18:30:00 24.6 C 38 % 9.35 C
3680 03-07-2019 18:35:00 24.6 C 38 % 9.35 C
3681 03-07-2019 18:40:00 24.5 C 37 % 8.86 C
3682 03-07-2019 18:45:00 24.5 C 39 % 9.65 C
3683 03-07-2019 18:50:00 24.6 C 38 % 9.35 C
3684 03-07-2019 18:55:00 24.6 C 37 % 8.95 C
3685 03-07-2019 19:00:00 24.3 C 37 % 8.69 C
3686 03-07-2019 19:05:00 24.3 C 38 % 9.08 C
3687 03-07-2019 19:10:00 24.3 C 38 % 9.08 C
3688 03-07-2019 19:15:00 24.3 C 38 % 9.08 C
3689 03-07-2019 19:20:00 24.2 C 38 % 8.99 C
3690 03-07-2019 19:25:00 23.9 C 38 % 8.73 C
3691 03-07-2019 19:30:00 23.8 C 39 % 9.02 C
3692 03-07-2019 19:35:00 23.6 C 39 % 8.84 C
3693 03-07-2019 19:40:00 23.3 C 40 % 8.95 C
3694 03-07-2019 19:45:00 23.2 C 40 % 8.86 C
3695 03-07-2019 19:50:00 23.2 C 41 % 9.23 C
3696 03-07-2019 19:55:00 23.1 C 40 % 8.77 C
3697 03-07-2019 20:00:00 22.9 C 41 % 8.96 C
3698 03-07-2019 20:05:00 22.8 C 41 % 8.87 C
3699 03-07-2019 20:10:00 22.7 C 41 % 8.78 C
3700 03-07-2019 20:15:00 22.6 C 42 % 9.05 C
Sensor: Nr:Datum:Temp:Feuchte:Taupunkt:
Aussen-T/F 3701 03-07-2019 20:20:00 22.6 C 41 % 8.69 C
3702 03-07-2019 20:25:00 22.4 C 41 % 8.51 C
3703 03-07-2019 20:30:00 22.2 C 42 % 8.69 C
3704 03-07-2019 20:35:00 22.2 C 43 % 9.04 C
3705 03-07-2019 20:40:00 22.2 C 43 % 9.04 C
3706 03-07-2019 20:45:00 22.1 C 42 % 8.6 C
3707 03-07-2019 20:50:00 21.9 C 43 % 8.76 C
3708 03-07-2019 20:55:00 21.7 C 43 % 8.58 C
3709 03-07-2019 21:00:00 21.4 C 43 % 8.31 C
3710 03-07-2019 21:05:00 21.2 C 44 % 8.47 C
3711 03-07-2019 21:10:00 21 C 45 % 8.62 C
3712 03-07-2019 21:15:00 20.8 C 45 % 8.44 C
3713 03-07-2019 21:20:00 20.6 C 46 % 8.58 C
3714 03-07-2019 21:25:00 20.4 C 46 % 8.4 C
3715 03-07-2019 21:30:00 20.3 C 46 % 8.31 C
3716 03-07-2019 21:35:00 20.2 C 48 % 8.85 C
3717 03-07-2019 21:40:00 20.1 C 47 % 8.45 C
3718 03-07-2019 21:45:00 19.8 C 48 % 8.48 C
3719 03-07-2019 21:50:00 19.7 C 49 % 8.7 C
3720 03-07-2019 21:55:00 19.4 C 50 % 8.72 C
3721 03-07-2019 22:00:00 19.1 C 50 % 8.44 C
3722 03-07-2019 22:05:00 18.7 C 52 % 8.65 C
3723 03-07-2019 22:10:00 18.3 C 52 % 8.28 C
3724 03-07-2019 22:15:00 18 C 55 % 8.83 C
3725 03-07-2019 22:20:00 17.7 C 54 % 8.28 C
Sensor: Nr:Datum:Temp:Feuchte:Taupunkt:
Aussen-T/F 3726 03-07-2019 22:25:00 17.4 C 55 % 8.28 C
3727 03-07-2019 22:30:00 17.3 C 56 % 8.45 C
3728 03-07-2019 22:35:00 17.1 C 56 % 8.26 C
3729 03-07-2019 22:40:00 16.9 C 57 % 8.34 C
3730 03-07-2019 22:45:00 16.8 C 57 % 8.24 C
3731 03-07-2019 22:50:00 16.7 C 58 % 8.4 C
3732 03-07-2019 22:55:00 16.5 C 59 % 8.47 C
3733 03-07-2019 23:00:00 16.3 C 59 % 8.28 C
3734 03-07-2019 23:05:00 16.1 C 60 % 8.34 C
3735 03-07-2019 23:10:00 15.9 C 60 % 8.15 C
3736 03-07-2019 23:15:00 15.7 C 61 % 8.21 C
3737 03-07-2019 23:20:00 15.6 C 61 % 8.11 C
3738 03-07-2019 23:25:00 15.5 C 62 % 8.26 C
3739 03-07-2019 23:30:00 15.4 C 62 % 8.16 C
3740 03-07-2019 23:35:00 15.3 C 62 % 8.07 C
3741 03-07-2019 23:40:00 15.1 C 63 % 8.12 C
3742 03-07-2019 23:45:00 15 C 64 % 8.25 C
3743 03-07-2019 23:50:00 14.9 C 64 % 8.16 C
3744 03-07-2019 23:55:00 14.8 C 64 % 8.06 C
3745 04-07-2019 00:00:00 14.7 C 65 % 8.2 C
3746 04-07-2019 00:05:00 14.6 C 65 % 8.1 C
3747 04-07-2019 00:10:00 14.5 C 65 % 8.01 C
3748 04-07-2019 00:15:00 14.3 C 65 % 7.82 C
3749 04-07-2019 00:20:00 14.3 C 65 % 7.82 C
3750 04-07-2019 00:25:00 14.2 C 66 % 7.95 C
Sensor: Nr:Datum:Temp:Feuchte:Taupunkt:
Aussen-T/F 3751 04-07-2019 00:30:00 14.1 C 66 % 7.85 C
3752 04-07-2019 00:35:00 14.1 C 66 % 7.85 C
3753 04-07-2019 00:40:00 14 C 67 % 7.98 C
3754 04-07-2019 00:45:00 13.9 C 67 % 7.88 C
3755 04-07-2019 00:50:00 13.9 C 67 % 7.88 C
3756 04-07-2019 00:55:00 13.8 C 67 % 7.79 C
3757 04-07-2019 01:00:00 13.8 C 67 % 7.79 C
3758 04-07-2019 01:05:00 13.8 C 67 % 7.79 C
3759 04-07-2019 01:10:00 13.7 C 67 % 7.69 C
3760 04-07-2019 01:15:00 13.7 C 68 % 7.91 C
3761 04-07-2019 01:20:00 13.6 C 68 % 7.81 C
3762 04-07-2019 01:25:00 13.5 C 68 % 7.72 C
3763 04-07-2019 01:30:00 13.4 C 68 % 7.62 C
3764 04-07-2019 01:35:00 13.3 C 68 % 7.53 C
3765 04-07-2019 01:40:00 13.3 C 69 % 7.74 C
3766 04-07-2019 01:45:00 13.3 C 68 % 7.53 C
3767 04-07-2019 01:50:00 13.2 C 69 % 7.64 C
3768 04-07-2019 01:55:00 13.2 C 70 % 7.86 C
3769 04-07-2019 02:00:00 13.1 C 70 % 7.76 C
3770 04-07-2019 02:05:00 13.1 C 70 % 7.76 C
3771 04-07-2019 02:10:00 13 C 70 % 7.66 C
3772 04-07-2019 02:15:00 12.9 C 70 % 7.57 C
3773 04-07-2019 02:20:00 12.8 C 71 % 7.68 C
3774 04-07-2019 02:25:00 12.8 C 71 % 7.68 C
3775 04-07-2019 02:30:00 12.6 C 72 % 7.69 C
Sensor: Nr:Datum:Temp:Feuchte:Taupunkt:
Aussen-T/F 3776 04-07-2019 02:35:00 12.4 C 72 % 7.5 C
3777 04-07-2019 02:40:00 12.3 C 73 % 7.61 C
3778 04-07-2019 02:45:00 12.3 C 73 % 7.61 C
3779 04-07-2019 02:50:00 12.2 C 74 % 7.71 C
3780 04-07-2019 02:55:00 12 C 74 % 7.52 C
3781 04-07-2019 03:00:00 11.9 C 74 % 7.42 C
3782 04-07-2019 03:05:00 11.7 C 75 % 7.42 C
3783 04-07-2019 03:10:00 11.6 C 76 % 7.52 C
3784 04-07-2019 03:15:00 11.4 C 76 % 7.33 C
3785 04-07-2019 03:20:00 11.3 C 77 % 7.42 C
3786 04-07-2019 03:25:00 11.2 C 77 % 7.32 C
3787 04-07-2019 03:30:00 11.1 C 78 % 7.41 C
3788 04-07-2019 03:35:00 11 C 78 % 7.32 C
3789 04-07-2019 03:40:00 11 C 78 % 7.32 C
3790 04-07-2019 03:45:00 10.9 C 79 % 7.41 C
3791 04-07-2019 03:50:00 10.9 C 79 % 7.41 C
3792 04-07-2019 03:55:00 10.9 C 79 % 7.41 C
3793 04-07-2019 04:00:00 10.9 C 79 % 7.41 C
3794 04-07-2019 04:05:00 10.9 C 79 % 7.41 C
3795 04-07-2019 04:10:00 10.9 C 79 % 7.41 C
3796 04-07-2019 04:15:00 10.9 C 79 % 7.41 C
3797 04-07-2019 04:20:00 10.8 C 79 % 7.31 C
3798 04-07-2019 04:25:00 10.8 C 80 % 7.49 C
3799 04-07-2019 04:30:00 10.8 C 80 % 7.49 C
3800 04-07-2019 04:35:00 10.7 C 80 % 7.4 C
Sensor: Nr:Datum:Temp:Feuchte:Taupunkt:
Aussen-T/F 3801 04-07-2019 04:40:00 10.7 C 80 % 7.4 C
3802 04-07-2019 04:45:00 10.7 C 80 % 7.4 C
3803 04-07-2019 04:50:00 10.7 C 80 % 7.4 C
3804 04-07-2019 04:55:00 10.6 C 81 % 7.48 C
3805 04-07-2019 05:00:00 10.6 C 81 % 7.48 C
3806 04-07-2019 05:05:00 10.6 C 81 % 7.48 C
3807 04-07-2019 05:10:00 10.5 C 81 % 7.38 C
3808 04-07-2019 05:15:00 10.5 C 82 % 7.56 C
3809 04-07-2019 05:20:00 10.6 C 82 % 7.66 C
3810 04-07-2019 05:25:00 10.6 C 82 % 7.66 C
3811 04-07-2019 05:30:00 10.6 C 82 % 7.66 C
3812 04-07-2019 05:35:00 10.5 C 82 % 7.56 C
3813 04-07-2019 05:40:00 10.5 C 82 % 7.56 C
3814 04-07-2019 05:45:00 10.4 C 82 % 7.46 C
3815 04-07-2019 05:50:00 10.4 C 82 % 7.46 C
3816 04-07-2019 05:55:00 10.4 C 82 % 7.46 C
3817 04-07-2019 06:00:00 10.4 C 82 % 7.46 C
3818 04-07-2019 06:05:00 10.3 C 83 % 7.54 C
3819 04-07-2019 06:10:00 10.3 C 83 % 7.54 C
3820 04-07-2019 06:15:00 10.3 C 83 % 7.54 C
3821 04-07-2019 06:20:00 10.3 C 83 % 7.54 C
3822 04-07-2019 06:25:00 10.3 C 83 % 7.54 C
3823 04-07-2019 06:30:00 10.2 C 84 % 7.62 C
3824 04-07-2019 06:35:00 10.2 C 84 % 7.62 C
3825 04-07-2019 06:40:00 10.2 C 85 % 7.79 C
Sensor: Nr:Datum:Temp:Feuchte:Taupunkt:
Aussen-T/F 3826 04-07-2019 06:45:00 10.3 C 85 % 7.89 C
3827 04-07-2019 06:50:00 10.3 C 85 % 7.89 C
3828 04-07-2019 06:55:00 10.3 C 85 % 7.89 C
3829 04-07-2019 07:00:00 10.3 C 86 % 8.06 C
3830 04-07-2019 07:05:00 10.3 C 86 % 8.06 C
3831 04-07-2019 07:10:00 10.3 C 86 % 8.06 C
3832 04-07-2019 07:15:00 10.3 C 86 % 8.06 C
3833 04-07-2019 07:20:00 10.4 C 86 % 8.16 C
3834 04-07-2019 07:25:00 10.4 C 86 % 8.16 C
3835 04-07-2019 07:30:00 10.6 C 86 % 8.36 C
3836 04-07-2019 07:35:00 10.6 C 86 % 8.36 C
3837 04-07-2019 07:40:00 10.7 C 86 % 8.46 C
3838 04-07-2019 07:45:00 10.8 C 86 % 8.56 C
3839 04-07-2019 07:50:00 10.9 C 86 % 8.65 C
3840 04-07-2019 07:55:00 11 C 86 % 8.75 C
3841 04-07-2019 08:00:00 11.1 C 86 % 8.85 C
3842 04-07-2019 08:05:00 11.2 C 86 % 8.95 C
3843 04-07-2019 08:10:00 11.3 C 86 % 9.05 C
3844 04-07-2019 08:15:00 11.4 C 86 % 9.14 C
3845 04-07-2019 08:20:00 11.5 C 85 % 9.07 C
3846 04-07-2019 08:25:00 11.6 C 85 % 9.17 C
3847 04-07-2019 08:30:00 11.7 C 84 % 9.09 C
3848 04-07-2019 08:35:00 11.9 C 84 % 9.29 C
3849 04-07-2019 08:40:00 12.1 C 83 % 9.3 C
3850 04-07-2019 08:45:00 12.2 C 81 % 9.04 C
Sensor: Nr:Datum:Temp:Feuchte:Taupunkt:
Aussen-T/F 3851 04-07-2019 08:50:00 12.5 C 81 % 9.33 C
3852 04-07-2019 08:55:00 12.7 C 80 % 9.34 C
3853 04-07-2019 09:00:00 12.9 C 81 % 9.72 C
3854 04-07-2019 09:05:00 13.1 C 80 % 9.73 C
3855 04-07-2019 09:10:00 13.3 C 78 % 9.55 C
3856 04-07-2019 09:15:00 13.7 C 77 % 9.75 C
3857 04-07-2019 09:20:00 13.9 C 76 % 9.74 C
3858 04-07-2019 09:25:00 14.2 C 76 % 10.03 C
3859 04-07-2019 09:30:00 14.3 C 73 % 9.53 C
3860 04-07-2019 09:35:00 14.7 C 71 % 9.5 C
3861 04-07-2019 09:40:00 15.1 C 69 % 9.46 C
3862 04-07-2019 09:45:00 15.4 C 67 % 9.31 C
3863 04-07-2019 09:50:00 15.9 C 66 % 9.56 C
3864 04-07-2019 09:55:00 16.3 C 64 % 9.48 C
3865 04-07-2019 10:00:00 16.7 C 62 % 9.39 C
3866 04-07-2019 10:05:00 16.9 C 61 % 9.34 C
3867 04-07-2019 10:10:00 17.2 C 60 % 9.37 C
3868 04-07-2019 10:15:00 17.4 C 59 % 9.31 C
3869 04-07-2019 10:20:00 17.8 C 58 % 9.43 C
3870 04-07-2019 10:25:00 18.1 C 56 % 9.19 C
3871 04-07-2019 10:30:00 18.4 C 57 % 9.74 C
3872 04-07-2019 10:35:00 18.7 C 53 % 8.93 C
3873 04-07-2019 10:40:00 18.9 C 52 % 8.84 C
3874 04-07-2019 10:45:00 19.1 C 52 % 9.02 C
3875 04-07-2019 10:50:00 19.1 C 52 % 9.02 C
Sensor: Nr:Datum:Temp:Feuchte:Taupunkt:
Aussen-T/F 3876 04-07-2019 10:55:00 19.2 C 51 % 8.83 C